Darstellungsparameter: Aktuell verwendete Einstellungen:
Skalierung der Graphiken ... ?
xyx+y,   Skalierungsfaktor:      Skalierung: Modus: x, Faktor: 1
Darstellungszeitraum ... ?
Vom - - bis: - -   Zeitraum: 29.01.2014 - 18.02.2014
Min/Max/Avg-Anzeige ... ?
Zeige MMA aktuell
Zeige MMA Monat
Zeige MMA alles
Zeige --A aktuell
Zeige --A Monat
Zeige --A alles
Keine MMA-Anzeige
MMA:
Keine MMA-Graphiken
MMA-Basis: 29.01.2014 - 18.02.2014
Quicknavigation für Darstellung... ?
Tage:      1T, 2T, 3T, 5T -1T -2T -3T -5T +1T +2T +3T +5T
Wochen: 1W, 2W, 3W -1W -2W -3W +1W +2W +3W
Monate: 1M, 3M, 6M -1M -3M -6M +1M +3M +6M
Jahre:    1J, 3J, 5J, 10J -1J -3J -5J -10J +1J +3J +5J +10J
Nutze für die Darstellung ... ?
Originaldaten oder Mittelwerte auf ...
Stundenbasis Tagesbasis Wochenbasis
Monatsbasis Jahresbasis      Datenbasis: Original-Daten
Darstellen als:
Statistik (Auto) Statistik J:M      Darstellung:
Zur Graphik,    zurück zur Übersicht aller Sensoren.
 
Tabellarische Datenbersicht: ?
 
Sensor: Nr:Datum:Temp:Feuchte:Taupunkt:
Aussen-T/F 1 29-01-2014 00:00:00 0.2 C 94 % -0.65 C
2 29-01-2014 00:05:00 0.1 C 94 % -0.75 C
3 29-01-2014 00:10:00 0.2 C 94 % -0.65 C
4 29-01-2014 00:15:00 0.1 C 94 % -0.75 C
5 29-01-2014 00:20:00 0.2 C 95 % -0.5 C
6 29-01-2014 00:25:00 0.2 C 95 % -0.5 C
7 29-01-2014 00:30:00 0.1 C 94 % -0.75 C
8 29-01-2014 00:35:00 0.1 C 94 % -0.75 C
9 29-01-2014 00:40:00 0.1 C 95 % -0.6 C
10 29-01-2014 00:45:00 0 C 95 % -0.7 C
11 29-01-2014 00:50:00 0 C 95 % -0.7 C
12 29-01-2014 00:55:00 0.1 C 95 % -0.6 C
13 29-01-2014 01:00:00 -0.1 C 94 % -0.95 C
14 29-01-2014 01:05:00 -0.1 C 95 % -0.8 C
15 29-01-2014 01:10:00 -0.2 C 95 % -0.9 C
16 29-01-2014 01:15:00 -0.2 C 95 % -0.9 C
17 29-01-2014 01:20:00 -0.2 C 95 % -0.9 C
18 29-01-2014 01:25:00 -0.2 C 95 % -0.9 C
19 29-01-2014 01:30:00 -0.2 C 95 % -0.9 C
20 29-01-2014 01:35:00 -0.2 C 95 % -0.9 C
21 29-01-2014 01:40:00 -0.3 C 95 % -1 C
22 29-01-2014 01:45:00 -0.3 C 95 % -1 C
23 29-01-2014 01:50:00 -0.3 C 95 % -1 C
24 29-01-2014 01:55:00 -0.2 C 95 % -0.9 C
25 29-01-2014 02:00:00 -0.1 C 95 % -0.8 C
Sensor: Nr:Datum:Temp:Feuchte:Taupunkt:
Aussen-T/F 26 29-01-2014 02:05:00 0.1 C 96 % -0.46 C
27 29-01-2014 02:10:00 0.2 C 96 % -0.36 C
28 29-01-2014 02:15:00 0.3 C 96 % -0.26 C
29 29-01-2014 02:20:00 0.4 C 96 % -0.16 C
30 29-01-2014 02:25:00 0.3 C 95 % -0.4 C
31 29-01-2014 02:30:00 0.3 C 95 % -0.4 C
32 29-01-2014 02:35:00 0.2 C 95 % -0.5 C
33 29-01-2014 02:40:00 0.2 C 95 % -0.5 C
34 29-01-2014 02:45:00 0.2 C 95 % -0.5 C
35 29-01-2014 02:50:00 0.2 C 95 % -0.5 C
36 29-01-2014 02:55:00 0.2 C 95 % -0.5 C
37 29-01-2014 03:00:00 0.2 C 95 % -0.5 C
38 29-01-2014 03:05:00 0.2 C 95 % -0.5 C
39 29-01-2014 04:15:00 1 C 94 % 0.15 C
40 29-01-2014 04:20:00 1.1 C 93 % 0.1 C
41 29-01-2014 04:25:00 1.1 C 93 % 0.1 C
42 29-01-2014 04:30:00 1.2 C 93 % 0.2 C
43 29-01-2014 04:35:00 1.2 C 93 % 0.2 C
44 29-01-2014 04:40:00 1.3 C 92 % 0.15 C
45 29-01-2014 04:45:00 1.3 C 92 % 0.15 C
46 29-01-2014 04:50:00 1.3 C 92 % 0.15 C
47 29-01-2014 04:55:00 1.3 C 91 % 0 C
48 29-01-2014 05:00:00 1.3 C 91 % 0 C
49 29-01-2014 05:05:00 1.4 C 91 % 0.1 C
50 29-01-2014 05:10:00 1.4 C 91 % 0.1 C
Sensor: Nr:Datum:Temp:Feuchte:Taupunkt:
Aussen-T/F 51 29-01-2014 07:15:00 1.6 C 87 % -0.32 C
52 29-01-2014 07:20:00 1.6 C 87 % -0.32 C
53 29-01-2014 07:25:00 1.6 C 87 % -0.32 C
54 29-01-2014 07:30:00 1.6 C 87 % -0.32 C
55 29-01-2014 07:35:00 1.6 C 88 % -0.17 C
56 29-01-2014 07:40:00 1.6 C 88 % -0.17 C
57 29-01-2014 07:45:00 1.6 C 88 % -0.17 C
58 29-01-2014 07:50:00 1.7 C 87 % -0.23 C
59 29-01-2014 07:55:00 1.7 C 87 % -0.23 C
60 29-01-2014 08:00:00 1.7 C 88 % -0.07 C
61 29-01-2014 08:05:00 1.7 C 87 % -0.23 C
62 29-01-2014 08:10:00 1.7 C 86 % -0.38 C
63 29-01-2014 08:15:00 1.7 C 86 % -0.38 C
64 29-01-2014 08:20:00 1.7 C 86 % -0.38 C
65 29-01-2014 08:25:00 1.7 C 86 % -0.38 C
66 29-01-2014 08:30:00 1.8 C 87 % -0.13 C
67 29-01-2014 08:35:00 1.8 C 88 % 0.03 C
68 29-01-2014 08:40:00 1.8 C 88 % 0.03 C
69 29-01-2014 08:45:00 1.8 C 87 % -0.13 C
70 29-01-2014 08:50:00 1.9 C 85 % -0.35 C
71 29-01-2014 08:55:00 1.9 C 86 % -0.19 C
72 29-01-2014 09:00:00 1.9 C 85 % -0.35 C
73 29-01-2014 09:05:00 2 C 85 % -0.25 C
74 29-01-2014 09:10:00 2.1 C 85 % -0.15 C
75 29-01-2014 09:15:00 2.1 C 85 % -0.15 C
Sensor: Nr:Datum:Temp:Feuchte:Taupunkt:
Aussen-T/F 76 29-01-2014 09:20:00 2.1 C 85 % -0.15 C
77 29-01-2014 09:25:00 2.1 C 85 % -0.15 C
78 29-01-2014 13:35:00 4 C 76 % 0.16 C
79 29-01-2014 13:40:00 4.1 C 75 % 0.08 C
80 29-01-2014 13:45:00 4.1 C 75 % 0.08 C
81 29-01-2014 14:45:00 3.9 C 73 % -0.49 C
82 29-01-2014 14:50:00 3.9 C 73 % -0.49 C
83 29-01-2014 14:55:00 3.8 C 75 % -0.21 C
84 29-01-2014 15:00:00 3.8 C 74 % -0.4 C
85 29-01-2014 15:05:00 3.8 C 74 % -0.4 C
86 29-01-2014 16:55:00 2.9 C 76 % -0.9 C
87 29-01-2014 17:20:00 2.8 C 76 % -1 C
88 29-01-2014 17:25:00 2.7 C 76 % -1.1 C
89 29-01-2014 17:30:00 2.7 C 77 % -0.92 C
90 29-01-2014 17:35:00 2.7 C 76 % -1.1 C
91 29-01-2014 17:40:00 2.6 C 79 % -0.67 C
92 29-01-2014 17:45:00 2.6 C 78 % -0.84 C
93 29-01-2014 17:50:00 2.5 C 78 % -0.94 C
94 29-01-2014 17:55:00 2.4 C 78 % -1.03 C
95 29-01-2014 18:00:00 2.4 C 78 % -1.03 C
96 29-01-2014 18:05:00 2.4 C 79 % -0.86 C
97 29-01-2014 18:10:00 2.3 C 80 % -0.79 C
98 29-01-2014 18:15:00 2.2 C 80 % -0.88 C
99 29-01-2014 18:20:00 2.2 C 81 % -0.71 C
100 29-01-2014 18:25:00 2 C 82 % -0.74 C
Sensor: Nr:Datum:Temp:Feuchte:Taupunkt:
Aussen-T/F 101 29-01-2014 18:30:00 1.9 C 83 % -0.67 C
102 29-01-2014 18:35:00 1.8 C 83 % -0.77 C
103 29-01-2014 18:40:00 1.8 C 83 % -0.77 C
104 29-01-2014 18:45:00 1.8 C 83 % -0.77 C
105 29-01-2014 18:50:00 1.7 C 84 % -0.71 C
106 29-01-2014 18:55:00 1.7 C 84 % -0.71 C
107 29-01-2014 19:00:00 1.7 C 85 % -0.54 C
108 29-01-2014 19:05:00 1.6 C 84 % -0.8 C
109 29-01-2014 19:10:00 1.6 C 84 % -0.8 C
110 29-01-2014 19:15:00 1.6 C 83 % -0.97 C
111 29-01-2014 19:20:00 1.7 C 84 % -0.71 C
112 29-01-2014 19:25:00 1.7 C 84 % -0.71 C
113 29-01-2014 19:30:00 1.7 C 84 % -0.71 C
114 29-01-2014 19:35:00 1.8 C 83 % -0.77 C
115 29-01-2014 19:40:00 1.8 C 82 % -0.94 C
116 29-01-2014 19:45:00 1.9 C 83 % -0.67 C
117 29-01-2014 19:50:00 2.1 C 81 % -0.81 C
118 29-01-2014 19:55:00 2.2 C 79 % -1.05 C
119 29-01-2014 20:00:00 2.3 C 80 % -0.79 C
120 29-01-2014 20:05:00 2.4 C 79 % -0.86 C
121 29-01-2014 20:10:00 2.4 C 79 % -0.86 C
122 29-01-2014 20:15:00 2.3 C 80 % -0.79 C
123 29-01-2014 20:20:00 2.3 C 79 % -0.96 C
124 29-01-2014 20:25:00 2.3 C 79 % -0.96 C
125 29-01-2014 20:30:00 2.3 C 79 % -0.96 C
Sensor: Nr:Datum:Temp:Feuchte:Taupunkt:
Aussen-T/F 126 29-01-2014 20:35:00 2.2 C 81 % -0.71 C
127 29-01-2014 20:40:00 2.2 C 80 % -0.88 C
128 29-01-2014 20:45:00 2.1 C 80 % -0.98 C
129 29-01-2014 20:50:00 2 C 81 % -0.91 C
130 29-01-2014 20:55:00 2 C 79 % -1.25 C
131 29-01-2014 21:00:00 2.1 C 79 % -1.15 C
132 29-01-2014 21:05:00 2.1 C 81 % -0.81 C
133 29-01-2014 21:10:00 1.9 C 82 % -0.84 C
134 29-01-2014 21:15:00 1.8 C 83 % -0.77 C
135 29-01-2014 21:20:00 1.7 C 82 % -1.03 C
136 29-01-2014 21:25:00 1.9 C 81 % -1.01 C
137 29-01-2014 21:30:00 1.9 C 82 % -0.84 C
138 29-01-2014 21:35:00 1.9 C 81 % -1.01 C
139 29-01-2014 21:40:00 1.9 C 81 % -1.01 C
140 29-01-2014 21:45:00 1.9 C 81 % -1.01 C
141 29-01-2014 21:50:00 1.9 C 80 % -1.18 C
142 29-01-2014 21:55:00 2.1 C 80 % -0.98 C
143 29-01-2014 22:00:00 2.1 C 81 % -0.81 C
144 29-01-2014 22:05:00 2.1 C 82 % -0.64 C
145 29-01-2014 22:10:00 2 C 82 % -0.74 C
146 29-01-2014 22:15:00 1.9 C 82 % -0.84 C
147 29-01-2014 22:20:00 1.9 C 81 % -1.01 C
148 29-01-2014 22:25:00 2 C 80 % -1.08 C
149 29-01-2014 22:30:00 2 C 82 % -0.74 C
150 29-01-2014 22:35:00 1.9 C 81 % -1.01 C
Sensor: Nr:Datum:Temp:Feuchte:Taupunkt:
Aussen-T/F 151 29-01-2014 22:40:00 1.8 C 82 % -0.94 C
152 29-01-2014 22:45:00 1.7 C 83 % -0.87 C
153 29-01-2014 22:50:00 1.6 C 84 % -0.8 C
154 29-01-2014 22:55:00 1.4 C 85 % -0.84 C
155 29-01-2014 23:00:00 1.3 C 85 % -0.94 C
156 29-01-2014 23:05:00 1.1 C 86 % -0.97 C
157 29-01-2014 23:10:00 1.1 C 87 % -0.82 C
158 29-01-2014 23:15:00 1.2 C 86 % -0.88 C
159 29-01-2014 23:20:00 1.3 C 86 % -0.78 C
160 29-01-2014 23:25:00 1.4 C 85 % -0.84 C
161 29-01-2014 23:30:00 1.6 C 83 % -0.97 C
162 29-01-2014 23:35:00 1.7 C 85 % -0.54 C
163 29-01-2014 23:40:00 1.7 C 85 % -0.54 C
164 29-01-2014 23:45:00 1.7 C 85 % -0.54 C
165 29-01-2014 23:50:00 1.8 C 83 % -0.77 C
166 29-01-2014 23:55:00 1.8 C 83 % -0.77 C
167 30-01-2014 00:00:00 2 C 81 % -0.91 C
168 30-01-2014 00:05:00 2.1 C 82 % -0.64 C
169 30-01-2014 00:10:00 2.1 C 81 % -0.81 C
170 30-01-2014 00:15:00 2.1 C 82 % -0.64 C
171 30-01-2014 00:20:00 2.1 C 81 % -0.81 C
172 30-01-2014 00:25:00 2.1 C 80 % -0.98 C
173 30-01-2014 00:30:00 2.1 C 80 % -0.98 C
174 30-01-2014 00:35:00 2.1 C 83 % -0.48 C
175 30-01-2014 00:40:00 2.1 C 83 % -0.48 C
Sensor: Nr:Datum:Temp:Feuchte:Taupunkt:
Aussen-T/F 176 30-01-2014 00:45:00 1.9 C 83 % -0.67 C
177 30-01-2014 00:50:00 1.9 C 84 % -0.51 C
178 30-01-2014 00:55:00 1.8 C 84 % -0.61 C
179 30-01-2014 01:00:00 1.8 C 84 % -0.61 C
180 30-01-2014 01:05:00 1.8 C 84 % -0.61 C
181 30-01-2014 01:10:00 1.7 C 85 % -0.54 C
182 30-01-2014 01:15:00 1.7 C 85 % -0.54 C
183 30-01-2014 01:20:00 1.7 C 85 % -0.54 C
184 30-01-2014 01:25:00 1.7 C 84 % -0.71 C
185 30-01-2014 01:30:00 1.8 C 83 % -0.77 C
186 30-01-2014 01:35:00 1.8 C 83 % -0.77 C
187 30-01-2014 01:40:00 1.8 C 83 % -0.77 C
188 30-01-2014 01:45:00 1.9 C 84 % -0.51 C
189 30-01-2014 01:50:00 1.9 C 84 % -0.51 C
190 30-01-2014 01:55:00 1.9 C 84 % -0.51 C
191 30-01-2014 02:00:00 1.8 C 84 % -0.61 C
192 30-01-2014 02:05:00 1.8 C 84 % -0.61 C
193 30-01-2014 02:10:00 1.8 C 83 % -0.77 C
194 30-01-2014 02:15:00 1.9 C 85 % -0.35 C
195 30-01-2014 02:20:00 1.9 C 85 % -0.35 C
196 30-01-2014 02:25:00 1.9 C 83 % -0.67 C
197 30-01-2014 02:30:00 1.9 C 83 % -0.67 C
198 30-01-2014 02:35:00 1.9 C 83 % -0.67 C
199 30-01-2014 02:40:00 1.9 C 83 % -0.67 C
200 30-01-2014 02:45:00 1.9 C 83 % -0.67 C
Sensor: Nr:Datum:Temp:Feuchte:Taupunkt:
Aussen-T/F 201 30-01-2014 02:50:00 1.9 C 83 % -0.67 C
202 30-01-2014 02:55:00 1.9 C 84 % -0.51 C
203 30-01-2014 03:00:00 1.9 C 83 % -0.67 C
204 30-01-2014 03:05:00 1.9 C 83 % -0.67 C
205 30-01-2014 03:10:00 1.9 C 83 % -0.67 C
206 30-01-2014 03:15:00 1.9 C 83 % -0.67 C
207 30-01-2014 03:20:00 1.9 C 83 % -0.67 C
208 30-01-2014 03:25:00 1.9 C 83 % -0.67 C
209 30-01-2014 03:30:00 1.9 C 83 % -0.67 C
210 30-01-2014 03:35:00 1.9 C 83 % -0.67 C
211 30-01-2014 03:40:00 1.9 C 83 % -0.67 C
212 30-01-2014 03:45:00 1.9 C 81 % -1.01 C
213 30-01-2014 03:50:00 1.9 C 82 % -0.84 C
214 30-01-2014 03:55:00 1.9 C 81 % -1.01 C
215 30-01-2014 04:00:00 1.9 C 81 % -1.01 C
216 30-01-2014 04:05:00 1.9 C 81 % -1.01 C
217 30-01-2014 04:10:00 1.9 C 81 % -1.01 C
218 30-01-2014 04:15:00 1.9 C 81 % -1.01 C
219 30-01-2014 04:20:00 2 C 82 % -0.74 C
220 30-01-2014 04:25:00 1.9 C 82 % -0.84 C
221 30-01-2014 04:30:00 1.9 C 82 % -0.84 C
222 30-01-2014 04:35:00 1.9 C 83 % -0.67 C
223 30-01-2014 04:40:00 1.9 C 84 % -0.51 C
224 30-01-2014 04:45:00 1.9 C 84 % -0.51 C
225 30-01-2014 04:50:00 1.8 C 83 % -0.77 C
Sensor: Nr:Datum:Temp:Feuchte:Taupunkt:
Aussen-T/F 226 30-01-2014 04:55:00 1.8 C 82 % -0.94 C
227 30-01-2014 05:00:00 1.9 C 82 % -0.84 C
228 30-01-2014 05:05:00 1.9 C 83 % -0.67 C
229 30-01-2014 05:10:00 1.9 C 83 % -0.67 C
230 30-01-2014 05:15:00 1.9 C 82 % -0.84 C
231 30-01-2014 05:20:00 1.9 C 82 % -0.84 C
232 30-01-2014 05:25:00 1.9 C 82 % -0.84 C
233 30-01-2014 05:30:00 1.9 C 83 % -0.67 C
234 30-01-2014 05:35:00 1.9 C 83 % -0.67 C
235 30-01-2014 05:40:00 1.9 C 82 % -0.84 C
236 30-01-2014 05:45:00 1.9 C 83 % -0.67 C
237 30-01-2014 05:50:00 1.9 C 83 % -0.67 C
238 30-01-2014 05:55:00 1.8 C 84 % -0.61 C
239 30-01-2014 06:00:00 1.8 C 84 % -0.61 C
240 30-01-2014 06:05:00 1.8 C 84 % -0.61 C
241 30-01-2014 06:10:00 1.8 C 84 % -0.61 C
242 30-01-2014 06:15:00 1.8 C 84 % -0.61 C
243 30-01-2014 06:20:00 1.6 C 84 % -0.8 C
244 30-01-2014 06:25:00 1.5 C 85 % -0.74 C
245 30-01-2014 06:30:00 1.3 C 85 % -0.94 C
246 30-01-2014 06:35:00 1.2 C 85 % -1.03 C
247 30-01-2014 06:40:00 1.1 C 85 % -1.13 C
248 30-01-2014 06:45:00 0.9 C 85 % -1.33 C
249 30-01-2014 06:50:00 0.8 C 86 % -1.27 C
250 30-01-2014 06:55:00 0.7 C 86 % -1.37 C
Sensor: Nr:Datum:Temp:Feuchte:Taupunkt:
Aussen-T/F 251 30-01-2014 07:00:00 0.5 C 87 % -1.41 C
252 30-01-2014 07:05:00 0.4 C 87 % -1.5 C
253 30-01-2014 07:10:00 0.3 C 87 % -1.6 C
254 30-01-2014 07:15:00 0.3 C 87 % -1.6 C
255 30-01-2014 07:20:00 0.2 C 87 % -1.7 C
256 30-01-2014 07:25:00 0.1 C 88 % -1.65 C
257 30-01-2014 07:30:00 0 C 88 % -1.74 C
258 30-01-2014 07:35:00 0 C 88 % -1.74 C
259 30-01-2014 07:40:00 0 C 89 % -1.59 C
260 30-01-2014 07:45:00 0.1 C 89 % -1.49 C
261 30-01-2014 07:50:00 0.1 C 89 % -1.49 C
262 30-01-2014 07:55:00 0.2 C 89 % -1.39 C
263 30-01-2014 08:00:00 0.3 C 89 % -1.29 C
264 30-01-2014 08:05:00 0.3 C 89 % -1.29 C
265 30-01-2014 08:10:00 0.4 C 89 % -1.2 C
266 30-01-2014 08:15:00 0.4 C 89 % -1.2 C
267 30-01-2014 08:20:00 0.5 C 88 % -1.25 C
268 30-01-2014 08:25:00 0.6 C 88 % -1.15 C
269 30-01-2014 08:30:00 0.6 C 89 % -1 C
270 30-01-2014 08:35:00 0.7 C 89 % -0.9 C
271 30-01-2014 08:40:00 0.7 C 88 % -1.05 C
272 30-01-2014 08:45:00 0.7 C 88 % -1.05 C
273 30-01-2014 08:50:00 0.8 C 87 % -1.11 C
274 30-01-2014 08:55:00 0.8 C 87 % -1.11 C
275 30-01-2014 09:00:00 0.9 C 87 % -1.01 C
Sensor: Nr:Datum:Temp:Feuchte:Taupunkt:
Aussen-T/F 276 30-01-2014 09:05:00 0.9 C 87 % -1.01 C
277 30-01-2014 09:10:00 1 C 86 % -1.07 C
278 30-01-2014 09:15:00 1.1 C 86 % -0.97 C
279 30-01-2014 09:20:00 1.1 C 86 % -0.97 C
280 30-01-2014 09:25:00 1.2 C 85 % -1.03 C
281 30-01-2014 09:30:00 1.3 C 85 % -0.94 C
282 30-01-2014 09:35:00 1.3 C 84 % -1.1 C
283 30-01-2014 09:40:00 1.4 C 85 % -0.84 C
284 30-01-2014 09:45:00 1.4 C 84 % -1 C
285 30-01-2014 09:50:00 1.5 C 83 % -1.06 C
286 30-01-2014 09:55:00 1.6 C 83 % -0.97 C
287 30-01-2014 10:00:00 1.7 C 83 % -0.87 C
288 30-01-2014 10:05:00 1.7 C 82 % -1.03 C
289 30-01-2014 10:10:00 1.8 C 82 % -0.94 C
290 30-01-2014 10:15:00 1.9 C 82 % -0.84 C
291 30-01-2014 10:20:00 2 C 82 % -0.74 C
292 30-01-2014 10:25:00 2.1 C 81 % -0.81 C
293 30-01-2014 10:30:00 2.1 C 80 % -0.98 C
294 30-01-2014 10:35:00 2.2 C 81 % -0.71 C
295 30-01-2014 10:40:00 2.3 C 81 % -0.62 C
296 30-01-2014 10:45:00 2.4 C 80 % -0.69 C
297 30-01-2014 10:50:00 2.5 C 81 % -0.42 C
298 30-01-2014 10:55:00 2.6 C 79 % -0.67 C
299 30-01-2014 11:00:00 2.7 C 79 % -0.57 C
300 30-01-2014 11:05:00 2.8 C 79 % -0.47 C
Sensor: Nr:Datum:Temp:Feuchte:Taupunkt:
Aussen-T/F 301 30-01-2014 11:10:00 2.9 C 78 % -0.55 C
302 30-01-2014 11:15:00 3.1 C 78 % -0.35 C
303 30-01-2014 11:20:00 3.1 C 78 % -0.35 C
304 30-01-2014 11:25:00 3.1 C 78 % -0.35 C
305 30-01-2014 11:30:00 3.1 C 78 % -0.35 C
306 30-01-2014 11:35:00 3.2 C 77 % -0.43 C
307 30-01-2014 11:40:00 3.2 C 77 % -0.43 C
308 30-01-2014 11:45:00 3.2 C 76 % -0.61 C
309 30-01-2014 11:50:00 3.2 C 76 % -0.61 C
310 30-01-2014 11:55:00 3.2 C 77 % -0.43 C
311 30-01-2014 12:00:00 3.2 C 76 % -0.61 C
312 30-01-2014 12:05:00 3.2 C 78 % -0.26 C
313 30-01-2014 12:10:00 3.2 C 78 % -0.26 C
314 30-01-2014 12:15:00 3.2 C 77 % -0.43 C
315 30-01-2014 12:20:00 3.3 C 77 % -0.34 C
316 30-01-2014 12:25:00 3.4 C 76 % -0.42 C
317 30-01-2014 12:30:00 3.5 C 78 % 0.04 C
318 30-01-2014 12:35:00 3.5 C 78 % 0.04 C
319 30-01-2014 12:40:00 3.5 C 78 % 0.04 C
320 30-01-2014 12:45:00 3.5 C 79 % 0.21 C
321 30-01-2014 12:50:00 3.4 C 80 % 0.29 C
322 30-01-2014 12:55:00 3.3 C 80 % 0.19 C
323 30-01-2014 13:00:00 3.4 C 80 % 0.29 C
324 30-01-2014 13:05:00 3.4 C 82 % 0.63 C
325 30-01-2014 13:10:00 3.4 C 82 % 0.63 C
Sensor: Nr:Datum:Temp:Feuchte:Taupunkt:
Aussen-T/F 326 30-01-2014 13:15:00 3.5 C 80 % 0.38 C
327 30-01-2014 13:20:00 3.6 C 79 % 0.31 C
328 30-01-2014 13:25:00 3.9 C 77 % 0.25 C
329 30-01-2014 13:30:00 4.2 C 76 % 0.36 C
330 30-01-2014 13:35:00 4.6 C 75 % 0.56 C
331 30-01-2014 13:40:00 4.6 C 78 % 1.1 C
332 30-01-2014 13:45:00 4.7 C 74 % 0.47 C
333 30-01-2014 13:50:00 4.9 C 73 % 0.48 C
334 30-01-2014 13:55:00 5.1 C 72 % 0.48 C
335 30-01-2014 14:00:00 5.2 C 72 % 0.58 C
336 30-01-2014 14:05:00 5.4 C 72 % 0.77 C
337 30-01-2014 14:10:00 5.5 C 72 % 0.86 C
338 30-01-2014 14:15:00 5.5 C 70 % 0.48 C
339 30-01-2014 14:20:00 5.5 C 72 % 0.86 C
340 30-01-2014 14:25:00 5.4 C 72 % 0.77 C
341 30-01-2014 14:30:00 5.4 C 74 % 1.15 C
342 30-01-2014 14:35:00 5.3 C 76 % 1.42 C
343 30-01-2014 14:40:00 5.2 C 75 % 1.14 C
344 30-01-2014 14:45:00 5.3 C 72 % 0.67 C
345 30-01-2014 14:50:00 5.4 C 74 % 1.15 C
346 30-01-2014 14:55:00 5.2 C 78 % 1.69 C
347 30-01-2014 15:00:00 5.1 C 77 % 1.41 C
348 30-01-2014 15:05:00 4.8 C 79 % 1.47 C
349 30-01-2014 15:10:00 4.7 C 80 % 1.55 C
350 30-01-2014 15:15:00 4.7 C 80 % 1.55 C
Sensor: Nr:Datum:Temp:Feuchte:Taupunkt:
Aussen-T/F 351 30-01-2014 15:20:00 4.8 C 79 % 1.47 C
352 30-01-2014 15:25:00 4.7 C 82 % 1.9 C
353 30-01-2014 15:30:00 4.7 C 81 % 1.73 C
354 30-01-2014 15:35:00 4.7 C 82 % 1.9 C
355 30-01-2014 15:40:00 4.8 C 81 % 1.82 C
356 30-01-2014 15:45:00 4.8 C 82 % 1.99 C
357 30-01-2014 15:50:00 4.8 C 78 % 1.3 C
358 30-01-2014 15:55:00 4.8 C 80 % 1.65 C
359 30-01-2014 16:00:00 4.9 C 81 % 1.92 C
360 30-01-2014 16:05:00 4.8 C 81 % 1.82 C
361 30-01-2014 16:10:00 4.7 C 82 % 1.9 C
362 30-01-2014 16:15:00 4.7 C 82 % 1.9 C
363 30-01-2014 16:20:00 4.6 C 83 % 1.97 C
364 30-01-2014 16:25:00 4.5 C 82 % 1.7 C
365 30-01-2014 16:30:00 4.4 C 82 % 1.6 C
366 30-01-2014 16:35:00 4.3 C 83 % 1.67 C
367 30-01-2014 16:40:00 4.1 C 84 % 1.65 C
368 30-01-2014 16:45:00 3.9 C 83 % 1.28 C
369 30-01-2014 16:50:00 3.7 C 84 % 1.25 C
370 30-01-2014 16:55:00 3.4 C 85 % 1.12 C
371 30-01-2014 17:00:00 3.2 C 85 % 0.93 C
372 30-01-2014 17:05:00 3.1 C 85 % 0.83 C
373 30-01-2014 17:10:00 2.9 C 86 % 0.8 C
374 30-01-2014 17:15:00 2.8 C 86 % 0.7 C
375 30-01-2014 17:20:00 2.7 C 86 % 0.6 C
Sensor: Nr:Datum:Temp:Feuchte:Taupunkt:
Aussen-T/F 376 30-01-2014 17:25:00 2.6 C 86 % 0.5 C
377 30-01-2014 17:30:00 2.4 C 87 % 0.46 C
378 30-01-2014 17:35:00 2.3 C 87 % 0.36 C
379 30-01-2014 17:40:00 2.2 C 87 % 0.27 C
380 30-01-2014 17:45:00 2.1 C 87 % 0.17 C
381 30-01-2014 17:50:00 2 C 87 % 0.07 C
382 30-01-2014 17:55:00 1.9 C 88 % 0.13 C
383 30-01-2014 18:00:00 1.8 C 88 % 0.03 C
384 30-01-2014 18:05:00 1.8 C 88 % 0.03 C
385 30-01-2014 18:10:00 1.7 C 88 % -0.07 C
386 30-01-2014 18:15:00 1.6 C 88 % -0.17 C
387 30-01-2014 18:20:00 1.6 C 89 % -0.01 C
388 30-01-2014 18:25:00 1.6 C 88 % -0.17 C
389 30-01-2014 18:30:00 1.6 C 88 % -0.17 C
390 30-01-2014 18:35:00 1.5 C 89 % -0.11 C
391 30-01-2014 18:40:00 1.4 C 89 % -0.21 C
392 30-01-2014 18:45:00 1.4 C 90 % -0.06 C
393 30-01-2014 18:50:00 1.3 C 90 % -0.15 C
394 30-01-2014 18:55:00 1.2 C 89 % -0.41 C
395 30-01-2014 19:00:00 1.2 C 89 % -0.41 C
396 30-01-2014 19:05:00 1.1 C 90 % -0.35 C
397 30-01-2014 19:10:00 1.1 C 90 % -0.35 C
398 30-01-2014 19:15:00 1 C 90 % -0.45 C
399 30-01-2014 19:20:00 0.9 C 89 % -0.7 C
400 30-01-2014 19:25:00 0.9 C 90 % -0.55 C
Sensor: Nr:Datum:Temp:Feuchte:Taupunkt:
Aussen-T/F 401 30-01-2014 19:30:00 0.8 C 90 % -0.65 C
402 30-01-2014 19:35:00 0.8 C 90 % -0.65 C
403 30-01-2014 19:40:00 0.8 C 90 % -0.65 C
404 30-01-2014 19:45:00 0.8 C 90 % -0.65 C
405 30-01-2014 19:50:00 0.8 C 90 % -0.65 C
406 30-01-2014 19:55:00 0.8 C 90 % -0.65 C
407 30-01-2014 20:00:00 0.7 C 90 % -0.75 C
408 30-01-2014 20:05:00 0.7 C 90 % -0.75 C
409 30-01-2014 20:10:00 0.7 C 90 % -0.75 C
410 30-01-2014 20:15:00 0.7 C 90 % -0.75 C
411 30-01-2014 20:20:00 0.6 C 90 % -0.85 C
412 30-01-2014 20:25:00 0.7 C 90 % -0.75 C
413 30-01-2014 20:30:00 0.6 C 90 % -0.85 C
414 30-01-2014 20:35:00 0.6 C 90 % -0.85 C
415 30-01-2014 20:40:00 0.5 C 90 % -0.95 C
416 30-01-2014 20:45:00 0.4 C 90 % -1.04 C
417 30-01-2014 20:50:00 0.4 C 90 % -1.04 C
418 30-01-2014 20:55:00 0.4 C 90 % -1.04 C
419 30-01-2014 21:00:00 0.4 C 90 % -1.04 C
420 30-01-2014 21:05:00 0.3 C 90 % -1.14 C
421 30-01-2014 21:10:00 0.3 C 90 % -1.14 C
422 30-01-2014 21:15:00 0.3 C 90 % -1.14 C
423 30-01-2014 21:20:00 0.3 C 90 % -1.14 C
424 30-01-2014 21:25:00 0.2 C 90 % -1.24 C
425 30-01-2014 21:30:00 0.2 C 90 % -1.24 C
Sensor: Nr:Datum:Temp:Feuchte:Taupunkt:
Aussen-T/F 426 30-01-2014 21:35:00 0.2 C 90 % -1.24 C
427 30-01-2014 21:40:00 0.2 C 90 % -1.24 C
428 30-01-2014 21:45:00 0.1 C 90 % -1.34 C
429 30-01-2014 21:50:00 0.1 C 90 % -1.34 C
430 30-01-2014 21:55:00 0.1 C 90 % -1.34 C
431 30-01-2014 22:00:00 0.1 C 90 % -1.34 C
432 30-01-2014 22:05:00 0.1 C 90 % -1.34 C
433 30-01-2014 22:10:00 0.1 C 90 % -1.34 C
434 30-01-2014 22:15:00 0.1 C 90 % -1.34 C
435 30-01-2014 22:20:00 0 C 90 % -1.44 C
436 30-01-2014 22:25:00 0 C 91 % -1.29 C
437 30-01-2014 22:30:00 -0.1 C 91 % -1.39 C
438 30-01-2014 22:35:00 -0.1 C 91 % -1.39 C
439 30-01-2014 22:40:00 -0.1 C 92 % -1.24 C
440 30-01-2014 22:45:00 -0.1 C 92 % -1.24 C
441 30-01-2014 22:50:00 0 C 92 % -1.14 C
442 30-01-2014 22:55:00 0 C 92 % -1.14 C
443 30-01-2014 23:00:00 0 C 92 % -1.14 C
444 30-01-2014 23:05:00 0 C 92 % -1.14 C
445 30-01-2014 23:10:00 0 C 92 % -1.14 C
446 30-01-2014 23:15:00 0 C 92 % -1.14 C
447 30-01-2014 23:20:00 0 C 92 % -1.14 C
448 30-01-2014 23:25:00 0 C 92 % -1.14 C
449 30-01-2014 23:30:00 0 C 92 % -1.14 C
450 30-01-2014 23:35:00 0.1 C 92 % -1.04 C
Sensor: Nr:Datum:Temp:Feuchte:Taupunkt:
Aussen-T/F 451 30-01-2014 23:40:00 0.1 C 92 % -1.04 C
452 30-01-2014 23:45:00 0.1 C 92 % -1.04 C
453 30-01-2014 23:50:00 0.2 C 92 % -0.94 C
454 30-01-2014 23:55:00 0.2 C 92 % -0.94 C
455 31-01-2014 00:00:00 0.2 C 92 % -0.94 C
456 31-01-2014 00:05:00 0.2 C 92 % -0.94 C
457 31-01-2014 00:10:00 0.2 C 92 % -0.94 C
458 31-01-2014 00:15:00 0.2 C 92 % -0.94 C
459 31-01-2014 00:20:00 0.2 C 92 % -0.94 C
460 31-01-2014 00:25:00 0.2 C 92 % -0.94 C
461 31-01-2014 00:30:00 0.2 C 92 % -0.94 C
462 31-01-2014 00:35:00 0.2 C 92 % -0.94 C
463 31-01-2014 00:40:00 0.3 C 92 % -0.84 C
464 31-01-2014 00:45:00 0.3 C 92 % -0.84 C
465 31-01-2014 00:50:00 0.3 C 92 % -0.84 C
466 31-01-2014 00:55:00 0.3 C 92 % -0.84 C
467 31-01-2014 01:00:00 0.3 C 92 % -0.84 C
468 31-01-2014 01:05:00 0.3 C 92 % -0.84 C
469 31-01-2014 01:10:00 0.3 C 92 % -0.84 C
470 31-01-2014 01:15:00 0.3 C 92 % -0.84 C
471 31-01-2014 01:20:00 0.3 C 91 % -0.99 C
472 31-01-2014 01:25:00 0.4 C 91 % -0.89 C
473 31-01-2014 01:30:00 0.4 C 91 % -0.89 C
474 31-01-2014 01:35:00 0.4 C 91 % -0.89 C
475 31-01-2014 01:40:00 0.4 C 91 % -0.89 C
Sensor: Nr:Datum:Temp:Feuchte:Taupunkt:
Aussen-T/F 476 31-01-2014 01:45:00 0.3 C 91 % -0.99 C
477 31-01-2014 01:50:00 0.3 C 91 % -0.99 C
478 31-01-2014 01:55:00 0.3 C 91 % -0.99 C
479 31-01-2014 02:00:00 0.2 C 91 % -1.09 C
480 31-01-2014 02:05:00 0.2 C 91 % -1.09 C
481 31-01-2014 02:10:00 0.2 C 91 % -1.09 C
482 31-01-2014 02:15:00 0.2 C 91 % -1.09 C
483 31-01-2014 02:20:00 0.2 C 92 % -0.94 C
484 31-01-2014 02:25:00 0.2 C 92 % -0.94 C
485 31-01-2014 02:30:00 0.3 C 91 % -0.99 C
486 31-01-2014 02:35:00 0.3 C 91 % -0.99 C
487 31-01-2014 02:40:00 0.3 C 91 % -0.99 C
488 31-01-2014 02:45:00 0.3 C 91 % -0.99 C
489 31-01-2014 02:50:00 0.2 C 91 % -1.09 C
490 31-01-2014 02:55:00 0.1 C 91 % -1.19 C
491 31-01-2014 03:00:00 0.1 C 91 % -1.19 C
492 31-01-2014 03:05:00 -0.1 C 91 % -1.39 C
493 31-01-2014 03:10:00 -0.2 C 91 % -1.49 C
494 31-01-2014 03:15:00 -0.2 C 91 % -1.49 C
495 31-01-2014 03:20:00 -0.2 C 91 % -1.49 C
496 31-01-2014 03:25:00 -0.1 C 91 % -1.39 C
497 31-01-2014 03:30:00 -0.1 C 92 % -1.24 C
498 31-01-2014 03:35:00 0 C 92 % -1.14 C
499 31-01-2014 03:40:00 0.1 C 92 % -1.04 C
500 31-01-2014 03:45:00 0.1 C 91 % -1.19 C
Sensor: Nr:Datum:Temp:Feuchte:Taupunkt:
Aussen-T/F 501 31-01-2014 03:50:00 0.2 C 91 % -1.09 C
502 31-01-2014 03:55:00 0.2 C 91 % -1.09 C
503 31-01-2014 04:00:00 0.2 C 91 % -1.09 C
504 31-01-2014 04:05:00 0.2 C 91 % -1.09 C
505 31-01-2014 04:10:00 0.2 C 91 % -1.09 C
506 31-01-2014 04:15:00 0.3 C 91 % -0.99 C
507 31-01-2014 04:20:00 0.3 C 91 % -0.99 C
508 31-01-2014 04:25:00 0.3 C 91 % -0.99 C
509 31-01-2014 04:30:00 0.3 C 91 % -0.99 C
510 31-01-2014 04:35:00 0.3 C 91 % -0.99 C
511 31-01-2014 04:40:00 0.3 C 91 % -0.99 C
512 31-01-2014 04:45:00 0.3 C 91 % -0.99 C
513 31-01-2014 04:50:00 0.3 C 91 % -0.99 C
514 31-01-2014 04:55:00 0.3 C 91 % -0.99 C
515 31-01-2014 05:00:00 0.3 C 91 % -0.99 C
516 31-01-2014 05:05:00 0.3 C 91 % -0.99 C
517 31-01-2014 05:10:00 0.3 C 91 % -0.99 C
518 31-01-2014 05:15:00 0.3 C 91 % -0.99 C
519 31-01-2014 05:20:00 0.2 C 91 % -1.09 C
520 31-01-2014 05:25:00 0.2 C 91 % -1.09 C
521 31-01-2014 05:30:00 0.1 C 91 % -1.19 C
522 31-01-2014 05:35:00 0 C 91 % -1.29 C
523 31-01-2014 05:40:00 -0.1 C 91 % -1.39 C
524 31-01-2014 05:45:00 0 C 91 % -1.29 C
525 31-01-2014 05:50:00 0 C 91 % -1.29 C
Sensor: Nr:Datum:Temp:Feuchte:Taupunkt:
Aussen-T/F 526 31-01-2014 05:55:00 0 C 91 % -1.29 C
527 31-01-2014 06:00:00 0.1 C 91 % -1.19 C
528 31-01-2014 06:05:00 0 C 91 % -1.29 C
529 31-01-2014 06:10:00 -0.1 C 91 % -1.39 C
530 31-01-2014 06:15:00 -0.1 C 91 % -1.39 C
531 31-01-2014 06:20:00 -0.2 C 91 % -1.49 C
532 31-01-2014 06:25:00 -0.3 C 91 % -1.59 C
533 31-01-2014 06:30:00 -0.3 C 92 % -1.44 C
534 31-01-2014 06:35:00 -0.4 C 92 % -1.54 C
535 31-01-2014 06:40:00 -0.4 C 92 % -1.54 C
536 31-01-2014 06:45:00 -0.5 C 93 % -1.49 C
537 31-01-2014 06:50:00 -0.6 C 92 % -1.74 C
538 31-01-2014 06:55:00 -0.6 C 93 % -1.59 C
539 31-01-2014 07:00:00 -0.7 C 93 % -1.69 C
540 31-01-2014 07:05:00 -0.8 C 93 % -1.79 C
541 31-01-2014 07:10:00 -0.8 C 93 % -1.79 C
542 31-01-2014 07:15:00 -0.8 C 93 % -1.79 C
543 31-01-2014 07:20:00 -0.8 C 93 % -1.79 C
544 31-01-2014 07:25:00 -0.9 C 93 % -1.89 C
545 31-01-2014 07:30:00 -1 C 93 % -1.99 C
546 31-01-2014 07:35:00 -1.1 C 93 % -2.09 C
547 31-01-2014 07:40:00 -1.1 C 94 % -1.94 C
548 31-01-2014 07:45:00 -1.1 C 93 % -2.09 C
549 31-01-2014 07:50:00 -1.1 C 93 % -2.09 C
550 31-01-2014 07:55:00 -1.2 C 94 % -2.04 C
Sensor: Nr:Datum:Temp:Feuchte:Taupunkt:
Aussen-T/F 551 31-01-2014 08:00:00 -1.2 C 94 % -2.04 C
552 31-01-2014 08:05:00 -1.2 C 94 % -2.04 C
553 31-01-2014 08:10:00 -1.1 C 94 % -1.94 C
554 31-01-2014 08:15:00 -1.2 C 93 % -2.18 C
555 31-01-2014 08:20:00 -1.1 C 93 % -2.09 C
556 31-01-2014 08:25:00 -1.1 C 93 % -2.09 C
557 31-01-2014 08:30:00 -1.1 C 93 % -2.09 C
558 31-01-2014 08:35:00 -1.1 C 93 % -2.09 C
559 31-01-2014 08:40:00 -1.1 C 93 % -2.09 C
560 31-01-2014 08:45:00 -1.2 C 93 % -2.18 C
561 31-01-2014 08:50:00 -1.2 C 93 % -2.18 C
562 31-01-2014 08:55:00 -1.2 C 94 % -2.04 C
563 31-01-2014 09:00:00 -1.2 C 94 % -2.04 C
564 31-01-2014 09:05:00 -1.1 C 94 % -1.94 C
565 31-01-2014 09:10:00 -1.1 C 94 % -1.94 C
566 31-01-2014 09:15:00 -1.1 C 94 % -1.94 C
567 31-01-2014 09:20:00 -1.1 C 94 % -1.94 C
568 31-01-2014 09:25:00 -1.1 C 94 % -1.94 C
569 31-01-2014 09:30:00 -1.1 C 94 % -1.94 C
570 31-01-2014 09:35:00 -1.1 C 94 % -1.94 C
571 31-01-2014 09:40:00 -1.1 C 94 % -1.94 C
572 31-01-2014 09:45:00 -1 C 94 % -1.84 C
573 31-01-2014 09:50:00 -0.9 C 94 % -1.74 C
574 31-01-2014 09:55:00 -0.9 C 95 % -1.6 C
575 31-01-2014 10:00:00 -0.8 C 94 % -1.64 C
Sensor: Nr:Datum:Temp:Feuchte:Taupunkt:
Aussen-T/F 576 31-01-2014 10:05:00 -0.8 C 94 % -1.64 C
577 31-01-2014 10:10:00 -0.7 C 95 % -1.4 C
578 31-01-2014 10:15:00 -0.7 C 94 % -1.54 C
579 31-01-2014 10:20:00 -0.6 C 95 % -1.3 C
580 31-01-2014 10:25:00 -0.6 C 94 % -1.44 C
581 31-01-2014 10:30:00 -0.4 C 94 % -1.25 C
582 31-01-2014 10:35:00 -0.4 C 94 % -1.25 C
583 31-01-2014 10:40:00 -0.3 C 94 % -1.15 C
584 31-01-2014 10:45:00 -0.3 C 94 % -1.15 C
585 31-01-2014 10:50:00 -0.2 C 94 % -1.05 C
586 31-01-2014 10:55:00 -0.2 C 94 % -1.05 C
587 31-01-2014 11:00:00 -0.1 C 94 % -0.95 C
588 31-01-2014 11:05:00 0 C 94 % -0.85 C
589 31-01-2014 11:10:00 0.1 C 94 % -0.75 C
590 31-01-2014 11:15:00 0.1 C 94 % -0.75 C
591 31-01-2014 11:20:00 0.2 C 94 % -0.65 C
592 31-01-2014 11:25:00 0.3 C 94 % -0.55 C
593 31-01-2014 11:30:00 0.3 C 94 % -0.55 C
594 31-01-2014 11:35:00 0.4 C 94 % -0.45 C
595 31-01-2014 11:40:00 0.6 C 94 % -0.25 C
596 31-01-2014 11:45:00 0.7 C 93 % -0.3 C
597 31-01-2014 11:50:00 0.8 C 93 % -0.2 C
598 31-01-2014 11:55:00 0.8 C 93 % -0.2 C
599 31-01-2014 12:00:00 0.9 C 93 % -0.1 C
600 31-01-2014 12:05:00 1 C 93 % 0 C
Sensor: Nr:Datum:Temp:Feuchte:Taupunkt:
Aussen-T/F 601 31-01-2014 12:10:00 1.1 C 92 % -0.05 C
602 31-01-2014 12:15:00 1.2 C 92 % 0.05 C
603 31-01-2014 12:20:00 1.3 C 92 % 0.15 C
604 31-01-2014 12:25:00 1.3 C 92 % 0.15 C
605 31-01-2014 12:30:00 1.4 C 92 % 0.25 C
606 31-01-2014 12:35:00 1.5 C 91 % 0.19 C
607 31-01-2014 12:40:00 1.6 C 92 % 0.44 C
608 31-01-2014 12:45:00 1.6 C 91 % 0.29 C
609 31-01-2014 12:50:00 1.7 C 91 % 0.39 C
610 31-01-2014 12:55:00 1.7 C 91 % 0.39 C
611 31-01-2014 13:00:00 1.8 C 90 % 0.34 C
612 31-01-2014 13:05:00 1.9 C 90 % 0.44 C
613 31-01-2014 13:10:00 1.9 C 90 % 0.44 C
614 31-01-2014 13:15:00 1.9 C 90 % 0.44 C
615 31-01-2014 13:20:00 2.1 C 91 % 0.79 C
616 31-01-2014 13:25:00 2.1 C 90 % 0.64 C
617 31-01-2014 13:30:00 2.2 C 90 % 0.73 C
618 31-01-2014 13:35:00 2.2 C 90 % 0.73 C
619 31-01-2014 13:40:00 2.3 C 90 % 0.83 C
620 31-01-2014 13:45:00 2.4 C 90 % 0.93 C
621 31-01-2014 13:50:00 2.5 C 90 % 1.03 C
622 31-01-2014 13:55:00 2.6 C 90 % 1.13 C
623 31-01-2014 14:00:00 2.6 C 90 % 1.13 C
624 31-01-2014 14:05:00 2.6 C 90 % 1.13 C
625 31-01-2014 14:10:00 2.7 C 89 % 1.07 C
Sensor: Nr:Datum:Temp:Feuchte:Taupunkt:
Aussen-T/F 626 31-01-2014 14:15:00 2.7 C 90 % 1.23 C
627 31-01-2014 14:20:00 2.8 C 90 % 1.33 C
628 31-01-2014 14:25:00 2.8 C 90 % 1.33 C
629 31-01-2014 14:30:00 2.9 C 89 % 1.27 C
630 31-01-2014 14:35:00 3 C 89 % 1.37 C
631 31-01-2014 14:40:00 3.2 C 89 % 1.57 C
632 31-01-2014 14:45:00 3.2 C 89 % 1.57 C
633 31-01-2014 14:50:00 3.2 C 89 % 1.57 C
634 31-01-2014 14:55:00 3.3 C 89 % 1.67 C
635 31-01-2014 15:00:00 3.4 C 88 % 1.61 C
636 31-01-2014 15:05:00 3.4 C 88 % 1.61 C
637 31-01-2014 15:10:00 3.6 C 88 % 1.8 C
638 31-01-2014 15:15:00 3.6 C 88 % 1.8 C
639 31-01-2014 15:20:00 3.6 C 88 % 1.8 C
640 31-01-2014 15:25:00 3.6 C 88 % 1.8 C
641 31-01-2014 15:30:00 3.7 C 88 % 1.9 C
642 31-01-2014 15:35:00 3.8 C 88 % 2 C
643 31-01-2014 15:40:00 3.8 C 87 % 1.84 C
644 31-01-2014 15:45:00 3.8 C 87 % 1.84 C
645 31-01-2014 15:50:00 3.8 C 87 % 1.84 C
646 31-01-2014 15:55:00 3.8 C 88 % 2 C
647 31-01-2014 16:00:00 3.9 C 86 % 1.78 C
648 31-01-2014 16:05:00 4.1 C 86 % 1.97 C
649 31-01-2014 16:10:00 4.2 C 85 % 1.91 C
650 31-01-2014 16:15:00 4.3 C 85 % 2.01 C
Sensor: Nr:Datum:Temp:Feuchte:Taupunkt:
Aussen-T/F 651 31-01-2014 16:20:00 4.2 C 85 % 1.91 C
652 31-01-2014 16:25:00 4.1 C 85 % 1.81 C
653 31-01-2014 16:30:00 4 C 85 % 1.71 C
654 31-01-2014 16:35:00 4.1 C 85 % 1.81 C
655 31-01-2014 16:40:00 3.9 C 85 % 1.61 C
656 31-01-2014 16:45:00 3.7 C 86 % 1.58 C
657 31-01-2014 16:50:00 3.6 C 87 % 1.64 C
658 31-01-2014 16:55:00 3.4 C 87 % 1.45 C
659 31-01-2014 17:00:00 3.4 C 87 % 1.45 C
660 31-01-2014 17:05:00 3.3 C 87 % 1.35 C
661 31-01-2014 17:10:00 3.4 C 86 % 1.29 C
662 31-01-2014 17:15:00 3.7 C 85 % 1.42 C
663 31-01-2014 17:20:00 3.6 C 85 % 1.32 C
664 31-01-2014 17:25:00 3.7 C 84 % 1.25 C
665 31-01-2014 17:30:00 3.6 C 84 % 1.16 C
666 31-01-2014 17:35:00 3.3 C 85 % 1.03 C
667 31-01-2014 17:40:00 3.1 C 86 % 0.99 C
668 31-01-2014 17:45:00 2.9 C 87 % 0.96 C
669 31-01-2014 17:50:00 2.9 C 87 % 0.96 C
670 31-01-2014 17:55:00 2.7 C 87 % 0.76 C
671 31-01-2014 18:00:00 2.4 C 88 % 0.62 C
672 31-01-2014 18:05:00 2.3 C 89 % 0.68 C
673 31-01-2014 18:10:00 2.2 C 90 % 0.73 C
674 31-01-2014 18:15:00 2.1 C 90 % 0.64 C
675 31-01-2014 18:20:00 2 C 90 % 0.54 C
Sensor: Nr:Datum:Temp:Feuchte:Taupunkt:
Aussen-T/F 676 31-01-2014 18:25:00 1.9 C 90 % 0.44 C
677 31-01-2014 18:30:00 1.8 C 90 % 0.34 C
678 31-01-2014 18:35:00 1.8 C 91 % 0.49 C
679 31-01-2014 18:40:00 1.8 C 90 % 0.34 C
680 31-01-2014 18:45:00 1.8 C 91 % 0.49 C
681 31-01-2014 18:50:00 1.7 C 91 % 0.39 C
682 31-01-2014 18:55:00 1.7 C 91 % 0.39 C
683 31-01-2014 19:00:00 1.7 C 91 % 0.39 C
684 31-01-2014 19:05:00 1.7 C 91 % 0.39 C
685 31-01-2014 19:10:00 1.6 C 91 % 0.29 C
686 31-01-2014 19:15:00 1.6 C 92 % 0.44 C
687 31-01-2014 19:20:00 1.4 C 91 % 0.1 C
688 31-01-2014 19:25:00 1.3 C 92 % 0.15 C
689 31-01-2014 19:30:00 1.3 C 92 % 0.15 C
690 31-01-2014 19:35:00 1.3 C 92 % 0.15 C
691 31-01-2014 19:40:00 1.2 C 92 % 0.05 C
692 31-01-2014 19:45:00 1.2 C 93 % 0.2 C
693 31-01-2014 19:50:00 1.2 C 93 % 0.2 C
694 31-01-2014 19:55:00 1.2 C 93 % 0.2 C
695 31-01-2014 20:00:00 1.1 C 93 % 0.1 C
696 31-01-2014 20:05:00 1.1 C 93 % 0.1 C
697 31-01-2014 20:10:00 1.1 C 93 % 0.1 C
698 31-01-2014 20:15:00 1.2 C 93 % 0.2 C
699 31-01-2014 20:20:00 1.3 C 93 % 0.3 C
700 31-01-2014 20:25:00 1.4 C 93 % 0.4 C
Sensor: Nr:Datum:Temp:Feuchte:Taupunkt:
Aussen-T/F 701 31-01-2014 20:30:00 1.6 C 93 % 0.59 C
702 31-01-2014 20:35:00 1.9 C 93 % 0.89 C
703 31-01-2014 20:40:00 2.2 C 92 % 1.04 C
704 31-01-2014 20:45:00 2.2 C 91 % 0.89 C
705 31-01-2014 20:50:00 2.3 C 90 % 0.83 C
706 31-01-2014 20:55:00 2.3 C 90 % 0.83 C
707 31-01-2014 21:00:00 2.3 C 90 % 0.83 C
708 31-01-2014 21:05:00 2.5 C 90 % 1.03 C
709 31-01-2014 21:10:00 2.8 C 89 % 1.17 C
710 31-01-2014 21:15:00 2.9 C 88 % 1.11 C
711 31-01-2014 21:20:00 3 C 87 % 1.05 C
712 31-01-2014 21:25:00 3.1 C 87 % 1.15 C
713 31-01-2014 21:30:00 3 C 87 % 1.05 C
714 31-01-2014 21:35:00 2.8 C 87 % 0.86 C
715 31-01-2014 21:40:00 2.7 C 88 % 0.92 C
716 31-01-2014 21:45:00 2.4 C 88 % 0.62 C
717 31-01-2014 21:50:00 2.2 C 89 % 0.58 C
718 31-01-2014 21:55:00 1.9 C 90 % 0.44 C
719 31-01-2014 22:00:00 1.8 C 91 % 0.49 C
720 31-01-2014 22:05:00 1.7 C 91 % 0.39 C
721 31-01-2014 22:10:00 1.7 C 91 % 0.39 C
722 31-01-2014 22:15:00 1.7 C 91 % 0.39 C
723 31-01-2014 22:20:00 1.6 C 91 % 0.29 C
724 31-01-2014 22:25:00 1.4 C 91 % 0.1 C
725 31-01-2014 22:30:00 1.3 C 92 % 0.15 C
Sensor: Nr:Datum:Temp:Feuchte:Taupunkt:
Aussen-T/F 726 31-01-2014 22:35:00 1.3 C 92 % 0.15 C
727 31-01-2014 22:40:00 1.2 C 92 % 0.05 C
728 31-01-2014 22:45:00 1.2 C 92 % 0.05 C
729 31-01-2014 22:50:00 1.1 C 92 % -0.05 C
730 31-01-2014 22:55:00 1.1 C 93 % 0.1 C
731 31-01-2014 23:00:00 1 C 93 % 0 C
732 31-01-2014 23:05:00 0.9 C 93 % -0.1 C
733 31-01-2014 23:10:00 1 C 93 % 0 C
734 31-01-2014 23:15:00 1 C 93 % 0 C
735 31-01-2014 23:20:00 1 C 93 % 0 C
736 31-01-2014 23:25:00 1 C 93 % 0 C
737 31-01-2014 23:30:00 0.9 C 93 % -0.1 C
738 31-01-2014 23:35:00 0.9 C 93 % -0.1 C
739 31-01-2014 23:40:00 0.9 C 94 % 0.05 C
740 31-01-2014 23:45:00 0.8 C 94 % -0.05 C
741 31-01-2014 23:50:00 0.8 C 94 % -0.05 C
742 31-01-2014 23:55:00 1 C 94 % 0.15 C
743 01-02-2014 00:00:00 0.9 C 94 % 0.05 C
744 01-02-2014 00:05:00 0.9 C 94 % 0.05 C
745 01-02-2014 00:10:00 1 C 94 % 0.15 C
746 01-02-2014 00:15:00 1 C 93 % 0 C
747 01-02-2014 00:20:00 0.9 C 93 % -0.1 C
748 01-02-2014 00:25:00 0.9 C 94 % 0.05 C
749 01-02-2014 00:30:00 1 C 94 % 0.15 C
750 01-02-2014 00:35:00 1.1 C 94 % 0.24 C
Sensor: Nr:Datum:Temp:Feuchte:Taupunkt:
Aussen-T/F 751 01-02-2014 00:40:00 1.2 C 94 % 0.34 C
752 01-02-2014 00:45:00 1.2 C 94 % 0.34 C
753 01-02-2014 00:50:00 1.3 C 94 % 0.44 C
754 01-02-2014 00:55:00 1.4 C 94 % 0.54 C
755 01-02-2014 01:00:00 1.4 C 94 % 0.54 C
756 01-02-2014 01:05:00 1.3 C 94 % 0.44 C
757 01-02-2014 01:10:00 1.3 C 94 % 0.44 C
758 01-02-2014 01:15:00 1.3 C 94 % 0.44 C
759 01-02-2014 01:20:00 1.4 C 94 % 0.54 C
760 01-02-2014 01:25:00 1.4 C 93 % 0.4 C
761 01-02-2014 01:30:00 1.3 C 94 % 0.44 C
762 01-02-2014 01:35:00 1.3 C 94 % 0.44 C
763 01-02-2014 01:40:00 1.2 C 94 % 0.34 C
764 01-02-2014 01:45:00 1.2 C 94 % 0.34 C
765 01-02-2014 01:50:00 1.2 C 94 % 0.34 C
766 01-02-2014 01:55:00 1.2 C 94 % 0.34 C
767 01-02-2014 02:00:00 1.3 C 94 % 0.44 C
768 01-02-2014 02:05:00 1.5 C 94 % 0.64 C
769 01-02-2014 02:10:00 1.6 C 93 % 0.59 C
770 01-02-2014 02:15:00 1.7 C 93 % 0.69 C
771 01-02-2014 02:20:00 1.9 C 93 % 0.89 C
772 01-02-2014 02:25:00 2.2 C 92 % 1.04 C
773 01-02-2014 02:30:00 2.2 C 91 % 0.89 C
774 01-02-2014 02:35:00 2.1 C 91 % 0.79 C
775 01-02-2014 02:40:00 1.9 C 91 % 0.59 C
Sensor: Nr:Datum:Temp:Feuchte:Taupunkt:
Aussen-T/F 776 01-02-2014 02:45:00 2 C 92 % 0.84 C
777 01-02-2014 02:50:00 2.1 C 92 % 0.94 C
778 01-02-2014 02:55:00 2.3 C 91 % 0.99 C
779 01-02-2014 03:00:00 2.4 C 91 % 1.08 C
780 01-02-2014 03:05:00 2.4 C 90 % 0.93 C
781 01-02-2014 03:10:00 2.4 C 90 % 0.93 C
782 01-02-2014 03:15:00 2.3 C 91 % 0.99 C
783 01-02-2014 03:20:00 2.2 C 91 % 0.89 C
784 01-02-2014 03:25:00 2.2 C 91 % 0.89 C
785 01-02-2014 03:30:00 2.1 C 91 % 0.79 C
786 01-02-2014 03:35:00 2.1 C 92 % 0.94 C
787 01-02-2014 03:40:00 2.1 C 92 % 0.94 C
788 01-02-2014 03:45:00 2.1 C 92 % 0.94 C
789 01-02-2014 03:50:00 2.1 C 92 % 0.94 C
790 01-02-2014 03:55:00 2.1 C 92 % 0.94 C
791 01-02-2014 04:00:00 2.2 C 92 % 1.04 C
792 01-02-2014 04:05:00 2.5 C 92 % 1.34 C
793 01-02-2014 04:10:00 2.8 C 91 % 1.48 C
794 01-02-2014 04:15:00 2.9 C 90 % 1.43 C
795 01-02-2014 04:20:00 2.9 C 90 % 1.43 C
796 01-02-2014 04:25:00 2.9 C 89 % 1.27 C
797 01-02-2014 04:30:00 3.1 C 89 % 1.47 C
798 01-02-2014 04:35:00 3.2 C 89 % 1.57 C
799 01-02-2014 04:40:00 3.3 C 88 % 1.51 C
800 01-02-2014 04:45:00 3.4 C 88 % 1.61 C
Sensor: Nr:Datum:Temp:Feuchte:Taupunkt:
Aussen-T/F 801 01-02-2014 04:50:00 3.3 C 88 % 1.51 C
802 01-02-2014 04:55:00 3.3 C 88 % 1.51 C
803 01-02-2014 05:00:00 3.2 C 89 % 1.57 C
804 01-02-2014 05:05:00 3.1 C 89 % 1.47 C
805 01-02-2014 05:10:00 3.1 C 89 % 1.47 C
806 01-02-2014 05:15:00 3.2 C 89 % 1.57 C
807 01-02-2014 05:20:00 3.2 C 89 % 1.57 C
808 01-02-2014 05:25:00 3.2 C 89 % 1.57 C
809 01-02-2014 05:30:00 3.3 C 89 % 1.67 C
810 01-02-2014 05:35:00 3.4 C 89 % 1.76 C
811 01-02-2014 05:40:00 3.9 C 87 % 1.94 C
812 01-02-2014 05:45:00 4.1 C 85 % 1.81 C
813 01-02-2014 05:50:00 4.1 C 85 % 1.81 C
814 01-02-2014 05:55:00 4 C 86 % 1.88 C
815 01-02-2014 06:00:00 3.8 C 87 % 1.84 C
816 01-02-2014 06:05:00 3.7 C 88 % 1.9 C
817 01-02-2014 06:10:00 3.6 C 88 % 1.8 C
818 01-02-2014 06:15:00 3.6 C 89 % 1.96 C
819 01-02-2014 06:20:00 3.6 C 89 % 1.96 C
820 01-02-2014 06:25:00 3.6 C 89 % 1.96 C
821 01-02-2014 06:30:00 3.6 C 89 % 1.96 C
822 01-02-2014 06:35:00 3.6 C 89 % 1.96 C
823 01-02-2014 06:40:00 3.6 C 89 % 1.96 C
824 01-02-2014 06:45:00 3.7 C 88 % 1.9 C
825 01-02-2014 06:50:00 3.9 C 87 % 1.94 C
Sensor: Nr:Datum:Temp:Feuchte:Taupunkt:
Aussen-T/F 826 01-02-2014 06:55:00 3.9 C 87 % 1.94 C
827 01-02-2014 07:00:00 4.1 C 86 % 1.97 C
828 01-02-2014 07:05:00 4.2 C 86 % 2.07 C
829 01-02-2014 07:10:00 4.3 C 85 % 2.01 C
830 01-02-2014 07:15:00 4.3 C 86 % 2.17 C
831 01-02-2014 07:20:00 4.3 C 87 % 2.33 C
832 01-02-2014 07:25:00 4.2 C 86 % 2.07 C
833 01-02-2014 07:30:00 4.1 C 87 % 2.14 C
834 01-02-2014 07:35:00 4.1 C 87 % 2.14 C
835 01-02-2014 07:40:00 4.2 C 85 % 1.91 C
836 01-02-2014 07:45:00 4.4 C 85 % 2.11 C
837 01-02-2014 07:50:00 4.6 C 83 % 1.97 C
838 01-02-2014 07:55:00 4.7 C 83 % 2.07 C
839 01-02-2014 08:00:00 4.9 C 82 % 2.09 C
840 01-02-2014 08:05:00 5.1 C 80 % 1.94 C
841 01-02-2014 08:10:00 5.2 C 80 % 2.04 C
842 01-02-2014 08:15:00 5.2 C 81 % 2.21 C
843 01-02-2014 08:20:00 5.1 C 82 % 2.29 C
844 01-02-2014 08:25:00 4.9 C 84 % 2.43 C
845 01-02-2014 08:30:00 4.7 C 84 % 2.23 C
846 01-02-2014 08:35:00 4.6 C 84 % 2.14 C
847 01-02-2014 08:40:00 4.6 C 84 % 2.14 C
848 01-02-2014 08:45:00 4.7 C 82 % 1.9 C
849 01-02-2014 08:50:00 4.9 C 83 % 2.26 C
850 01-02-2014 08:55:00 5 C 81 % 2.02 C
Sensor: Nr:Datum:Temp:Feuchte:Taupunkt:
Aussen-T/F 851 01-02-2014 09:00:00 5.1 C 80 % 1.94 C
852 01-02-2014 09:05:00 5.2 C 81 % 2.21 C
853 01-02-2014 09:10:00 5.2 C 83 % 2.56 C
854 01-02-2014 09:15:00 5.2 C 81 % 2.21 C
855 01-02-2014 09:20:00 5.4 C 79 % 2.06 C
856 01-02-2014 09:25:00 5.7 C 77 % 1.99 C
857 01-02-2014 09:30:00 6.1 C 76 % 2.2 C
858 01-02-2014 09:35:00 6.2 C 76 % 2.29 C
859 01-02-2014 09:40:00 6.3 C 80 % 3.11 C
860 01-02-2014 09:45:00 6.2 C 84 % 3.7 C
861 01-02-2014 09:50:00 5.8 C 86 % 3.64 C
862 01-02-2014 09:55:00 5.6 C 88 % 3.77 C
863 01-02-2014 10:00:00 5.4 C 90 % 3.89 C
864 01-02-2014 10:05:00 5.2 C 89 % 3.54 C
865 01-02-2014 10:10:00 5.2 C 90 % 3.7 C
866 01-02-2014 10:15:00 5.1 C 90 % 3.6 C
867 01-02-2014 10:20:00 5.1 C 91 % 3.76 C
868 01-02-2014 10:25:00 5 C 92 % 3.81 C
869 01-02-2014 10:30:00 4.9 C 92 % 3.71 C
870 01-02-2014 10:35:00 4.9 C 92 % 3.71 C
871 01-02-2014 10:40:00 4.8 C 92 % 3.61 C
872 01-02-2014 10:45:00 4.7 C 92 % 3.51 C
873 01-02-2014 10:50:00 4.6 C 92 % 3.42 C
874 01-02-2014 10:55:00 4.6 C 92 % 3.42 C
875 01-02-2014 11:00:00 4.6 C 92 % 3.42 C
Sensor: Nr:Datum:Temp:Feuchte:Taupunkt:
Aussen-T/F 876 01-02-2014 11:05:00 4.5 C 92 % 3.32 C
877 01-02-2014 11:10:00 4.5 C 92 % 3.32 C
878 01-02-2014 11:15:00 4.4 C 92 % 3.22 C
879 01-02-2014 11:20:00 4.4 C 93 % 3.37 C
880 01-02-2014 11:25:00 4.4 C 93 % 3.37 C
881 01-02-2014 11:30:00 4.4 C 94 % 3.52 C
882 01-02-2014 11:35:00 4.4 C 94 % 3.52 C
883 01-02-2014 11:40:00 4.5 C 95 % 3.77 C
884 01-02-2014 11:45:00 4.5 C 95 % 3.77 C
885 01-02-2014 11:50:00 4.6 C 95 % 3.87 C
886 01-02-2014 11:55:00 4.7 C 95 % 3.97 C
887 01-02-2014 12:00:00 4.8 C 96 % 4.22 C
888 01-02-2014 12:05:00 4.8 C 96 % 4.22 C
889 01-02-2014 12:10:00 4.9 C 96 % 4.32 C
890 01-02-2014 12:15:00 5.1 C 96 % 4.52 C
891 01-02-2014 12:20:00 5.2 C 96 % 4.62 C
892 01-02-2014 12:25:00 5.3 C 96 % 4.72 C
893 01-02-2014 12:30:00 5.4 C 96 % 4.81 C
894 01-02-2014 12:35:00 5.4 C 96 % 4.81 C
895 01-02-2014 12:40:00 5.6 C 96 % 5.01 C
896 01-02-2014 12:45:00 5.6 C 96 % 5.01 C
897 01-02-2014 12:50:00 5.6 C 96 % 5.01 C
898 01-02-2014 12:55:00 5.7 C 96 % 5.11 C
899 01-02-2014 13:00:00 5.8 C 96 % 5.21 C
900 01-02-2014 13:05:00 6.1 C 94 % 5.21 C
Sensor: Nr:Datum:Temp:Feuchte:Taupunkt:
Aussen-T/F 901 01-02-2014 13:10:00 6.3 C 92 % 5.1 C
902 01-02-2014 13:15:00 6.4 C 91 % 5.04 C
903 01-02-2014 13:20:00 6.4 C 91 % 5.04 C
904 01-02-2014 13:25:00 6.4 C 90 % 4.88 C
905 01-02-2014 13:30:00 6.4 C 90 % 4.88 C
906 01-02-2014 13:35:00 6.5 C 90 % 4.98 C
907 01-02-2014 13:40:00 6.5 C 89 % 4.82 C
908 01-02-2014 13:45:00 6.5 C 89 % 4.82 C
909 01-02-2014 13:50:00 6.5 C 89 % 4.82 C
910 01-02-2014 13:55:00 6.4 C 89 % 4.72 C
911 01-02-2014 14:00:00 6.4 C 89 % 4.72 C
912 01-02-2014 14:05:00 6.5 C 89 % 4.82 C
913 01-02-2014 14:10:00 6.4 C 89 % 4.72 C
914 01-02-2014 14:15:00 6.4 C 89 % 4.72 C
915 01-02-2014 14:20:00 6.5 C 89 % 4.82 C
916 01-02-2014 14:25:00 6.6 C 88 % 4.76 C
917 01-02-2014 14:30:00 6.6 C 88 % 4.76 C
918 01-02-2014 14:35:00 6.6 C 88 % 4.76 C
919 01-02-2014 14:40:00 6.7 C 88 % 4.86 C
920 01-02-2014 14:45:00 6.7 C 88 % 4.86 C
921 01-02-2014 14:50:00 6.8 C 87 % 4.79 C
922 01-02-2014 14:55:00 6.8 C 87 % 4.79 C
923 01-02-2014 15:00:00 6.8 C 87 % 4.79 C
924 01-02-2014 15:05:00 6.9 C 86 % 4.72 C
925 01-02-2014 15:10:00 6.9 C 87 % 4.89 C
Sensor: Nr:Datum:Temp:Feuchte:Taupunkt:
Aussen-T/F 926 01-02-2014 15:15:00 6.9 C 87 % 4.89 C
927 01-02-2014 15:20:00 6.9 C 87 % 4.89 C
928 01-02-2014 15:25:00 7 C 86 % 4.82 C
929 01-02-2014 15:30:00 7.1 C 86 % 4.92 C
930 01-02-2014 15:35:00 7.1 C 86 % 4.92 C
931 01-02-2014 15:40:00 7.1 C 86 % 4.92 C
932 01-02-2014 15:45:00 7.1 C 86 % 4.92 C
933 01-02-2014 15:50:00 7.1 C 86 % 4.92 C
934 01-02-2014 15:55:00 7.1 C 86 % 4.92 C
935 01-02-2014 16:00:00 7.1 C 86 % 4.92 C
936 01-02-2014 16:05:00 7.1 C 86 % 4.92 C
937 01-02-2014 16:10:00 7.1 C 86 % 4.92 C
938 01-02-2014 16:15:00 7 C 86 % 4.82 C
939 01-02-2014 16:20:00 7 C 86 % 4.82 C
940 01-02-2014 16:25:00 7 C 86 % 4.82 C
941 01-02-2014 16:30:00 7 C 86 % 4.82 C
942 01-02-2014 16:35:00 6.9 C 87 % 4.89 C
943 01-02-2014 16:40:00 6.9 C 88 % 5.05 C
944 01-02-2014 16:45:00 6.8 C 88 % 4.96 C
945 01-02-2014 16:50:00 6.6 C 89 % 4.92 C
946 01-02-2014 16:55:00 6.4 C 90 % 4.88 C
947 01-02-2014 17:00:00 6.3 C 90 % 4.78 C
948 01-02-2014 17:05:00 6.4 C 89 % 4.72 C
949 01-02-2014 17:10:00 6.6 C 89 % 4.92 C
950 01-02-2014 17:15:00 6.5 C 89 % 4.82 C
Sensor: Nr:Datum:Temp:Feuchte:Taupunkt:
Aussen-T/F 951 01-02-2014 17:20:00 6.4 C 90 % 4.88 C
952 01-02-2014 17:25:00 6.4 C 90 % 4.88 C
953 01-02-2014 17:30:00 6.4 C 89 % 4.72 C
954 01-02-2014 17:35:00 6.4 C 89 % 4.72 C
955 01-02-2014 17:40:00 6.4 C 89 % 4.72 C
956 01-02-2014 17:45:00 6.5 C 88 % 4.66 C
957 01-02-2014 17:50:00 6.6 C 88 % 4.76 C
958 01-02-2014 17:55:00 6.6 C 88 % 4.76 C
959 01-02-2014 18:00:00 6.6 C 87 % 4.6 C
960 01-02-2014 18:05:00 6.6 C 88 % 4.76 C
961 01-02-2014 18:10:00 6.5 C 88 % 4.66 C
962 01-02-2014 18:15:00 6.4 C 88 % 4.56 C
963 01-02-2014 18:20:00 6.4 C 88 % 4.56 C
964 01-02-2014 18:25:00 6.3 C 89 % 4.62 C
965 01-02-2014 18:30:00 6.2 C 90 % 4.69 C
966 01-02-2014 18:35:00 6.1 C 90 % 4.59 C
967 01-02-2014 18:40:00 6 C 91 % 4.65 C
968 01-02-2014 18:45:00 6 C 91 % 4.65 C
969 01-02-2014 18:50:00 6 C 91 % 4.65 C
970 01-02-2014 18:55:00 5.9 C 91 % 4.55 C
971 01-02-2014 19:00:00 6 C 91 % 4.65 C
972 01-02-2014 19:05:00 6 C 91 % 4.65 C
973 01-02-2014 19:10:00 5.9 C 91 % 4.55 C
974 01-02-2014 19:15:00 5.8 C 91 % 4.45 C
975 01-02-2014 19:20:00 5.9 C 91 % 4.55 C
Sensor: Nr:Datum:Temp:Feuchte:Taupunkt:
Aussen-T/F 976 01-02-2014 19:25:00 5.9 C 91 % 4.55 C
977 01-02-2014 19:30:00 5.9 C 91 % 4.55 C
978 01-02-2014 19:35:00 5.8 C 91 % 4.45 C
979 01-02-2014 19:40:00 5.8 C 91 % 4.45 C
980 01-02-2014 19:45:00 5.8 C 91 % 4.45 C
981 01-02-2014 19:50:00 5.9 C 90 % 4.39 C
982 01-02-2014 19:55:00 5.9 C 91 % 4.55 C
983 01-02-2014 20:00:00 5.8 C 91 % 4.45 C
984 01-02-2014 20:05:00 5.8 C 91 % 4.45 C
985 01-02-2014 20:10:00 5.7 C 92 % 4.5 C
986 01-02-2014 20:15:00 5.7 C 92 % 4.5 C
987 01-02-2014 20:20:00 5.6 C 92 % 4.41 C
988 01-02-2014 20:25:00 5.7 C 91 % 4.35 C
989 01-02-2014 20:30:00 5.7 C 91 % 4.35 C
990 01-02-2014 20:35:00 5.7 C 92 % 4.5 C
991 01-02-2014 20:40:00 5.7 C 92 % 4.5 C
992 01-02-2014 20:45:00 5.6 C 92 % 4.41 C
993 01-02-2014 20:50:00 5.5 C 92 % 4.31 C
994 01-02-2014 20:55:00 5.4 C 92 % 4.21 C
995 01-02-2014 21:00:00 5.4 C 92 % 4.21 C
996 01-02-2014 21:05:00 5.3 C 92 % 4.11 C
997 01-02-2014 21:10:00 5.3 C 92 % 4.11 C
998 01-02-2014 21:15:00 5.3 C 92 % 4.11 C
999 01-02-2014 21:20:00 5.3 C 92 % 4.11 C
1000 01-02-2014 21:25:00 5.2 C 92 % 4.01 C
Sensor: Nr:Datum:Temp:Feuchte:Taupunkt:
Aussen-T/F 1001 01-02-2014 21:30:00 5.2 C 92 % 4.01 C
1002 01-02-2014 21:35:00 5.1 C 92 % 3.91 C
1003 01-02-2014 21:40:00 5 C 92 % 3.81 C
1004 01-02-2014 21:45:00 4.9 C 92 % 3.71 C
1005 01-02-2014 21:50:00 4.8 C 93 % 3.77 C
1006 01-02-2014 21:55:00 4.7 C 93 % 3.67 C
1007 01-02-2014 22:00:00 4.7 C 93 % 3.67 C
1008 01-02-2014 22:05:00 4.6 C 93 % 3.57 C
1009 01-02-2014 22:10:00 4.7 C 93 % 3.67 C
1010 01-02-2014 22:15:00 4.8 C 92 % 3.61 C
1011 01-02-2014 22:20:00 4.9 C 92 % 3.71 C
1012 01-02-2014 22:25:00 4.9 C 91 % 3.56 C
1013 01-02-2014 22:30:00 4.8 C 91 % 3.46 C
1014 01-02-2014 22:35:00 4.8 C 91 % 3.46 C
1015 01-02-2014 22:40:00 4.8 C 91 % 3.46 C
1016 01-02-2014 22:45:00 4.7 C 91 % 3.36 C
1017 01-02-2014 22:50:00 4.5 C 91 % 3.16 C
1018 01-02-2014 22:55:00 4.3 C 92 % 3.12 C
1019 01-02-2014 23:00:00 4.3 C 93 % 3.27 C
1020 01-02-2014 23:05:00 4.3 C 93 % 3.27 C
1021 01-02-2014 23:10:00 4.2 C 93 % 3.17 C
1022 01-02-2014 23:15:00 4.2 C 93 % 3.17 C
1023 01-02-2014 23:20:00 4.2 C 93 % 3.17 C
1024 01-02-2014 23:25:00 4.2 C 93 % 3.17 C
1025 01-02-2014 23:30:00 4.2 C 93 % 3.17 C
Sensor: Nr:Datum:Temp:Feuchte:Taupunkt:
Aussen-T/F 1026 01-02-2014 23:35:00 4.1 C 93 % 3.07 C
1027 01-02-2014 23:40:00 4.1 C 94 % 3.22 C
1028 01-02-2014 23:45:00 4.1 C 94 % 3.22 C
1029 01-02-2014 23:50:00 4.1 C 93 % 3.07 C
1030 01-02-2014 23:55:00 4.1 C 94 % 3.22 C
1031 02-02-2014 00:00:00 4.1 C 93 % 3.07 C
1032 02-02-2014 00:05:00 4 C 94 % 3.12 C
1033 02-02-2014 00:10:00 4 C 94 % 3.12 C
1034 02-02-2014 00:15:00 3.9 C 94 % 3.02 C
1035 02-02-2014 00:20:00 3.9 C 93 % 2.87 C
1036 02-02-2014 00:25:00 3.8 C 94 % 2.93 C
1037 02-02-2014 00:30:00 3.8 C 94 % 2.93 C
1038 02-02-2014 00:35:00 3.7 C 94 % 2.83 C
1039 02-02-2014 00:40:00 3.7 C 94 % 2.83 C
1040 02-02-2014 00:45:00 3.6 C 94 % 2.73 C
1041 02-02-2014 00:50:00 3.6 C 94 % 2.73 C
1042 02-02-2014 00:55:00 3.6 C 95 % 2.88 C
1043 02-02-2014 01:00:00 3.7 C 95 % 2.98 C
1044 02-02-2014 01:05:00 3.7 C 95 % 2.98 C
1045 02-02-2014 01:10:00 3.8 C 95 % 3.07 C
1046 02-02-2014 01:15:00 3.8 C 95 % 3.07 C
1047 02-02-2014 01:20:00 3.8 C 95 % 3.07 C
1048 02-02-2014 01:25:00 3.8 C 95 % 3.07 C
1049 02-02-2014 01:30:00 3.8 C 95 % 3.07 C
1050 02-02-2014 01:35:00 3.8 C 95 % 3.07 C
Sensor: Nr:Datum:Temp:Feuchte:Taupunkt:
Aussen-T/F 1051 02-02-2014 01:40:00 3.8 C 95 % 3.07 C
1052 02-02-2014 01:45:00 3.8 C 95 % 3.07 C
1053 02-02-2014 01:50:00 3.9 C 95 % 3.17 C
1054 02-02-2014 01:55:00 3.8 C 95 % 3.07 C
1055 02-02-2014 02:00:00 3.8 C 95 % 3.07 C
1056 02-02-2014 02:05:00 3.8 C 95 % 3.07 C
1057 02-02-2014 02:10:00 3.8 C 95 % 3.07 C
1058 02-02-2014 02:15:00 3.8 C 95 % 3.07 C
1059 02-02-2014 02:20:00 3.7 C 95 % 2.98 C
1060 02-02-2014 02:25:00 3.7 C 95 % 2.98 C
1061 02-02-2014 02:30:00 3.7 C 95 % 2.98 C
1062 02-02-2014 02:35:00 3.7 C 95 % 2.98 C
1063 02-02-2014 02:40:00 3.7 C 95 % 2.98 C
1064 02-02-2014 02:45:00 3.6 C 95 % 2.88 C
1065 02-02-2014 02:50:00 3.6 C 95 % 2.88 C
1066 02-02-2014 02:55:00 3.6 C 95 % 2.88 C
1067 02-02-2014 03:00:00 3.6 C 95 % 2.88 C
1068 02-02-2014 03:05:00 3.6 C 95 % 2.88 C
1069 02-02-2014 03:10:00 3.6 C 95 % 2.88 C
1070 02-02-2014 03:15:00 3.7 C 96 % 3.12 C
1071 02-02-2014 03:20:00 3.7 C 96 % 3.12 C
1072 02-02-2014 03:25:00 3.7 C 95 % 2.98 C
1073 02-02-2014 03:30:00 3.7 C 95 % 2.98 C
1074 02-02-2014 03:35:00 3.7 C 95 % 2.98 C
1075 02-02-2014 03:40:00 3.8 C 96 % 3.22 C
Sensor: Nr:Datum:Temp:Feuchte:Taupunkt:
Aussen-T/F 1076 02-02-2014 03:45:00 3.8 C 96 % 3.22 C
1077 02-02-2014 03:50:00 3.8 C 95 % 3.07 C
1078 02-02-2014 03:55:00 3.8 C 95 % 3.07 C
1079 02-02-2014 04:00:00 3.8 C 96 % 3.22 C
1080 02-02-2014 04:05:00 4 C 95 % 3.27 C
1081 02-02-2014 04:10:00 4 C 95 % 3.27 C
1082 02-02-2014 04:15:00 3.9 C 95 % 3.17 C
1083 02-02-2014 04:20:00 3.9 C 95 % 3.17 C
1084 02-02-2014 04:25:00 3.8 C 95 % 3.07 C
1085 02-02-2014 04:30:00 3.8 C 95 % 3.07 C
1086 02-02-2014 04:35:00 3.8 C 95 % 3.07 C
1087 02-02-2014 04:40:00 3.8 C 95 % 3.07 C
1088 02-02-2014 04:45:00 3.8 C 95 % 3.07 C
1089 02-02-2014 04:50:00 3.9 C 95 % 3.17 C
1090 02-02-2014 04:55:00 3.9 C 95 % 3.17 C
1091 02-02-2014 05:00:00 4 C 95 % 3.27 C
1092 02-02-2014 05:05:00 4.1 C 95 % 3.37 C
1093 02-02-2014 05:10:00 4.2 C 95 % 3.47 C
1094 02-02-2014 05:15:00 4.3 C 95 % 3.57 C
1095 02-02-2014 05:20:00 4.4 C 95 % 3.67 C
1096 02-02-2014 05:25:00 4.6 C 95 % 3.87 C
1097 02-02-2014 05:30:00 4.8 C 94 % 3.92 C
1098 02-02-2014 05:35:00 4.9 C 93 % 3.87 C
1099 02-02-2014 05:40:00 5.2 C 92 % 4.01 C
1100 02-02-2014 05:45:00 5.3 C 91 % 3.95 C
Sensor: Nr:Datum:Temp:Feuchte:Taupunkt:
Aussen-T/F 1101 02-02-2014 05:50:00 5.3 C 91 % 3.95 C
1102 02-02-2014 05:55:00 5.4 C 90 % 3.89 C
1103 02-02-2014 06:00:00 5.4 C 90 % 3.89 C
1104 02-02-2014 06:05:00 5.4 C 90 % 3.89 C
1105 02-02-2014 06:10:00 5.3 C 90 % 3.8 C
1106 02-02-2014 06:15:00 5.3 C 91 % 3.95 C
1107 02-02-2014 06:20:00 5.2 C 91 % 3.85 C
1108 02-02-2014 06:25:00 5.2 C 91 % 3.85 C
1109 02-02-2014 06:30:00 5.2 C 91 % 3.85 C
1110 02-02-2014 06:35:00 5.2 C 91 % 3.85 C
1111 02-02-2014 06:40:00 5.2 C 91 % 3.85 C
1112 02-02-2014 06:45:00 5.1 C 91 % 3.76 C
1113 02-02-2014 06:50:00 5 C 92 % 3.81 C
1114 02-02-2014 06:55:00 4.9 C 92 % 3.71 C
1115 02-02-2014 07:00:00 4.9 C 92 % 3.71 C
1116 02-02-2014 07:05:00 4.8 C 93 % 3.77 C
1117 02-02-2014 07:10:00 4.8 C 93 % 3.77 C
1118 02-02-2014 07:15:00 4.8 C 93 % 3.77 C
1119 02-02-2014 07:20:00 4.7 C 93 % 3.67 C
1120 02-02-2014 07:25:00 4.6 C 92 % 3.42 C
1121 02-02-2014 07:30:00 4.4 C 92 % 3.22 C
1122 02-02-2014 07:35:00 4.3 C 93 % 3.27 C
1123 02-02-2014 07:40:00 4.2 C 93 % 3.17 C
1124 02-02-2014 07:45:00 4.1 C 93 % 3.07 C
1125 02-02-2014 07:50:00 3.9 C 93 % 2.87 C
Sensor: Nr:Datum:Temp:Feuchte:Taupunkt:
Aussen-T/F 1126 02-02-2014 07:55:00 3.8 C 93 % 2.77 C
1127 02-02-2014 08:00:00 3.7 C 93 % 2.68 C
1128 02-02-2014 08:05:00 3.6 C 94 % 2.73 C
1129 02-02-2014 08:10:00 3.4 C 94 % 2.53 C
1130 02-02-2014 08:15:00 3.4 C 94 % 2.53 C
1131 02-02-2014 08:20:00 3.3 C 94 % 2.43 C
1132 02-02-2014 08:25:00 3.2 C 94 % 2.33 C
1133 02-02-2014 08:30:00 3.1 C 95 % 2.38 C
1134 02-02-2014 08:35:00 3.1 C 95 % 2.38 C
1135 02-02-2014 08:40:00 3.1 C 95 % 2.38 C
1136 02-02-2014 08:45:00 3.2 C 95 % 2.48 C
1137 02-02-2014 08:50:00 3.2 C 95 % 2.48 C
1138 02-02-2014 08:55:00 3.3 C 95 % 2.58 C
1139 02-02-2014 09:00:00 3.4 C 96 % 2.82 C
1140 02-02-2014 09:05:00 3.6 C 96 % 3.02 C
1141 02-02-2014 09:10:00 3.7 C 96 % 3.12 C
1142 02-02-2014 09:15:00 3.8 C 96 % 3.22 C
1143 02-02-2014 09:20:00 3.9 C 96 % 3.32 C
1144 02-02-2014 09:25:00 4 C 95 % 3.27 C
1145 02-02-2014 09:30:00 4.1 C 95 % 3.37 C
1146 02-02-2014 09:35:00 4.1 C 95 % 3.37 C
1147 02-02-2014 09:40:00 4.1 C 95 % 3.37 C
1148 02-02-2014 09:45:00 4.2 C 95 % 3.47 C
1149 02-02-2014 09:50:00 4.3 C 95 % 3.57 C
1150 02-02-2014 09:55:00 4.4 C 95 % 3.67 C
Sensor: Nr:Datum:Temp:Feuchte:Taupunkt:
Aussen-T/F 1151 02-02-2014 10:00:00 4.5 C 95 % 3.77 C
1152 02-02-2014 10:05:00 4.5 C 95 % 3.77 C
1153 02-02-2014 10:10:00 4.5 C 94 % 3.62 C
1154 02-02-2014 10:15:00 4.5 C 94 % 3.62 C
1155 02-02-2014 10:20:00 4.4 C 94 % 3.52 C
1156 02-02-2014 10:25:00 4.4 C 94 % 3.52 C
1157 02-02-2014 10:30:00 4.4 C 94 % 3.52 C
1158 02-02-2014 10:35:00 4.5 C 93 % 3.47 C
1159 02-02-2014 10:40:00 4.4 C 93 % 3.37 C
1160 02-02-2014 10:45:00 4.4 C 93 % 3.37 C
1161 02-02-2014 10:50:00 4.3 C 93 % 3.27 C
1162 02-02-2014 10:55:00 4.2 C 93 % 3.17 C
1163 02-02-2014 11:00:00 4.2 C 92 % 3.02 C
1164 02-02-2014 11:05:00 4.3 C 93 % 3.27 C
1165 02-02-2014 11:10:00 4.4 C 93 % 3.37 C
1166 02-02-2014 11:15:00 4.8 C 92 % 3.61 C
1167 02-02-2014 11:20:00 5.4 C 89 % 3.74 C
1168 02-02-2014 11:25:00 5.8 C 87 % 3.81 C
1169 02-02-2014 11:30:00 6 C 85 % 3.67 C
1170 02-02-2014 11:35:00 6.1 C 85 % 3.77 C
1171 02-02-2014 11:40:00 6.3 C 83 % 3.63 C
1172 02-02-2014 11:45:00 6.3 C 83 % 3.63 C
1173 02-02-2014 11:50:00 6.4 C 82 % 3.56 C
1174 02-02-2014 11:55:00 6.4 C 82 % 3.56 C
1175 02-02-2014 12:00:00 6.3 C 82 % 3.46 C
Sensor: Nr:Datum:Temp:Feuchte:Taupunkt:
Aussen-T/F 1176 02-02-2014 12:05:00 6.2 C 82 % 3.36 C
1177 02-02-2014 12:10:00 6.1 C 84 % 3.61 C
1178 02-02-2014 12:15:00 5.9 C 84 % 3.41 C
1179 02-02-2014 12:20:00 5.8 C 85 % 3.48 C
1180 02-02-2014 12:25:00 5.8 C 85 % 3.48 C
1181 02-02-2014 12:30:00 5.8 C 86 % 3.64 C
1182 02-02-2014 12:35:00 5.6 C 86 % 3.45 C
1183 02-02-2014 12:40:00 5.6 C 86 % 3.45 C
1184 02-02-2014 12:45:00 5.6 C 86 % 3.45 C
1185 02-02-2014 12:50:00 5.7 C 86 % 3.55 C
1186 02-02-2014 12:55:00 5.7 C 86 % 3.55 C
1187 02-02-2014 13:00:00 5.7 C 86 % 3.55 C
1188 02-02-2014 13:05:00 5.7 C 86 % 3.55 C
1189 02-02-2014 13:10:00 5.7 C 87 % 3.71 C
1190 02-02-2014 13:15:00 5.7 C 86 % 3.55 C
1191 02-02-2014 13:20:00 6.1 C 84 % 3.61 C
1192 02-02-2014 13:25:00 6.3 C 83 % 3.63 C
1193 02-02-2014 13:30:00 6.3 C 82 % 3.46 C
1194 02-02-2014 13:35:00 6.3 C 83 % 3.63 C
1195 02-02-2014 13:40:00 6.3 C 84 % 3.8 C
1196 02-02-2014 13:45:00 6.4 C 81 % 3.38 C
1197 02-02-2014 13:50:00 6.7 C 79 % 3.32 C
1198 02-02-2014 13:55:00 7 C 80 % 3.79 C
1199 02-02-2014 14:00:00 7.1 C 79 % 3.71 C
1200 02-02-2014 14:05:00 7.4 C 78 % 3.82 C
Sensor: Nr:Datum:Temp:Feuchte:Taupunkt:
Aussen-T/F 1201 02-02-2014 14:10:00 7.4 C 77 % 3.64 C
1202 02-02-2014 14:15:00 7.3 C 79 % 3.91 C
1203 02-02-2014 14:20:00 7.2 C 80 % 3.99 C
1204 02-02-2014 14:25:00 7.2 C 79 % 3.81 C
1205 02-02-2014 14:30:00 7.2 C 77 % 3.45 C
1206 02-02-2014 14:35:00 7.6 C 75 % 3.46 C
1207 02-02-2014 14:40:00 7.7 C 76 % 3.75 C
1208 02-02-2014 14:45:00 7.8 C 74 % 3.46 C
1209 02-02-2014 14:50:00 7.9 C 74 % 3.56 C
1210 02-02-2014 14:55:00 8 C 73 % 3.46 C
1211 02-02-2014 15:00:00 8 C 74 % 3.66 C
1212 02-02-2014 15:05:00 8 C 74 % 3.66 C
1213 02-02-2014 15:10:00 8.1 C 73 % 3.56 C
1214 02-02-2014 15:15:00 8.1 C 74 % 3.75 C
1215 02-02-2014 15:20:00 8 C 73 % 3.46 C
1216 02-02-2014 15:25:00 8 C 74 % 3.66 C
1217 02-02-2014 15:30:00 8.1 C 75 % 3.94 C
1218 02-02-2014 15:35:00 7.9 C 74 % 3.56 C
1219 02-02-2014 15:40:00 7.7 C 75 % 3.56 C
1220 02-02-2014 15:45:00 7.6 C 74 % 3.27 C
1221 02-02-2014 15:50:00 7.4 C 76 % 3.45 C
1222 02-02-2014 15:55:00 7.2 C 76 % 3.26 C
1223 02-02-2014 16:00:00 6.9 C 79 % 3.52 C
1224 02-02-2014 16:05:00 6.7 C 79 % 3.32 C
1225 02-02-2014 16:10:00 6.7 C 78 % 3.14 C
Sensor: Nr:Datum:Temp:Feuchte:Taupunkt:
Aussen-T/F 1226 02-02-2014 16:15:00 6.8 C 78 % 3.24 C
1227 02-02-2014 16:20:00 6.8 C 78 % 3.24 C
1228 02-02-2014 16:25:00 6.6 C 79 % 3.23 C
1229 02-02-2014 16:30:00 6.4 C 79 % 3.03 C
1230 02-02-2014 16:35:00 6.3 C 80 % 3.11 C
1231 02-02-2014 16:40:00 6.2 C 79 % 2.84 C
1232 02-02-2014 16:45:00 6.1 C 80 % 2.92 C
1233 02-02-2014 16:50:00 6 C 81 % 2.99 C
1234 02-02-2014 16:55:00 5.7 C 82 % 2.87 C
1235 02-02-2014 17:00:00 5.6 C 82 % 2.78 C
1236 02-02-2014 17:05:00 5.3 C 82 % 2.48 C
1237 02-02-2014 17:10:00 5.2 C 82 % 2.39 C
1238 02-02-2014 17:15:00 4.9 C 84 % 2.43 C
1239 02-02-2014 17:20:00 4.6 C 85 % 2.3 C
1240 02-02-2014 17:25:00 4.3 C 86 % 2.17 C
1241 02-02-2014 17:30:00 4.2 C 87 % 2.23 C
1242 02-02-2014 17:35:00 4.1 C 87 % 2.14 C
1243 02-02-2014 17:40:00 3.9 C 88 % 2.1 C
1244 02-02-2014 17:45:00 3.9 C 87 % 1.94 C
1245 02-02-2014 17:50:00 4 C 87 % 2.04 C
1246 02-02-2014 17:55:00 3.8 C 87 % 1.84 C
1247 02-02-2014 18:00:00 3.7 C 88 % 1.9 C
1248 02-02-2014 18:05:00 3.7 C 88 % 1.9 C
1249 02-02-2014 18:10:00 3.6 C 88 % 1.8 C
1250 02-02-2014 18:15:00 3.6 C 87 % 1.64 C
Sensor: Nr:Datum:Temp:Feuchte:Taupunkt:
Aussen-T/F 1251 02-02-2014 18:20:00 3.4 C 88 % 1.61 C
1252 02-02-2014 18:25:00 3.2 C 89 % 1.57 C
1253 02-02-2014 18:30:00 3.1 C 89 % 1.47 C
1254 02-02-2014 18:35:00 2.9 C 90 % 1.43 C
1255 02-02-2014 18:40:00 2.9 C 90 % 1.43 C
1256 02-02-2014 18:45:00 2.8 C 90 % 1.33 C
1257 02-02-2014 18:50:00 2.8 C 91 % 1.48 C
1258 02-02-2014 18:55:00 2.8 C 91 % 1.48 C
1259 02-02-2014 19:00:00 2.8 C 91 % 1.48 C
1260 02-02-2014 19:05:00 2.8 C 91 % 1.48 C
1261 02-02-2014 19:10:00 2.8 C 91 % 1.48 C
1262 02-02-2014 19:15:00 2.7 C 91 % 1.38 C
1263 02-02-2014 19:20:00 2.6 C 91 % 1.28 C
1264 02-02-2014 19:25:00 2.5 C 91 % 1.18 C
1265 02-02-2014 19:30:00 2.5 C 91 % 1.18 C
1266 02-02-2014 19:35:00 2.4 C 92 % 1.24 C
1267 02-02-2014 19:40:00 2.4 C 92 % 1.24 C
1268 02-02-2014 19:45:00 2.3 C 92 % 1.14 C
1269 02-02-2014 19:50:00 2.3 C 92 % 1.14 C
1270 02-02-2014 19:55:00 2.3 C 92 % 1.14 C
1271 02-02-2014 20:00:00 2.2 C 92 % 1.04 C
1272 02-02-2014 20:05:00 2.2 C 93 % 1.19 C
1273 02-02-2014 20:10:00 2.1 C 92 % 0.94 C
1274 02-02-2014 20:15:00 2.1 C 92 % 0.94 C
1275 02-02-2014 20:20:00 2 C 92 % 0.84 C
Sensor: Nr:Datum:Temp:Feuchte:Taupunkt:
Aussen-T/F 1276 02-02-2014 20:25:00 2 C 93 % 0.99 C
1277 02-02-2014 20:30:00 1.9 C 93 % 0.89 C
1278 02-02-2014 20:35:00 1.9 C 93 % 0.89 C
1279 02-02-2014 20:40:00 1.9 C 93 % 0.89 C
1280 02-02-2014 20:45:00 1.8 C 93 % 0.79 C
1281 02-02-2014 20:50:00 1.8 C 94 % 0.94 C
1282 02-02-2014 20:55:00 1.8 C 94 % 0.94 C
1283 02-02-2014 21:00:00 1.8 C 94 % 0.94 C
1284 02-02-2014 21:05:00 1.8 C 93 % 0.79 C
1285 02-02-2014 21:10:00 1.8 C 94 % 0.94 C
1286 02-02-2014 21:15:00 1.9 C 94 % 1.04 C
1287 02-02-2014 21:20:00 1.9 C 94 % 1.04 C
1288 02-02-2014 21:25:00 1.8 C 93 % 0.79 C
1289 02-02-2014 21:30:00 1.7 C 93 % 0.69 C
1290 02-02-2014 21:35:00 1.6 C 93 % 0.59 C
1291 02-02-2014 21:40:00 1.6 C 94 % 0.74 C
1292 02-02-2014 21:45:00 1.6 C 94 % 0.74 C
1293 02-02-2014 21:50:00 1.4 C 93 % 0.4 C
1294 02-02-2014 21:55:00 1.4 C 94 % 0.54 C
1295 02-02-2014 22:00:00 1.3 C 94 % 0.44 C
1296 02-02-2014 22:05:00 1.3 C 94 % 0.44 C
1297 02-02-2014 22:10:00 1.2 C 94 % 0.34 C
1298 02-02-2014 22:15:00 1.1 C 94 % 0.24 C
1299 02-02-2014 22:20:00 1.1 C 94 % 0.24 C
1300 02-02-2014 22:25:00 1.1 C 94 % 0.24 C
Sensor: Nr:Datum:Temp:Feuchte:Taupunkt:
Aussen-T/F 1301 02-02-2014 22:30:00 1 C 94 % 0.15 C
1302 02-02-2014 22:35:00 0.9 C 94 % 0.05 C
1303 02-02-2014 22:40:00 0.9 C 94 % 0.05 C
1304 02-02-2014 22:45:00 0.8 C 94 % -0.05 C
1305 02-02-2014 22:50:00 0.7 C 94 % -0.15 C
1306 02-02-2014 22:55:00 0.7 C 94 % -0.15 C
1307 02-02-2014 23:00:00 0.6 C 94 % -0.25 C
1308 02-02-2014 23:05:00 0.5 C 94 % -0.35 C
1309 02-02-2014 23:10:00 0.4 C 94 % -0.45 C
1310 02-02-2014 23:15:00 0.4 C 95 % -0.31 C
1311 02-02-2014 23:20:00 0.4 C 95 % -0.31 C
1312 02-02-2014 23:25:00 0.4 C 95 % -0.31 C
1313 02-02-2014 23:30:00 0.4 C 95 % -0.31 C
1314 02-02-2014 23:35:00 0.3 C 95 % -0.4 C
1315 02-02-2014 23:40:00 0.2 C 95 % -0.5 C
1316 02-02-2014 23:45:00 0.1 C 94 % -0.75 C
1317 02-02-2014 23:50:00 0 C 95 % -0.7 C
1318 02-02-2014 23:55:00 -0.1 C 95 % -0.8 C
1319 03-02-2014 00:00:00 0 C 95 % -0.7 C
1320 03-02-2014 00:05:00 0.1 C 95 % -0.6 C
1321 03-02-2014 00:10:00 0.1 C 95 % -0.6 C
1322 03-02-2014 00:15:00 0.1 C 95 % -0.6 C
1323 03-02-2014 00:20:00 0.1 C 95 % -0.6 C
1324 03-02-2014 00:25:00 0.1 C 95 % -0.6 C
1325 03-02-2014 00:30:00 0 C 95 % -0.7 C
Sensor: Nr:Datum:Temp:Feuchte:Taupunkt:
Aussen-T/F 1326 03-02-2014 00:35:00 -0.1 C 95 % -0.8 C
1327 03-02-2014 00:40:00 -0.2 C 95 % -0.9 C
1328 03-02-2014 00:45:00 -0.2 C 95 % -0.9 C
1329 03-02-2014 00:50:00 -0.2 C 95 % -0.9 C
1330 03-02-2014 00:55:00 -0.2 C 95 % -0.9 C
1331 03-02-2014 01:00:00 -0.2 C 96 % -0.76 C
1332 03-02-2014 01:05:00 -0.3 C 95 % -1 C
1333 03-02-2014 01:10:00 -0.3 C 95 % -1 C
1334 03-02-2014 01:15:00 -0.4 C 95 % -1.1 C
1335 03-02-2014 01:20:00 -0.4 C 95 % -1.1 C
1336 03-02-2014 01:25:00 -0.5 C 95 % -1.2 C
1337 03-02-2014 01:30:00 -0.6 C 95 % -1.3 C
1338 03-02-2014 01:35:00 -0.6 C 96 % -1.16 C
1339 03-02-2014 01:40:00 -0.6 C 96 % -1.16 C
1340 03-02-2014 01:45:00 -0.6 C 96 % -1.16 C
1341 03-02-2014 01:50:00 -0.7 C 96 % -1.26 C
1342 03-02-2014 01:55:00 -0.7 C 96 % -1.26 C
1343 03-02-2014 02:00:00 -0.8 C 95 % -1.5 C
1344 03-02-2014 02:05:00 -0.8 C 96 % -1.36 C
1345 03-02-2014 02:10:00 -0.8 C 96 % -1.36 C
1346 03-02-2014 02:15:00 -0.9 C 96 % -1.46 C
1347 03-02-2014 02:20:00 -0.9 C 96 % -1.46 C
1348 03-02-2014 02:25:00 -1 C 96 % -1.56 C
1349 03-02-2014 02:30:00 -1.1 C 96 % -1.66 C
1350 03-02-2014 02:35:00 -1.1 C 96 % -1.66 C
Sensor: Nr:Datum:Temp:Feuchte:Taupunkt:
Aussen-T/F 1351 03-02-2014 02:40:00 -1.1 C 96 % -1.66 C
1352 03-02-2014 02:45:00 -1.1 C 96 % -1.66 C
1353 03-02-2014 02:50:00 -1.1 C 96 % -1.66 C
1354 03-02-2014 02:55:00 -1.2 C 96 % -1.75 C
1355 03-02-2014 03:00:00 -1.2 C 96 % -1.75 C
1356 03-02-2014 03:05:00 -1.2 C 96 % -1.75 C
1357 03-02-2014 03:10:00 -1.2 C 96 % -1.75 C
1358 03-02-2014 03:15:00 -1.2 C 96 % -1.75 C
1359 03-02-2014 03:20:00 -1.2 C 96 % -1.75 C
1360 03-02-2014 03:25:00 -1.2 C 96 % -1.75 C
1361 03-02-2014 03:30:00 -1.2 C 96 % -1.75 C
1362 03-02-2014 03:35:00 -1.3 C 96 % -1.85 C
1363 03-02-2014 03:40:00 -1.3 C 96 % -1.85 C
1364 03-02-2014 03:45:00 -1.3 C 96 % -1.85 C
1365 03-02-2014 03:50:00 -1.3 C 96 % -1.85 C
1366 03-02-2014 03:55:00 -1.3 C 96 % -1.85 C
1367 03-02-2014 04:00:00 -1.4 C 96 % -1.95 C
1368 03-02-2014 04:05:00 -1.4 C 96 % -1.95 C
1369 03-02-2014 04:10:00 -1.4 C 96 % -1.95 C
1370 03-02-2014 04:15:00 -1.4 C 96 % -1.95 C
1371 03-02-2014 04:20:00 -1.4 C 96 % -1.95 C
1372 03-02-2014 04:25:00 -1.4 C 96 % -1.95 C
1373 03-02-2014 04:30:00 -1.4 C 96 % -1.95 C
1374 03-02-2014 04:35:00 -1.4 C 96 % -1.95 C
1375 03-02-2014 04:40:00 -1.4 C 96 % -1.95 C
Sensor: Nr:Datum:Temp:Feuchte:Taupunkt:
Aussen-T/F 1376 03-02-2014 04:45:00 -1.5 C 96 % -2.05 C
1377 03-02-2014 04:50:00 -1.4 C 96 % -1.95 C
1378 03-02-2014 04:55:00 -1.4 C 96 % -1.95 C
1379 03-02-2014 05:00:00 -1.4 C 96 % -1.95 C
1380 03-02-2014 05:05:00 -1.5 C 96 % -2.05 C
1381 03-02-2014 05:10:00 -1.6 C 96 % -2.15 C
1382 03-02-2014 05:15:00 -1.7 C 96 % -2.25 C
1383 03-02-2014 05:20:00 -1.7 C 96 % -2.25 C
1384 03-02-2014 05:25:00 -1.8 C 96 % -2.35 C
1385 03-02-2014 05:30:00 -1.8 C 96 % -2.35 C
1386 03-02-2014 05:35:00 -1.8 C 96 % -2.35 C
1387 03-02-2014 05:40:00 -1.8 C 96 % -2.35 C
1388 03-02-2014 05:45:00 -1.8 C 97 % -2.21 C
1389 03-02-2014 05:50:00 -1.8 C 97 % -2.21 C
1390 03-02-2014 05:55:00 -1.8 C 97 % -2.21 C
1391 03-02-2014 06:00:00 -1.8 C 97 % -2.21 C
1392 03-02-2014 06:05:00 -1.8 C 97 % -2.21 C
1393 03-02-2014 06:10:00 -1.8 C 97 % -2.21 C
1394 03-02-2014 06:15:00 -1.8 C 97 % -2.21 C
1395 03-02-2014 06:20:00 -1.8 C 97 % -2.21 C
1396 03-02-2014 06:25:00 -1.8 C 97 % -2.21 C
1397 03-02-2014 06:30:00 -1.8 C 97 % -2.21 C
1398 03-02-2014 06:35:00 -1.8 C 97 % -2.21 C
1399 03-02-2014 06:40:00 -1.8 C 97 % -2.21 C
1400 03-02-2014 06:45:00 -1.8 C 97 % -2.21 C
Sensor: Nr:Datum:Temp:Feuchte:Taupunkt:
Aussen-T/F 1401 03-02-2014 06:50:00 -1.8 C 97 % -2.21 C
1402 03-02-2014 06:55:00 -1.8 C 97 % -2.21 C
1403 03-02-2014 07:00:00 -1.8 C 97 % -2.21 C
1404 03-02-2014 07:05:00 -1.8 C 97 % -2.21 C
1405 03-02-2014 07:10:00 -1.8 C 97 % -2.21 C
1406 03-02-2014 07:15:00 -1.8 C 97 % -2.21 C
1407 03-02-2014 07:20:00 -1.9 C 97 % -2.31 C
1408 03-02-2014 07:25:00 -1.8 C 97 % -2.21 C
1409 03-02-2014 07:30:00 -1.8 C 97 % -2.21 C
1410 03-02-2014 07:35:00 -1.8 C 97 % -2.21 C
1411 03-02-2014 07:40:00 -1.8 C 97 % -2.21 C
1412 03-02-2014 07:45:00 -1.8 C 97 % -2.21 C
1413 03-02-2014 07:50:00 -1.8 C 97 % -2.21 C
1414 03-02-2014 07:55:00 -1.8 C 97 % -2.21 C
1415 03-02-2014 08:00:00 -1.9 C 97 % -2.31 C
1416 03-02-2014 08:05:00 -1.9 C 97 % -2.31 C
1417 03-02-2014 08:10:00 -1.9 C 97 % -2.31 C
1418 03-02-2014 08:15:00 -1.9 C 97 % -2.31 C
1419 03-02-2014 08:20:00 -1.9 C 97 % -2.31 C
1420 03-02-2014 08:25:00 -2 C 97 % -2.41 C
1421 03-02-2014 08:30:00 -2 C 97 % -2.41 C
1422 03-02-2014 08:35:00 -1.9 C 97 % -2.31 C
1423 03-02-2014 08:40:00 -1.9 C 97 % -2.31 C
1424 03-02-2014 08:45:00 -1.8 C 97 % -2.21 C
1425 03-02-2014 08:50:00 -1.7 C 97 % -2.11 C
Sensor: Nr:Datum:Temp:Feuchte:Taupunkt:
Aussen-T/F 1426 03-02-2014 08:55:00 -1.6 C 97 % -2.01 C
1427 03-02-2014 09:00:00 -1.5 C 97 % -1.91 C
1428 03-02-2014 09:05:00 -1.4 C 97 % -1.81 C
1429 03-02-2014 09:10:00 -1.2 C 97 % -1.61 C
1430 03-02-2014 09:15:00 -1.1 C 97 % -1.51 C
1431 03-02-2014 09:20:00 -1.1 C 97 % -1.51 C
1432 03-02-2014 09:25:00 -0.9 C 98 % -1.18 C
1433 03-02-2014 09:30:00 -0.8 C 98 % -1.08 C
1434 03-02-2014 09:35:00 -0.7 C 97 % -1.12 C
1435 03-02-2014 09:40:00 -0.6 C 98 % -0.88 C
1436 03-02-2014 09:45:00 -0.4 C 98 % -0.68 C
1437 03-02-2014 09:50:00 -0.3 C 98 % -0.58 C
1438 03-02-2014 09:55:00 -0.1 C 98 % -0.38 C
1439 03-02-2014 10:00:00 0 C 98 % -0.28 C
1440 03-02-2014 10:05:00 0.1 C 98 % -0.18 C
1441 03-02-2014 10:10:00 0.1 C 98 % -0.18 C
1442 03-02-2014 10:15:00 0.2 C 98 % -0.08 C
1443 03-02-2014 10:20:00 0.2 C 97 % -0.22 C
1444 03-02-2014 10:25:00 0.3 C 98 % 0.02 C
1445 03-02-2014 10:30:00 0.3 C 98 % 0.02 C
1446 03-02-2014 10:35:00 0.3 C 98 % 0.02 C
1447 03-02-2014 10:40:00 0.4 C 98 % 0.12 C
1448 03-02-2014 10:45:00 0.5 C 98 % 0.22 C
1449 03-02-2014 10:50:00 0.6 C 98 % 0.32 C
1450 03-02-2014 10:55:00 0.6 C 98 % 0.32 C
Sensor: Nr:Datum:Temp:Feuchte:Taupunkt:
Aussen-T/F 1451 03-02-2014 11:00:00 0.7 C 98 % 0.42 C
1452 03-02-2014 11:05:00 0.7 C 98 % 0.42 C
1453 03-02-2014 11:10:00 0.7 C 98 % 0.42 C
1454 03-02-2014 11:15:00 0.8 C 98 % 0.52 C
1455 03-02-2014 11:20:00 0.8 C 98 % 0.52 C
1456 03-02-2014 11:25:00 0.8 C 98 % 0.52 C
1457 03-02-2014 11:30:00 0.9 C 98 % 0.62 C
1458 03-02-2014 11:35:00 0.9 C 97 % 0.48 C
1459 03-02-2014 11:40:00 0.9 C 98 % 0.62 C
1460 03-02-2014 11:45:00 1.1 C 98 % 0.82 C
1461 03-02-2014 11:50:00 1.2 C 98 % 0.92 C
1462 03-02-2014 11:55:00 1.3 C 98 % 1.02 C
1463 03-02-2014 12:00:00 1.3 C 98 % 1.02 C
1464 03-02-2014 12:05:00 1.4 C 98 % 1.12 C
1465 03-02-2014 12:10:00 1.6 C 98 % 1.32 C
1466 03-02-2014 12:15:00 1.7 C 98 % 1.42 C
1467 03-02-2014 12:20:00 1.8 C 98 % 1.52 C
1468 03-02-2014 12:25:00 1.9 C 98 % 1.62 C
1469 03-02-2014 12:30:00 1.9 C 98 % 1.62 C
1470 03-02-2014 12:35:00 1.9 C 98 % 1.62 C
1471 03-02-2014 12:40:00 2 C 98 % 1.72 C
1472 03-02-2014 12:45:00 2 C 98 % 1.72 C
1473 03-02-2014 12:50:00 2.1 C 98 % 1.82 C
1474 03-02-2014 12:55:00 2.1 C 98 % 1.82 C
1475 03-02-2014 13:00:00 2.2 C 98 % 1.92 C
Sensor: Nr:Datum:Temp:Feuchte:Taupunkt:
Aussen-T/F 1476 03-02-2014 13:05:00 2.2 C 98 % 1.92 C
1477 03-02-2014 13:10:00 2.3 C 98 % 2.02 C
1478 03-02-2014 13:15:00 2.4 C 98 % 2.12 C
1479 03-02-2014 13:20:00 2.4 C 98 % 2.12 C
1480 03-02-2014 13:25:00 2.6 C 98 % 2.32 C
1481 03-02-2014 13:30:00 2.6 C 98 % 2.32 C
1482 03-02-2014 13:35:00 2.6 C 97 % 2.17 C
1483 03-02-2014 13:40:00 2.7 C 97 % 2.27 C
1484 03-02-2014 13:45:00 2.7 C 97 % 2.27 C
1485 03-02-2014 13:50:00 2.8 C 97 % 2.37 C
1486 03-02-2014 13:55:00 2.8 C 97 % 2.37 C
1487 03-02-2014 14:00:00 2.8 C 97 % 2.37 C
1488 03-02-2014 14:05:00 2.8 C 97 % 2.37 C
1489 03-02-2014 14:10:00 2.8 C 97 % 2.37 C
1490 03-02-2014 14:15:00 2.8 C 97 % 2.37 C
1491 03-02-2014 14:20:00 2.9 C 96 % 2.33 C
1492 03-02-2014 14:25:00 2.9 C 96 % 2.33 C
1493 03-02-2014 14:30:00 2.9 C 96 % 2.33 C
1494 03-02-2014 14:35:00 2.9 C 96 % 2.33 C
1495 03-02-2014 14:40:00 3 C 96 % 2.43 C
1496 03-02-2014 14:45:00 3 C 95 % 2.28 C
1497 03-02-2014 14:50:00 3.1 C 95 % 2.38 C
1498 03-02-2014 14:55:00 3.1 C 95 % 2.38 C
1499 03-02-2014 15:00:00 3.1 C 95 % 2.38 C
1500 03-02-2014 15:05:00 3.1 C 95 % 2.38 C
Sensor: Nr:Datum:Temp:Feuchte:Taupunkt:
Aussen-T/F 1501 03-02-2014 15:10:00 3.2 C 95 % 2.48 C
1502 03-02-2014 15:15:00 3.2 C 95 % 2.48 C
1503 03-02-2014 15:20:00 3.2 C 95 % 2.48 C
1504 03-02-2014 15:25:00 3.2 C 94 % 2.33 C
1505 03-02-2014 15:30:00 3.3 C 94 % 2.43 C
1506 03-02-2014 15:35:00 3.3 C 94 % 2.43 C
1507 03-02-2014 15:40:00 3.3 C 94 % 2.43 C
1508 03-02-2014 15:45:00 3.3 C 94 % 2.43 C
1509 03-02-2014 15:50:00 3.3 C 94 % 2.43 C
1510 03-02-2014 15:55:00 3.3 C 94 % 2.43 C
1511 03-02-2014 16:00:00 3.3 C 94 % 2.43 C
1512 03-02-2014 16:05:00 3.3 C 94 % 2.43 C
1513 03-02-2014 16:10:00 3.3 C 94 % 2.43 C
1514 03-02-2014 16:15:00 3.3 C 94 % 2.43 C
1515 03-02-2014 16:20:00 3.4 C 94 % 2.53 C
1516 03-02-2014 16:25:00 3.4 C 94 % 2.53 C
1517 03-02-2014 16:30:00 3.4 C 94 % 2.53 C
1518 03-02-2014 16:35:00 3.4 C 94 % 2.53 C
1519 03-02-2014 16:40:00 3.4 C 94 % 2.53 C
1520 03-02-2014 16:45:00 3.3 C 94 % 2.43 C
1521 03-02-2014 16:50:00 3.3 C 94 % 2.43 C
1522 03-02-2014 16:55:00 3.3 C 94 % 2.43 C
1523 03-02-2014 17:00:00 3.3 C 94 % 2.43 C
1524 03-02-2014 17:05:00 3.3 C 94 % 2.43 C
1525 03-02-2014 17:10:00 3.3 C 94 % 2.43 C
Sensor: Nr:Datum:Temp:Feuchte:Taupunkt:
Aussen-T/F 1526 03-02-2014 17:15:00 3.3 C 94 % 2.43 C
1527 03-02-2014 17:20:00 3.3 C 94 % 2.43 C
1528 03-02-2014 17:25:00 3.3 C 95 % 2.58 C
1529 03-02-2014 17:30:00 3.2 C 95 % 2.48 C
1530 03-02-2014 17:35:00 3.2 C 95 % 2.48 C
1531 03-02-2014 17:40:00 3.2 C 95 % 2.48 C
1532 03-02-2014 17:45:00 3.2 C 95 % 2.48 C
1533 03-02-2014 17:50:00 3.2 C 95 % 2.48 C
1534 03-02-2014 17:55:00 3.2 C 95 % 2.48 C
1535 03-02-2014 18:00:00 3.2 C 95 % 2.48 C
1536 03-02-2014 18:05:00 3.2 C 95 % 2.48 C
1537 03-02-2014 18:10:00 3.2 C 95 % 2.48 C
1538 03-02-2014 18:15:00 3.2 C 95 % 2.48 C
1539 03-02-2014 18:20:00 3.2 C 95 % 2.48 C
1540 03-02-2014 18:25:00 3.2 C 95 % 2.48 C
1541 03-02-2014 18:30:00 3.3 C 95 % 2.58 C
1542 03-02-2014 18:35:00 3.3 C 95 % 2.58 C
1543 03-02-2014 18:40:00 3.3 C 95 % 2.58 C
1544 03-02-2014 18:45:00 3.3 C 95 % 2.58 C
1545 03-02-2014 18:50:00 3.3 C 95 % 2.58 C
1546 03-02-2014 18:55:00 3.3 C 95 % 2.58 C
1547 03-02-2014 19:00:00 3.3 C 95 % 2.58 C
1548 03-02-2014 19:05:00 3.3 C 95 % 2.58 C
1549 03-02-2014 19:10:00 3.3 C 95 % 2.58 C
1550 03-02-2014 19:15:00 3.3 C 95 % 2.58 C
Sensor: Nr:Datum:Temp:Feuchte:Taupunkt:
Aussen-T/F 1551 03-02-2014 19:20:00 3.3 C 95 % 2.58 C
1552 03-02-2014 19:25:00 3.4 C 95 % 2.68 C
1553 03-02-2014 19:30:00 3.4 C 95 % 2.68 C
1554 03-02-2014 19:35:00 3.4 C 95 % 2.68 C
1555 03-02-2014 19:40:00 3.4 C 94 % 2.53 C
1556 03-02-2014 19:45:00 3.4 C 94 % 2.53 C
1557 03-02-2014 19:50:00 3.4 C 94 % 2.53 C
1558 03-02-2014 19:55:00 3.4 C 94 % 2.53 C
1559 03-02-2014 20:00:00 3.3 C 94 % 2.43 C
1560 03-02-2014 20:05:00 3.2 C 93 % 2.18 C
1561 03-02-2014 20:10:00 3.1 C 93 % 2.08 C
1562 03-02-2014 20:15:00 2.9 C 93 % 1.88 C
1563 03-02-2014 20:20:00 2.7 C 93 % 1.68 C
1564 03-02-2014 20:25:00 2.6 C 94 % 1.73 C
1565 03-02-2014 20:30:00 2.6 C 94 % 1.73 C
1566 03-02-2014 20:35:00 2.5 C 94 % 1.63 C
1567 03-02-2014 20:40:00 2.5 C 94 % 1.63 C
1568 03-02-2014 20:45:00 2.5 C 94 % 1.63 C
1569 03-02-2014 20:50:00 2.5 C 94 % 1.63 C
1570 03-02-2014 20:55:00 2.5 C 94 % 1.63 C
1571 03-02-2014 21:00:00 2.4 C 94 % 1.54 C
1572 03-02-2014 21:05:00 2.3 C 94 % 1.44 C
1573 03-02-2014 21:10:00 2.3 C 94 % 1.44 C
1574 03-02-2014 21:15:00 2.4 C 94 % 1.54 C
1575 03-02-2014 21:20:00 2.3 C 94 % 1.44 C
Sensor: Nr:Datum:Temp:Feuchte:Taupunkt:
Aussen-T/F 1576 03-02-2014 21:25:00 2.3 C 94 % 1.44 C
1577 03-02-2014 21:30:00 2.3 C 94 % 1.44 C
1578 03-02-2014 21:35:00 2.4 C 94 % 1.54 C
1579 03-02-2014 21:40:00 2.4 C 94 % 1.54 C
1580 03-02-2014 21:45:00 2.5 C 94 % 1.63 C
1581 03-02-2014 21:50:00 2.6 C 94 % 1.73 C
1582 03-02-2014 21:55:00 2.8 C 94 % 1.93 C
1583 03-02-2014 22:00:00 2.8 C 94 % 1.93 C
1584 03-02-2014 22:05:00 2.9 C 94 % 2.03 C
1585 03-02-2014 22:10:00 3.1 C 93 % 2.08 C
1586 03-02-2014 22:15:00 3.3 C 92 % 2.13 C
1587 03-02-2014 22:20:00 3.6 C 91 % 2.27 C
1588 03-02-2014 22:25:00 3.5 C 91 % 2.17 C
1589 03-02-2014 22:30:00 3.6 C 90 % 2.12 C
1590 03-02-2014 22:35:00 3.6 C 90 % 2.12 C
1591 03-02-2014 22:40:00 3.7 C 90 % 2.22 C
1592 03-02-2014 22:45:00 3.8 C 89 % 2.16 C
1593 03-02-2014 22:50:00 3.7 C 89 % 2.06 C
1594 03-02-2014 22:55:00 3.6 C 90 % 2.12 C
1595 03-02-2014 23:00:00 3.4 C 90 % 1.92 C
1596 03-02-2014 23:05:00 3.3 C 90 % 1.82 C
1597 03-02-2014 23:10:00 3.3 C 91 % 1.98 C
1598 03-02-2014 23:15:00 3.2 C 90 % 1.72 C
1599 03-02-2014 23:20:00 3.1 C 90 % 1.62 C
1600 03-02-2014 23:25:00 3 C 91 % 1.68 C
Sensor: Nr:Datum:Temp:Feuchte:Taupunkt:
Aussen-T/F 1601 03-02-2014 23:30:00 3 C 91 % 1.68 C
1602 03-02-2014 23:35:00 2.9 C 92 % 1.73 C
1603 03-02-2014 23:40:00 2.8 C 91 % 1.48 C
1604 03-02-2014 23:45:00 2.6 C 92 % 1.43 C
1605 03-02-2014 23:50:00 2.4 C 92 % 1.24 C
1606 03-02-2014 23:55:00 2.3 C 93 % 1.29 C
1607 04-02-2014 00:00:00 2.4 C 93 % 1.39 C
1608 04-02-2014 00:05:00 2.4 C 93 % 1.39 C
1609 04-02-2014 00:10:00 2.6 C 94 % 1.73 C
1610 04-02-2014 00:15:00 2.7 C 93 % 1.68 C
1611 04-02-2014 00:20:00 2.8 C 93 % 1.78 C
1612 04-02-2014 00:25:00 3 C 93 % 1.98 C
1613 04-02-2014 00:30:00 3 C 92 % 1.83 C
1614 04-02-2014 00:35:00 3.1 C 92 % 1.93 C
1615 04-02-2014 00:40:00 2.9 C 91 % 1.58 C
1616 04-02-2014 00:45:00 2.8 C 91 % 1.48 C
1617 04-02-2014 00:50:00 2.6 C 92 % 1.43 C
1618 04-02-2014 00:55:00 2.5 C 92 % 1.34 C
1619 04-02-2014 01:00:00 2.4 C 92 % 1.24 C
1620 04-02-2014 01:05:00 2.4 C 93 % 1.39 C
1621 04-02-2014 01:10:00 2.3 C 93 % 1.29 C
1622 04-02-2014 01:15:00 2.4 C 93 % 1.39 C
1623 04-02-2014 01:20:00 2.6 C 93 % 1.59 C
1624 04-02-2014 01:25:00 2.8 C 93 % 1.78 C
1625 04-02-2014 01:30:00 2.8 C 92 % 1.63 C
Sensor: Nr:Datum:Temp:Feuchte:Taupunkt:
Aussen-T/F 1626 04-02-2014 01:35:00 2.8 C 92 % 1.63 C
1627 04-02-2014 01:40:00 2.8 C 92 % 1.63 C
1628 04-02-2014 01:45:00 2.7 C 92 % 1.53 C
1629 04-02-2014 01:50:00 2.5 C 92 % 1.34 C
1630 04-02-2014 01:55:00 2.4 C 93 % 1.39 C
1631 04-02-2014 02:00:00 2.3 C 93 % 1.29 C
1632 04-02-2014 02:05:00 2.3 C 93 % 1.29 C
1633 04-02-2014 02:10:00 2.3 C 94 % 1.44 C
1634 04-02-2014 02:15:00 2.4 C 94 % 1.54 C
1635 04-02-2014 02:20:00 2.4 C 94 % 1.54 C
1636 04-02-2014 02:25:00 2.4 C 93 % 1.39 C
1637 04-02-2014 02:30:00 2.4 C 93 % 1.39 C
1638 04-02-2014 02:35:00 2.4 C 93 % 1.39 C
1639 04-02-2014 02:40:00 2.4 C 94 % 1.54 C
1640 04-02-2014 02:45:00 2.4 C 94 % 1.54 C
1641 04-02-2014 02:50:00 2.5 C 94 % 1.63 C
1642 04-02-2014 02:55:00 2.6 C 94 % 1.73 C
1643 04-02-2014 03:00:00 2.6 C 94 % 1.73 C
1644 04-02-2014 03:05:00 2.6 C 93 % 1.59 C
1645 04-02-2014 03:10:00 2.6 C 94 % 1.73 C
1646 04-02-2014 03:15:00 2.7 C 93 % 1.68 C
1647 04-02-2014 03:20:00 2.7 C 93 % 1.68 C
1648 04-02-2014 03:25:00 2.6 C 93 % 1.59 C
1649 04-02-2014 03:30:00 2.5 C 93 % 1.49 C
1650 04-02-2014 03:35:00 2.4 C 93 % 1.39 C
Sensor: Nr:Datum:Temp:Feuchte:Taupunkt:
Aussen-T/F 1651 04-02-2014 03:40:00 2.3 C 93 % 1.29 C
1652 04-02-2014 03:45:00 2.2 C 94 % 1.34 C
1653 04-02-2014 03:50:00 2.1 C 93 % 1.09 C
1654 04-02-2014 03:55:00 2 C 94 % 1.14 C
1655 04-02-2014 04:00:00 1.9 C 94 % 1.04 C
1656 04-02-2014 04:05:00 2 C 94 % 1.14 C
1657 04-02-2014 04:10:00 2 C 94 % 1.14 C
1658 04-02-2014 04:15:00 2.1 C 94 % 1.24 C
1659 04-02-2014 04:20:00 2.2 C 95 % 1.48 C
1660 04-02-2014 04:25:00 2.1 C 94 % 1.24 C
1661 04-02-2014 04:30:00 2.1 C 94 % 1.24 C
1662 04-02-2014 04:35:00 2 C 94 % 1.14 C
1663 04-02-2014 04:40:00 1.9 C 94 % 1.04 C
1664 04-02-2014 04:45:00 1.8 C 94 % 0.94 C
1665 04-02-2014 04:50:00 1.8 C 94 % 0.94 C
1666 04-02-2014 04:55:00 1.7 C 94 % 0.84 C
1667 04-02-2014 05:00:00 1.6 C 94 % 0.74 C
1668 04-02-2014 05:05:00 1.6 C 95 % 0.89 C
1669 04-02-2014 05:10:00 1.5 C 95 % 0.79 C
1670 04-02-2014 05:15:00 1.5 C 95 % 0.79 C
1671 04-02-2014 05:20:00 1.6 C 95 % 0.89 C
1672 04-02-2014 05:25:00 1.6 C 95 % 0.89 C
1673 04-02-2014 05:30:00 1.6 C 95 % 0.89 C
1674 04-02-2014 05:35:00 1.7 C 95 % 0.99 C
1675 04-02-2014 05:40:00 1.8 C 95 % 1.09 C
Sensor: Nr:Datum:Temp:Feuchte:Taupunkt:
Aussen-T/F 1676 04-02-2014 05:45:00 1.8 C 95 % 1.09 C
1677 04-02-2014 05:50:00 1.9 C 96 % 1.33 C
1678 04-02-2014 05:55:00 1.9 C 96 % 1.33 C
1679 04-02-2014 06:00:00 1.9 C 96 % 1.33 C
1680 04-02-2014 06:05:00 2.2 C 96 % 1.63 C
1681 04-02-2014 06:10:00 2.3 C 96 % 1.73 C
1682 04-02-2014 06:15:00 2.3 C 95 % 1.58 C
1683 04-02-2014 06:20:00 2.5 C 95 % 1.78 C
1684 04-02-2014 06:25:00 2.5 C 95 % 1.78 C
1685 04-02-2014 06:30:00 2.5 C 95 % 1.78 C
1686 04-02-2014 06:35:00 2.4 C 95 % 1.68 C
1687 04-02-2014 06:40:00 2.4 C 95 % 1.68 C
1688 04-02-2014 06:45:00 2.4 C 95 % 1.68 C
1689 04-02-2014 06:50:00 2.5 C 95 % 1.78 C
1690 04-02-2014 06:55:00 2.5 C 95 % 1.78 C
1691 04-02-2014 07:00:00 2.6 C 95 % 1.88 C
1692 04-02-2014 07:05:00 2.6 C 95 % 1.88 C
1693 04-02-2014 07:10:00 2.7 C 95 % 1.98 C
1694 04-02-2014 07:15:00 2.7 C 95 % 1.98 C
1695 04-02-2014 07:20:00 2.7 C 95 % 1.98 C
1696 04-02-2014 07:25:00 2.8 C 95 % 2.08 C
1697 04-02-2014 07:30:00 2.9 C 95 % 2.18 C
1698 04-02-2014 07:35:00 2.9 C 95 % 2.18 C
1699 04-02-2014 07:40:00 2.9 C 95 % 2.18 C
1700 04-02-2014 07:45:00 3 C 95 % 2.28 C
Sensor: Nr:Datum:Temp:Feuchte:Taupunkt:
Aussen-T/F 1701 04-02-2014 07:50:00 3 C 95 % 2.28 C
1702 04-02-2014 07:55:00 3.1 C 95 % 2.38 C
1703 04-02-2014 08:00:00 3.1 C 95 % 2.38 C
1704 04-02-2014 08:05:00 3.2 C 95 % 2.48 C
1705 04-02-2014 08:10:00 3.2 C 94 % 2.33 C
1706 04-02-2014 08:15:00 3.2 C 94 % 2.33 C
1707 04-02-2014 08:20:00 3.2 C 94 % 2.33 C
1708 04-02-2014 08:25:00 3.2 C 94 % 2.33 C
1709 04-02-2014 08:30:00 3.2 C 94 % 2.33 C
1710 04-02-2014 08:35:00 3.3 C 94 % 2.43 C
1711 04-02-2014 08:40:00 3.3 C 94 % 2.43 C
1712 04-02-2014 08:45:00 3.4 C 94 % 2.53 C
1713 04-02-2014 08:50:00 3.5 C 94 % 2.63 C
1714 04-02-2014 08:55:00 3.8 C 92 % 2.62 C
1715 04-02-2014 09:00:00 4 C 91 % 2.67 C
1716 04-02-2014 09:05:00 4.2 C 90 % 2.71 C
1717 04-02-2014 09:10:00 4.5 C 89 % 2.85 C
1718 04-02-2014 09:15:00 4.7 C 88 % 2.89 C
1719 04-02-2014 09:20:00 4.9 C 86 % 2.76 C
1720 04-02-2014 09:25:00 5.2 C 86 % 3.05 C
1721 04-02-2014 09:30:00 5.2 C 85 % 2.89 C
1722 04-02-2014 09:35:00 5.2 C 85 % 2.89 C
1723 04-02-2014 09:40:00 5.3 C 85 % 2.99 C
1724 04-02-2014 09:45:00 5.4 C 85 % 3.09 C
1725 04-02-2014 09:50:00 5.4 C 85 % 3.09 C
Sensor: Nr:Datum:Temp:Feuchte:Taupunkt:
Aussen-T/F 1726 04-02-2014 09:55:00 5.4 C 85 % 3.09 C
1727 04-02-2014 10:00:00 5.5 C 85 % 3.18 C
1728 04-02-2014 10:05:00 5.6 C 84 % 3.12 C
1729 04-02-2014 10:10:00 5.7 C 84 % 3.21 C
1730 04-02-2014 10:15:00 5.7 C 84 % 3.21 C
1731 04-02-2014 10:20:00 5.8 C 84 % 3.31 C
1732 04-02-2014 10:25:00 6 C 83 % 3.34 C
1733 04-02-2014 10:30:00 6.1 C 83 % 3.44 C
1734 04-02-2014 10:35:00 6.2 C 82 % 3.36 C
1735 04-02-2014 10:40:00 6.2 C 82 % 3.36 C
1736 04-02-2014 10:45:00 6.2 C 82 % 3.36 C
1737 04-02-2014 10:50:00 6.2 C 82 % 3.36 C
1738 04-02-2014 10:55:00 6.3 C 82 % 3.46 C
1739 04-02-2014 11:00:00 6.3 C 82 % 3.46 C
1740 04-02-2014 11:05:00 6.2 C 82 % 3.36 C
1741 04-02-2014 11:10:00 6.2 C 82 % 3.36 C
1742 04-02-2014 11:15:00 6.2 C 82 % 3.36 C
1743 04-02-2014 11:20:00 6.2 C 82 % 3.36 C
1744 04-02-2014 11:25:00 6.2 C 82 % 3.36 C
1745 04-02-2014 11:30:00 6.2 C 83 % 3.53 C
1746 04-02-2014 11:35:00 6.2 C 83 % 3.53 C
1747 04-02-2014 11:40:00 6.2 C 83 % 3.53 C
1748 04-02-2014 11:45:00 6.3 C 83 % 3.63 C
1749 04-02-2014 11:50:00 6.3 C 83 % 3.63 C
1750 04-02-2014 11:55:00 6.4 C 82 % 3.56 C
Sensor: Nr:Datum:Temp:Feuchte:Taupunkt:
Aussen-T/F 1751 04-02-2014 12:00:00 6.5 C 82 % 3.66 C
1752 04-02-2014 12:05:00 6.6 C 82 % 3.75 C
1753 04-02-2014 12:10:00 6.6 C 82 % 3.75 C
1754 04-02-2014 12:15:00 6.6 C 82 % 3.75 C
1755 04-02-2014 12:20:00 6.7 C 82 % 3.85 C
1756 04-02-2014 12:25:00 6.7 C 81 % 3.68 C
1757 04-02-2014 12:30:00 6.8 C 81 % 3.77 C
1758 04-02-2014 12:35:00 6.9 C 81 % 3.87 C
1759 04-02-2014 12:40:00 7.1 C 81 % 4.07 C
1760 04-02-2014 12:45:00 7.1 C 80 % 3.89 C
1761 04-02-2014 12:50:00 7.2 C 80 % 3.99 C
1762 04-02-2014 12:55:00 7.3 C 80 % 4.09 C
1763 04-02-2014 13:00:00 7.3 C 79 % 3.91 C
1764 04-02-2014 13:05:00 7.3 C 80 % 4.09 C
1765 04-02-2014 13:10:00 7.3 C 81 % 4.26 C
1766 04-02-2014 13:15:00 7.3 C 80 % 4.09 C
1767 04-02-2014 13:20:00 7.3 C 80 % 4.09 C
1768 04-02-2014 13:25:00 7.4 C 79 % 4 C
1769 04-02-2014 13:30:00 7.5 C 78 % 3.92 C
1770 04-02-2014 13:35:00 7.6 C 80 % 4.38 C
1771 04-02-2014 13:40:00 7.7 C 80 % 4.47 C
1772 04-02-2014 13:45:00 7.7 C 79 % 4.3 C
1773 04-02-2014 13:50:00 7.8 C 78 % 4.21 C
1774 04-02-2014 13:55:00 7.8 C 79 % 4.39 C
1775 04-02-2014 14:00:00 7.8 C 80 % 4.57 C
Sensor: Nr:Datum:Temp:Feuchte:Taupunkt:
Aussen-T/F 1776 04-02-2014 14:05:00 7.9 C 79 % 4.49 C
1777 04-02-2014 14:10:00 8.1 C 79 % 4.68 C
1778 04-02-2014 14:15:00 8.2 C 79 % 4.78 C
1779 04-02-2014 14:20:00 8.2 C 77 % 4.42 C
1780 04-02-2014 14:25:00 8.2 C 79 % 4.78 C
1781 04-02-2014 14:30:00 8.2 C 78 % 4.6 C
1782 04-02-2014 14:35:00 8.3 C 78 % 4.7 C
1783 04-02-2014 14:40:00 8.4 C 76 % 4.42 C
1784 04-02-2014 14:45:00 8.4 C 78 % 4.79 C
1785 04-02-2014 14:50:00 8.3 C 79 % 4.88 C
1786 04-02-2014 14:55:00 7.7 C 81 % 4.65 C
1787 04-02-2014 15:00:00 7.3 C 82 % 4.44 C
1788 04-02-2014 15:05:00 7.1 C 85 % 4.75 C
1789 04-02-2014 15:10:00 7.1 C 86 % 4.92 C
1790 04-02-2014 15:15:00 7.1 C 85 % 4.75 C
1791 04-02-2014 15:20:00 7 C 86 % 4.82 C
1792 04-02-2014 15:25:00 7.1 C 86 % 4.92 C
1793 04-02-2014 15:30:00 7.1 C 86 % 4.92 C
1794 04-02-2014 15:35:00 7.2 C 87 % 5.19 C
1795 04-02-2014 15:40:00 7.3 C 86 % 5.12 C
1796 04-02-2014 15:45:00 7.5 C 86 % 5.31 C
1797 04-02-2014 15:50:00 7.7 C 85 % 5.34 C
1798 04-02-2014 15:55:00 7.7 C 84 % 5.17 C
1799 04-02-2014 16:00:00 7.6 C 83 % 4.9 C
1800 04-02-2014 16:05:00 7.5 C 83 % 4.81 C
Sensor: Nr:Datum:Temp:Feuchte:Taupunkt:
Aussen-T/F 1801 04-02-2014 16:10:00 7.3 C 84 % 4.78 C
1802 04-02-2014 16:15:00 7.2 C 84 % 4.68 C
1803 04-02-2014 16:20:00 7.2 C 83 % 4.51 C
1804 04-02-2014 16:25:00 7.2 C 83 % 4.51 C
1805 04-02-2014 16:30:00 7.2 C 85 % 4.85 C
1806 04-02-2014 16:35:00 7.1 C 85 % 4.75 C
1807 04-02-2014 16:40:00 7.1 C 86 % 4.92 C
1808 04-02-2014 16:45:00 7 C 86 % 4.82 C
1809 04-02-2014 16:50:00 6.9 C 86 % 4.72 C
1810 04-02-2014 16:55:00 6.8 C 87 % 4.79 C
1811 04-02-2014 17:00:00 6.5 C 86 % 4.33 C
1812 04-02-2014 17:05:00 6.2 C 87 % 4.2 C
1813 04-02-2014 17:10:00 6 C 87 % 4 C
1814 04-02-2014 17:15:00 5.9 C 88 % 4.07 C
1815 04-02-2014 17:20:00 5.7 C 88 % 3.87 C
1816 04-02-2014 17:25:00 5.7 C 88 % 3.87 C
1817 04-02-2014 17:30:00 5.6 C 89 % 3.93 C
1818 04-02-2014 17:35:00 5.6 C 89 % 3.93 C
1819 04-02-2014 17:40:00 5.7 C 88 % 3.87 C
1820 04-02-2014 17:45:00 5.7 C 87 % 3.71 C
1821 04-02-2014 17:50:00 5.6 C 87 % 3.61 C
1822 04-02-2014 17:55:00 5.4 C 88 % 3.58 C
1823 04-02-2014 18:00:00 5.4 C 88 % 3.58 C
1824 04-02-2014 18:05:00 5.3 C 89 % 3.64 C
1825 04-02-2014 18:10:00 5.4 C 89 % 3.74 C
Sensor: Nr:Datum:Temp:Feuchte:Taupunkt:
Aussen-T/F 1826 04-02-2014 18:15:00 5.3 C 90 % 3.8 C
1827 04-02-2014 18:20:00 5.3 C 90 % 3.8 C
1828 04-02-2014 18:25:00 5.3 C 90 % 3.8 C
1829 04-02-2014 18:30:00 5.3 C 90 % 3.8 C
1830 04-02-2014 18:35:00 5.3 C 90 % 3.8 C
1831 04-02-2014 18:40:00 5.2 C 91 % 3.85 C
1832 04-02-2014 18:45:00 5.2 C 91 % 3.85 C
1833 04-02-2014 18:50:00 5.1 C 90 % 3.6 C
1834 04-02-2014 18:55:00 5.1 C 90 % 3.6 C
1835 04-02-2014 19:00:00 5 C 90 % 3.5 C
1836 04-02-2014 19:05:00 4.9 C 90 % 3.4 C
1837 04-02-2014 19:10:00 4.7 C 89 % 3.05 C
1838 04-02-2014 19:15:00 4.5 C 90 % 3.01 C
1839 04-02-2014 19:20:00 4.2 C 90 % 2.71 C
1840 04-02-2014 19:25:00 4.1 C 91 % 2.77 C
1841 04-02-2014 19:30:00 4.2 C 92 % 3.02 C
1842 04-02-2014 19:35:00 4.3 C 91 % 2.96 C
1843 04-02-2014 19:40:00 4.1 C 91 % 2.77 C
1844 04-02-2014 19:45:00 3.9 C 91 % 2.57 C
1845 04-02-2014 19:50:00 3.8 C 92 % 2.62 C
1846 04-02-2014 19:55:00 3.7 C 92 % 2.52 C
1847 04-02-2014 20:00:00 3.6 C 92 % 2.42 C
1848 04-02-2014 20:05:00 3.5 C 93 % 2.48 C
1849 04-02-2014 20:10:00 3.6 C 94 % 2.73 C
1850 04-02-2014 20:15:00 3.7 C 94 % 2.83 C
Sensor: Nr:Datum:Temp:Feuchte:Taupunkt:
Aussen-T/F 1851 04-02-2014 20:20:00 3.7 C 93 % 2.68 C
1852 04-02-2014 20:25:00 3.6 C 93 % 2.58 C
1853 04-02-2014 20:30:00 3.5 C 93 % 2.48 C
1854 04-02-2014 20:35:00 3.4 C 93 % 2.38 C
1855 04-02-2014 20:40:00 3.4 C 93 % 2.38 C
1856 04-02-2014 20:45:00 3.3 C 94 % 2.43 C
1857 04-02-2014 20:50:00 3.3 C 94 % 2.43 C
1858 04-02-2014 20:55:00 3.2 C 94 % 2.33 C
1859 04-02-2014 21:00:00 3.1 C 94 % 2.23 C
1860 04-02-2014 21:05:00 3.2 C 95 % 2.48 C
1861 04-02-2014 21:10:00 3.3 C 94 % 2.43 C
1862 04-02-2014 21:15:00 3.1 C 94 % 2.23 C
1863 04-02-2014 21:20:00 3 C 94 % 2.13 C
1864 04-02-2014 21:25:00 2.9 C 94 % 2.03 C
1865 04-02-2014 21:30:00 2.8 C 94 % 1.93 C
1866 04-02-2014 21:35:00 2.8 C 94 % 1.93 C
1867 04-02-2014 21:40:00 2.8 C 95 % 2.08 C
1868 04-02-2014 21:45:00 2.8 C 94 % 1.93 C
1869 04-02-2014 21:50:00 2.7 C 94 % 1.83 C
1870 04-02-2014 21:55:00 2.6 C 94 % 1.73 C
1871 04-02-2014 22:00:00 2.7 C 95 % 1.98 C
1872 04-02-2014 22:05:00 2.7 C 95 % 1.98 C
1873 04-02-2014 22:10:00 2.5 C 95 % 1.78 C
1874 04-02-2014 22:15:00 2.5 C 95 % 1.78 C
1875 04-02-2014 22:20:00 2.6 C 95 % 1.88 C
Sensor: Nr:Datum:Temp:Feuchte:Taupunkt:
Aussen-T/F 1876 04-02-2014 22:25:00 2.6 C 95 % 1.88 C
1877 04-02-2014 22:30:00 2.5 C 95 % 1.78 C
1878 04-02-2014 22:35:00 2.5 C 95 % 1.78 C
1879 04-02-2014 22:40:00 2.4 C 95 % 1.68 C
1880 04-02-2014 22:45:00 2.4 C 95 % 1.68 C
1881 04-02-2014 22:50:00 2.4 C 95 % 1.68 C
1882 04-02-2014 22:55:00 2.4 C 95 % 1.68 C
1883 04-02-2014 23:00:00 2.4 C 95 % 1.68 C
1884 04-02-2014 23:05:00 2.3 C 95 % 1.58 C
1885 04-02-2014 23:10:00 2.3 C 95 % 1.58 C
1886 04-02-2014 23:15:00 2.2 C 96 % 1.63 C
1887 04-02-2014 23:20:00 2.3 C 96 % 1.73 C
1888 04-02-2014 23:25:00 2.3 C 96 % 1.73 C
1889 04-02-2014 23:30:00 2.3 C 96 % 1.73 C
1890 04-02-2014 23:35:00 2.2 C 96 % 1.63 C
1891 04-02-2014 23:40:00 2.2 C 96 % 1.63 C
1892 04-02-2014 23:45:00 2.2 C 96 % 1.63 C
1893 04-02-2014 23:50:00 2.3 C 96 % 1.73 C
1894 04-02-2014 23:55:00 2.3 C 96 % 1.73 C
1895 05-02-2014 00:00:00 2.3 C 96 % 1.73 C
1896 05-02-2014 00:05:00 2.3 C 96 % 1.73 C
1897 05-02-2014 00:10:00 2.3 C 96 % 1.73 C
1898 05-02-2014 00:15:00 2.3 C 96 % 1.73 C
1899 05-02-2014 00:20:00 2.3 C 96 % 1.73 C
1900 05-02-2014 00:25:00 2.2 C 96 % 1.63 C
Sensor: Nr:Datum:Temp:Feuchte:Taupunkt:
Aussen-T/F 1901 05-02-2014 00:30:00 2.2 C 96 % 1.63 C
1902 05-02-2014 00:35:00 2.2 C 96 % 1.63 C
1903 05-02-2014 00:40:00 2.2 C 96 % 1.63 C
1904 05-02-2014 00:45:00 2.3 C 96 % 1.73 C
1905 05-02-2014 00:50:00 2.2 C 96 % 1.63 C
1906 05-02-2014 00:55:00 2.2 C 96 % 1.63 C
1907 05-02-2014 01:00:00 2.2 C 96 % 1.63 C
1908 05-02-2014 01:05:00 2.2 C 96 % 1.63 C
1909 05-02-2014 01:10:00 2.1 C 96 % 1.53 C
1910 05-02-2014 01:15:00 2 C 96 % 1.43 C
1911 05-02-2014 01:20:00 2.1 C 96 % 1.53 C
1912 05-02-2014 01:25:00 2.1 C 96 % 1.53 C
1913 05-02-2014 01:30:00 2.3 C 96 % 1.73 C
1914 05-02-2014 01:35:00 2.2 C 96 % 1.63 C
1915 05-02-2014 01:40:00 2.2 C 96 % 1.63 C
1916 05-02-2014 01:45:00 2.2 C 96 % 1.63 C
1917 05-02-2014 01:50:00 2.1 C 96 % 1.53 C
1918 05-02-2014 01:55:00 1.9 C 96 % 1.33 C
1919 05-02-2014 02:00:00 1.9 C 96 % 1.33 C
1920 05-02-2014 02:05:00 1.9 C 96 % 1.33 C
1921 05-02-2014 02:10:00 1.9 C 96 % 1.33 C
1922 05-02-2014 02:15:00 2 C 96 % 1.43 C
1923 05-02-2014 02:20:00 2 C 96 % 1.43 C
1924 05-02-2014 02:25:00 2.2 C 96 % 1.63 C
1925 05-02-2014 02:30:00 2.2 C 96 % 1.63 C
Sensor: Nr:Datum:Temp:Feuchte:Taupunkt:
Aussen-T/F 1926 05-02-2014 02:35:00 2.2 C 96 % 1.63 C
1927 05-02-2014 02:40:00 2.2 C 96 % 1.63 C
1928 05-02-2014 02:45:00 2.1 C 96 % 1.53 C
1929 05-02-2014 02:50:00 2.2 C 96 % 1.63 C
1930 05-02-2014 02:55:00 2.4 C 96 % 1.83 C
1931 05-02-2014 03:00:00 2.4 C 96 % 1.83 C
1932 05-02-2014 03:05:00 2.4 C 95 % 1.68 C
1933 05-02-2014 03:10:00 2.4 C 95 % 1.68 C
1934 05-02-2014 03:15:00 2.3 C 95 % 1.58 C
1935 05-02-2014 03:20:00 2.2 C 95 % 1.48 C
1936 05-02-2014 03:25:00 2.4 C 96 % 1.83 C
1937 05-02-2014 03:30:00 2.7 C 96 % 2.13 C
1938 05-02-2014 03:35:00 3.2 C 95 % 2.48 C
1939 05-02-2014 03:40:00 3.2 C 93 % 2.18 C
1940 05-02-2014 03:45:00 2.9 C 93 % 1.88 C
1941 05-02-2014 03:50:00 2.9 C 94 % 2.03 C
1942 05-02-2014 03:55:00 3 C 94 % 2.13 C
1943 05-02-2014 04:00:00 2.9 C 93 % 1.88 C
1944 05-02-2014 04:05:00 2.8 C 93 % 1.78 C
1945 05-02-2014 04:10:00 2.8 C 93 % 1.78 C
1946 05-02-2014 04:15:00 2.6 C 93 % 1.59 C
1947 05-02-2014 04:20:00 2.8 C 94 % 1.93 C
1948 05-02-2014 04:25:00 3 C 94 % 2.13 C
1949 05-02-2014 04:30:00 3 C 93 % 1.98 C
1950 05-02-2014 04:35:00 2.8 C 93 % 1.78 C
Sensor: Nr:Datum:Temp:Feuchte:Taupunkt:
Aussen-T/F 1951 05-02-2014 04:40:00 2.8 C 93 % 1.78 C
1952 05-02-2014 04:45:00 2.8 C 93 % 1.78 C
1953 05-02-2014 04:50:00 2.7 C 93 % 1.68 C
1954 05-02-2014 04:55:00 2.6 C 93 % 1.59 C
1955 05-02-2014 05:00:00 2.5 C 93 % 1.49 C
1956 05-02-2014 05:05:00 2.4 C 93 % 1.39 C
1957 05-02-2014 05:10:00 2.4 C 94 % 1.54 C
1958 05-02-2014 05:15:00 2.7 C 95 % 1.98 C
1959 05-02-2014 05:20:00 2.9 C 94 % 2.03 C
1960 05-02-2014 05:25:00 3 C 93 % 1.98 C
1961 05-02-2014 05:30:00 3.2 C 93 % 2.18 C
1962 05-02-2014 05:35:00 3.2 C 92 % 2.03 C
1963 05-02-2014 05:40:00 3.4 C 92 % 2.23 C
1964 05-02-2014 05:45:00 3.6 C 91 % 2.27 C
1965 05-02-2014 05:50:00 3.7 C 90 % 2.22 C
1966 05-02-2014 05:55:00 3.7 C 89 % 2.06 C
1967 05-02-2014 06:00:00 3.7 C 89 % 2.06 C
1968 05-02-2014 06:05:00 3.7 C 89 % 2.06 C
1969 05-02-2014 06:10:00 3.7 C 89 % 2.06 C
1970 05-02-2014 06:15:00 3.7 C 89 % 2.06 C
1971 05-02-2014 06:20:00 3.6 C 89 % 1.96 C
1972 05-02-2014 06:25:00 3.6 C 89 % 1.96 C
1973 05-02-2014 06:30:00 3.6 C 89 % 1.96 C
1974 05-02-2014 06:35:00 3.5 C 89 % 1.86 C
1975 05-02-2014 06:40:00 3.5 C 89 % 1.86 C
Sensor: Nr:Datum:Temp:Feuchte:Taupunkt:
Aussen-T/F 1976 05-02-2014 06:45:00 3.4 C 89 % 1.76 C
1977 05-02-2014 06:50:00 3.4 C 89 % 1.76 C
1978 05-02-2014 06:55:00 3.4 C 89 % 1.76 C
1979 05-02-2014 07:00:00 3.4 C 89 % 1.76 C
1980 05-02-2014 07:05:00 3.5 C 89 % 1.86 C
1981 05-02-2014 07:10:00 3.5 C 88 % 1.7 C
1982 05-02-2014 07:15:00 3.4 C 88 % 1.61 C
1983 05-02-2014 07:20:00 3.4 C 88 % 1.61 C
1984 05-02-2014 07:25:00 3.4 C 88 % 1.61 C
1985 05-02-2014 07:30:00 3.4 C 88 % 1.61 C
1986 05-02-2014 07:35:00 3.4 C 88 % 1.61 C
1987 05-02-2014 07:40:00 3.4 C 88 % 1.61 C
1988 05-02-2014 07:45:00 3.5 C 88 % 1.7 C
1989 05-02-2014 07:50:00 3.5 C 88 % 1.7 C
1990 05-02-2014 07:55:00 3.5 C 88 % 1.7 C
1991 05-02-2014 08:00:00 3.5 C 88 % 1.7 C
1992 05-02-2014 08:05:00 3.4 C 88 % 1.61 C
1993 05-02-2014 08:10:00 3.4 C 88 % 1.61 C
1994 05-02-2014 08:15:00 3.3 C 88 % 1.51 C
1995 05-02-2014 08:20:00 3.3 C 88 % 1.51 C
1996 05-02-2014 08:25:00 3.3 C 88 % 1.51 C
1997 05-02-2014 08:30:00 3.3 C 88 % 1.51 C
1998 05-02-2014 08:35:00 3.3 C 88 % 1.51 C
1999 05-02-2014 08:40:00 3.3 C 89 % 1.67 C
2000 05-02-2014 08:45:00 3.3 C 89 % 1.67 C
Sensor: Nr:Datum:Temp:Feuchte:Taupunkt:
Aussen-T/F 2001 05-02-2014 08:50:00 3.3 C 90 % 1.82 C
2002 05-02-2014 08:55:00 3.2 C 91 % 1.88 C
2003 05-02-2014 09:00:00 3.2 C 91 % 1.88 C
2004 05-02-2014 09:05:00 3.2 C 92 % 2.03 C
2005 05-02-2014 09:10:00 3.2 C 92 % 2.03 C
2006 05-02-2014 09:15:00 3.2 C 92 % 2.03 C
2007 05-02-2014 09:20:00 3.2 C 92 % 2.03 C
2008 05-02-2014 09:25:00 3.2 C 93 % 2.18 C
2009 05-02-2014 09:30:00 3.2 C 94 % 2.33 C
2010 05-02-2014 09:35:00 3.2 C 94 % 2.33 C
2011 05-02-2014 09:40:00 3.2 C 94 % 2.33 C
2012 05-02-2014 09:45:00 3.2 C 94 % 2.33 C
2013 05-02-2014 09:50:00 3.2 C 94 % 2.33 C
2014 05-02-2014 09:55:00 3.3 C 94 % 2.43 C
2015 05-02-2014 10:00:00 3.4 C 94 % 2.53 C
2016 05-02-2014 10:05:00 3.5 C 94 % 2.63 C
2017 05-02-2014 10:10:00 3.6 C 94 % 2.73 C
2018 05-02-2014 10:15:00 3.7 C 94 % 2.83 C
2019 05-02-2014 10:20:00 3.8 C 94 % 2.93 C
2020 05-02-2014 10:25:00 3.8 C 94 % 2.93 C
2021 05-02-2014 10:30:00 3.9 C 94 % 3.02 C
2022 05-02-2014 10:35:00 4 C 94 % 3.12 C
2023 05-02-2014 10:40:00 4.1 C 94 % 3.22 C
2024 05-02-2014 10:45:00 4.2 C 95 % 3.47 C
2025 05-02-2014 10:50:00 4.3 C 94 % 3.42 C
Sensor: Nr:Datum:Temp:Feuchte:Taupunkt:
Aussen-T/F 2026 05-02-2014 10:55:00 4.4 C 94 % 3.52 C
2027 05-02-2014 11:00:00 4.5 C 95 % 3.77 C
2028 05-02-2014 11:05:00 4.6 C 94 % 3.72 C
2029 05-02-2014 11:10:00 4.7 C 94 % 3.82 C
2030 05-02-2014 11:15:00 4.8 C 94 % 3.92 C
2031 05-02-2014 11:20:00 4.9 C 93 % 3.87 C
2032 05-02-2014 11:25:00 5 C 94 % 4.12 C
2033 05-02-2014 11:30:00 5.1 C 93 % 4.06 C
2034 05-02-2014 11:35:00 5.1 C 93 % 4.06 C
2035 05-02-2014 11:40:00 5.2 C 92 % 4.01 C
2036 05-02-2014 11:45:00 5.1 C 91 % 3.76 C
2037 05-02-2014 11:50:00 5.1 C 92 % 3.91 C
2038 05-02-2014 11:55:00 5.1 C 92 % 3.91 C
2039 05-02-2014 12:00:00 5.1 C 93 % 4.06 C
2040 05-02-2014 12:05:00 5.2 C 93 % 4.16 C
2041 05-02-2014 12:10:00 5.2 C 92 % 4.01 C
2042 05-02-2014 12:15:00 5.3 C 91 % 3.95 C
2043 05-02-2014 12:20:00 5.4 C 90 % 3.89 C
2044 05-02-2014 12:25:00 5.4 C 89 % 3.74 C
2045 05-02-2014 12:30:00 5.4 C 89 % 3.74 C
2046 05-02-2014 12:35:00 5.6 C 89 % 3.93 C
2047 05-02-2014 12:40:00 5.8 C 89 % 4.13 C
2048 05-02-2014 12:45:00 6 C 89 % 4.33 C
2049 05-02-2014 12:50:00 6.2 C 88 % 4.36 C
2050 05-02-2014 12:55:00 6.4 C 88 % 4.56 C
Sensor: Nr:Datum:Temp:Feuchte:Taupunkt:
Aussen-T/F 2051 05-02-2014 13:00:00 6.6 C 86 % 4.43 C
2052 05-02-2014 13:05:00 6.7 C 85 % 4.36 C
2053 05-02-2014 13:10:00 6.7 C 85 % 4.36 C
2054 05-02-2014 13:15:00 6.7 C 84 % 4.19 C
2055 05-02-2014 13:20:00 6.6 C 85 % 4.26 C
2056 05-02-2014 13:25:00 6.6 C 84 % 4.1 C
2057 05-02-2014 13:30:00 6.6 C 85 % 4.26 C
2058 05-02-2014 13:35:00 6.6 C 85 % 4.26 C
2059 05-02-2014 13:40:00 6.7 C 86 % 4.53 C
2060 05-02-2014 13:45:00 6.7 C 86 % 4.53 C
2061 05-02-2014 13:50:00 6.9 C 85 % 4.56 C
2062 05-02-2014 13:55:00 6.9 C 85 % 4.56 C
2063 05-02-2014 14:00:00 7 C 84 % 4.49 C
2064 05-02-2014 14:05:00 7.1 C 85 % 4.75 C
2065 05-02-2014 14:10:00 7.1 C 84 % 4.58 C
2066 05-02-2014 14:15:00 7.1 C 85 % 4.75 C
2067 05-02-2014 14:20:00 7.1 C 85 % 4.75 C
2068 05-02-2014 14:25:00 7.1 C 83 % 4.41 C
2069 05-02-2014 14:30:00 7 C 84 % 4.49 C
2070 05-02-2014 14:35:00 6.9 C 85 % 4.56 C
2071 05-02-2014 14:40:00 6.9 C 85 % 4.56 C
2072 05-02-2014 14:45:00 6.8 C 86 % 4.63 C
2073 05-02-2014 14:50:00 6.7 C 86 % 4.53 C
2074 05-02-2014 14:55:00 6.6 C 86 % 4.43 C
2075 05-02-2014 15:00:00 6.4 C 87 % 4.4 C
Sensor: Nr:Datum:Temp:Feuchte:Taupunkt:
Aussen-T/F 2076 05-02-2014 15:05:00 6.3 C 87 % 4.3 C
2077 05-02-2014 15:10:00 6.3 C 88 % 4.46 C
2078 05-02-2014 15:15:00 6.3 C 88 % 4.46 C
2079 05-02-2014 15:20:00 6.2 C 88 % 4.36 C
2080 05-02-2014 15:25:00 6.2 C 88 % 4.36 C
2081 05-02-2014 15:30:00 6.2 C 88 % 4.36 C
2082 05-02-2014 15:35:00 6.2 C 88 % 4.36 C
2083 05-02-2014 15:40:00 6.2 C 87 % 4.2 C
2084 05-02-2014 15:45:00 6.2 C 87 % 4.2 C
2085 05-02-2014 15:50:00 6.2 C 88 % 4.36 C
2086 05-02-2014 15:55:00 6.3 C 87 % 4.3 C
2087 05-02-2014 16:00:00 6.4 C 86 % 4.23 C
2088 05-02-2014 16:05:00 6.3 C 86 % 4.14 C
2089 05-02-2014 16:10:00 6.3 C 85 % 3.97 C
2090 05-02-2014 16:15:00 6.1 C 86 % 3.94 C
2091 05-02-2014 16:20:00 6.1 C 86 % 3.94 C
2092 05-02-2014 16:25:00 6 C 86 % 3.84 C
2093 05-02-2014 16:30:00 5.9 C 87 % 3.91 C
2094 05-02-2014 16:35:00 5.9 C 87 % 3.91 C
2095 05-02-2014 16:40:00 5.9 C 87 % 3.91 C
2096 05-02-2014 16:45:00 5.8 C 86 % 3.64 C
2097 05-02-2014 16:50:00 5.8 C 87 % 3.81 C
2098 05-02-2014 16:55:00 5.8 C 87 % 3.81 C
2099 05-02-2014 17:00:00 5.8 C 87 % 3.81 C
2100 05-02-2014 17:05:00 5.8 C 87 % 3.81 C
Sensor: Nr:Datum:Temp:Feuchte:Taupunkt:
Aussen-T/F 2101 05-02-2014 17:10:00 5.8 C 87 % 3.81 C
2102 05-02-2014 17:15:00 5.8 C 87 % 3.81 C
2103 05-02-2014 17:20:00 5.8 C 88 % 3.97 C
2104 05-02-2014 17:25:00 5.8 C 88 % 3.97 C
2105 05-02-2014 17:30:00 5.8 C 88 % 3.97 C
2106 05-02-2014 17:35:00 5.8 C 88 % 3.97 C
2107 05-02-2014 17:40:00 5.7 C 89 % 4.03 C
2108 05-02-2014 17:45:00 5.8 C 89 % 4.13 C
2109 05-02-2014 17:50:00 5.9 C 90 % 4.39 C
2110 05-02-2014 17:55:00 5.9 C 90 % 4.39 C
2111 05-02-2014 18:00:00 6.1 C 89 % 4.43 C
2112 05-02-2014 18:05:00 6.2 C 89 % 4.53 C
2113 05-02-2014 18:10:00 6.2 C 89 % 4.53 C
2114 05-02-2014 18:15:00 6.1 C 90 % 4.59 C
2115 05-02-2014 18:20:00 6 C 91 % 4.65 C
2116 05-02-2014 18:25:00 5.9 C 91 % 4.55 C
2117 05-02-2014 18:30:00 5.9 C 91 % 4.55 C
2118 05-02-2014 18:35:00 5.9 C 90 % 4.39 C
2119 05-02-2014 18:40:00 5.9 C 90 % 4.39 C
2120 05-02-2014 18:45:00 5.8 C 90 % 4.29 C
2121 05-02-2014 18:50:00 5.7 C 90 % 4.19 C
2122 05-02-2014 18:55:00 5.7 C 90 % 4.19 C
2123 05-02-2014 19:00:00 5.6 C 90 % 4.09 C
2124 05-02-2014 19:05:00 5.6 C 91 % 4.25 C
2125 05-02-2014 19:10:00 5.6 C 90 % 4.09 C
Sensor: Nr:Datum:Temp:Feuchte:Taupunkt:
Aussen-T/F 2126 05-02-2014 19:15:00 5.6 C 90 % 4.09 C
2127 05-02-2014 19:20:00 5.8 C 90 % 4.29 C
2128 05-02-2014 19:25:00 5.8 C 90 % 4.29 C
2129 05-02-2014 19:30:00 5.7 C 91 % 4.35 C
2130 05-02-2014 19:35:00 5.6 C 91 % 4.25 C
2131 05-02-2014 19:40:00 5.6 C 91 % 4.25 C
2132 05-02-2014 19:45:00 5.6 C 91 % 4.25 C
2133 05-02-2014 19:50:00 5.6 C 91 % 4.25 C
2134 05-02-2014 19:55:00 5.6 C 91 % 4.25 C
2135 05-02-2014 20:00:00 5.5 C 91 % 4.15 C
2136 05-02-2014 20:05:00 5.4 C 91 % 4.05 C
2137 05-02-2014 20:10:00 5.4 C 91 % 4.05 C
2138 05-02-2014 20:15:00 5.4 C 91 % 4.05 C
2139 05-02-2014 20:20:00 5.5 C 91 % 4.15 C
2140 05-02-2014 20:25:00 5.5 C 92 % 4.31 C
2141 05-02-2014 20:30:00 5.4 C 91 % 4.05 C
2142 05-02-2014 20:35:00 5.3 C 91 % 3.95 C
2143 05-02-2014 20:40:00 5.3 C 92 % 4.11 C
2144 05-02-2014 20:45:00 5.4 C 92 % 4.21 C
2145 05-02-2014 20:50:00 5.5 C 92 % 4.31 C
2146 05-02-2014 20:55:00 5.6 C 91 % 4.25 C
2147 05-02-2014 21:00:00 5.6 C 92 % 4.41 C
2148 05-02-2014 21:05:00 5.8 C 91 % 4.45 C
2149 05-02-2014 21:10:00 5.8 C 91 % 4.45 C
2150 05-02-2014 21:15:00 5.9 C 91 % 4.55 C
Sensor: Nr:Datum:Temp:Feuchte:Taupunkt:
Aussen-T/F 2151 05-02-2014 21:20:00 6.1 C 89 % 4.43 C
2152 05-02-2014 21:25:00 6.4 C 86 % 4.23 C
2153 05-02-2014 21:30:00 6.8 C 85 % 4.46 C
2154 05-02-2014 21:35:00 6.6 C 86 % 4.43 C
2155 05-02-2014 21:40:00 6.6 C 85 % 4.26 C
2156 05-02-2014 21:45:00 7 C 83 % 4.32 C
2157 05-02-2014 21:50:00 7.3 C 81 % 4.26 C
2158 05-02-2014 21:55:00 7.4 C 82 % 4.53 C
2159 05-02-2014 22:00:00 7.3 C 81 % 4.26 C
2160 05-02-2014 22:05:00 7.4 C 81 % 4.36 C
2161 05-02-2014 22:10:00 7.6 C 79 % 4.2 C
2162 05-02-2014 22:15:00 7.6 C 80 % 4.38 C
2163 05-02-2014 22:20:00 7.7 C 79 % 4.3 C
2164 05-02-2014 22:25:00 7.9 C 78 % 4.31 C
2165 05-02-2014 22:30:00 8 C 78 % 4.41 C
2166 05-02-2014 22:35:00 7.9 C 78 % 4.31 C
2167 05-02-2014 22:40:00 7.9 C 78 % 4.31 C
2168 05-02-2014 22:45:00 8.1 C 78 % 4.5 C
2169 05-02-2014 22:50:00 8.1 C 78 % 4.5 C
2170 05-02-2014 22:55:00 8.1 C 78 % 4.5 C
2171 05-02-2014 23:00:00 8.1 C 78 % 4.5 C
2172 05-02-2014 23:05:00 8 C 78 % 4.41 C
2173 05-02-2014 23:10:00 8 C 78 % 4.41 C
2174 05-02-2014 23:15:00 7.9 C 79 % 4.49 C
2175 05-02-2014 23:20:00 7.8 C 79 % 4.39 C
Sensor: Nr:Datum:Temp:Feuchte:Taupunkt:
Aussen-T/F 2176 05-02-2014 23:25:00 7.8 C 79 % 4.39 C
2177 05-02-2014 23:30:00 7.8 C 79 % 4.39 C
2178 05-02-2014 23:35:00 7.8 C 79 % 4.39 C
2179 05-02-2014 23:40:00 7.8 C 80 % 4.57 C
2180 05-02-2014 23:45:00 7.8 C 80 % 4.57 C
2181 05-02-2014 23:50:00 7.8 C 80 % 4.57 C
2182 05-02-2014 23:55:00 7.8 C 80 % 4.57 C
2183 06-02-2014 00:00:00 7.8 C 80 % 4.57 C
2184 06-02-2014 00:05:00 7.8 C 80 % 4.57 C
2185 06-02-2014 00:10:00 7.7 C 81 % 4.65 C
2186 06-02-2014 00:15:00 7.8 C 81 % 4.75 C
2187 06-02-2014 00:20:00 7.7 C 81 % 4.65 C
2188 06-02-2014 00:25:00 7.7 C 81 % 4.65 C
2189 06-02-2014 00:30:00 7.7 C 82 % 4.83 C
2190 06-02-2014 00:35:00 7.7 C 82 % 4.83 C
2191 06-02-2014 00:40:00 7.7 C 82 % 4.83 C
2192 06-02-2014 00:45:00 7.7 C 82 % 4.83 C
2193 06-02-2014 00:50:00 7.7 C 83 % 5 C
2194 06-02-2014 00:55:00 7.7 C 83 % 5 C
2195 06-02-2014 01:00:00 7.7 C 83 % 5 C
2196 06-02-2014 01:05:00 7.7 C 83 % 5 C
2197 06-02-2014 01:10:00 7.7 C 83 % 5 C
2198 06-02-2014 01:15:00 7.8 C 83 % 5.1 C
2199 06-02-2014 01:20:00 7.8 C 83 % 5.1 C
2200 06-02-2014 01:25:00 7.8 C 83 % 5.1 C
Sensor: Nr:Datum:Temp:Feuchte:Taupunkt:
Aussen-T/F 2201 06-02-2014 01:30:00 7.8 C 83 % 5.1 C
2202 06-02-2014 01:35:00 7.8 C 83 % 5.1 C
2203 06-02-2014 01:40:00 7.8 C 83 % 5.1 C
2204 06-02-2014 01:45:00 7.8 C 83 % 5.1 C
2205 06-02-2014 01:50:00 7.9 C 83 % 5.2 C
2206 06-02-2014 01:55:00 7.9 C 83 % 5.2 C
2207 06-02-2014 02:00:00 7.9 C 83 % 5.2 C
2208 06-02-2014 02:05:00 8.1 C 83 % 5.39 C
2209 06-02-2014 02:10:00 8.1 C 82 % 5.22 C
2210 06-02-2014 02:15:00 8.1 C 82 % 5.22 C
2211 06-02-2014 02:20:00 8.2 C 82 % 5.32 C
2212 06-02-2014 02:25:00 8.2 C 82 % 5.32 C
2213 06-02-2014 02:30:00 8.2 C 82 % 5.32 C
2214 06-02-2014 02:35:00 8.1 C 83 % 5.39 C
2215 06-02-2014 02:40:00 8.1 C 83 % 5.39 C
2216 06-02-2014 02:45:00 8.1 C 82 % 5.22 C
2217 06-02-2014 02:50:00 8.2 C 82 % 5.32 C
2218 06-02-2014 02:55:00 8.2 C 82 % 5.32 C
2219 06-02-2014 03:00:00 8.2 C 82 % 5.32 C
2220 06-02-2014 03:05:00 8.2 C 82 % 5.32 C
2221 06-02-2014 03:10:00 8.3 C 82 % 5.41 C
2222 06-02-2014 03:15:00 8.3 C 82 % 5.41 C
2223 06-02-2014 03:20:00 8.3 C 81 % 5.24 C
2224 06-02-2014 03:25:00 8.3 C 81 % 5.24 C
2225 06-02-2014 03:30:00 8.3 C 81 % 5.24 C
Sensor: Nr:Datum:Temp:Feuchte:Taupunkt:
Aussen-T/F 2226 06-02-2014 03:35:00 8.3 C 81 % 5.24 C
2227 06-02-2014 03:40:00 8.3 C 81 % 5.24 C
2228 06-02-2014 03:45:00 8.3 C 81 % 5.24 C
2229 06-02-2014 03:50:00 8.3 C 81 % 5.24 C
2230 06-02-2014 03:55:00 8.4 C 80 % 5.16 C
2231 06-02-2014 04:00:00 8.3 C 80 % 5.06 C
2232 06-02-2014 04:05:00 8.3 C 81 % 5.24 C
2233 06-02-2014 04:10:00 8.3 C 82 % 5.41 C
2234 06-02-2014 04:15:00 8.3 C 82 % 5.41 C
2235 06-02-2014 04:20:00 8.2 C 82 % 5.32 C
2236 06-02-2014 04:25:00 8.2 C 82 % 5.32 C
2237 06-02-2014 04:30:00 8.2 C 81 % 5.14 C
2238 06-02-2014 04:35:00 8.3 C 81 % 5.24 C
2239 06-02-2014 04:40:00 8.2 C 81 % 5.14 C
2240 06-02-2014 04:45:00 8.3 C 81 % 5.24 C
2241 06-02-2014 04:50:00 8.3 C 81 % 5.24 C
2242 06-02-2014 04:55:00 8.3 C 82 % 5.41 C
2243 06-02-2014 05:00:00 8.2 C 82 % 5.32 C
2244 06-02-2014 05:05:00 8.1 C 82 % 5.22 C
2245 06-02-2014 05:10:00 8.2 C 82 % 5.32 C
2246 06-02-2014 05:15:00 8.1 C 81 % 5.04 C
2247 06-02-2014 05:20:00 8.1 C 81 % 5.04 C
2248 06-02-2014 05:25:00 8 C 81 % 4.94 C
2249 06-02-2014 05:30:00 8.1 C 81 % 5.04 C
2250 06-02-2014 05:35:00 8.1 C 81 % 5.04 C
Sensor: Nr:Datum:Temp:Feuchte:Taupunkt:
Aussen-T/F 2251 06-02-2014 05:40:00 8.1 C 81 % 5.04 C
2252 06-02-2014 05:45:00 8 C 81 % 4.94 C
2253 06-02-2014 05:50:00 7.9 C 80 % 4.67 C
2254 06-02-2014 05:55:00 7.8 C 80 % 4.57 C
2255 06-02-2014 06:00:00 7.8 C 80 % 4.57 C
2256 06-02-2014 06:05:00 7.8 C 80 % 4.57 C
2257 06-02-2014 06:10:00 7.8 C 80 % 4.57 C
2258 06-02-2014 06:15:00 7.8 C 80 % 4.57 C
2259 06-02-2014 06:20:00 7.8 C 79 % 4.39 C
2260 06-02-2014 06:25:00 7.8 C 79 % 4.39 C
2261 06-02-2014 06:30:00 7.7 C 79 % 4.3 C
2262 06-02-2014 06:35:00 7.7 C 80 % 4.47 C
2263 06-02-2014 06:40:00 7.5 C 80 % 4.28 C
2264 06-02-2014 06:45:00 7.4 C 80 % 4.18 C
2265 06-02-2014 06:50:00 7.5 C 80 % 4.28 C
2266 06-02-2014 06:55:00 7.4 C 80 % 4.18 C
2267 06-02-2014 07:00:00 7.2 C 81 % 4.16 C
2268 06-02-2014 07:05:00 7.1 C 81 % 4.07 C
2269 06-02-2014 07:10:00 7.1 C 81 % 4.07 C
2270 06-02-2014 07:15:00 7.1 C 81 % 4.07 C
2271 06-02-2014 07:20:00 6.9 C 82 % 4.05 C
2272 06-02-2014 07:25:00 6.9 C 82 % 4.05 C
2273 06-02-2014 07:30:00 7.1 C 81 % 4.07 C
2274 06-02-2014 07:35:00 7.1 C 81 % 4.07 C
2275 06-02-2014 07:40:00 7.1 C 80 % 3.89 C
Sensor: Nr:Datum:Temp:Feuchte:Taupunkt:
Aussen-T/F 2276 06-02-2014 07:45:00 7.1 C 80 % 3.89 C
2277 06-02-2014 07:50:00 6.9 C 80 % 3.7 C
2278 06-02-2014 07:55:00 7 C 80 % 3.79 C
2279 06-02-2014 08:00:00 7 C 80 % 3.79 C
2280 06-02-2014 08:05:00 6.7 C 80 % 3.5 C
2281 06-02-2014 08:10:00 6.9 C 80 % 3.7 C
2282 06-02-2014 08:15:00 6.8 C 80 % 3.6 C
2283 06-02-2014 08:20:00 6.8 C 80 % 3.6 C
2284 06-02-2014 08:25:00 6.7 C 81 % 3.68 C
2285 06-02-2014 08:30:00 6.8 C 81 % 3.77 C
2286 06-02-2014 08:35:00 6.7 C 82 % 3.85 C
2287 06-02-2014 08:40:00 6.4 C 83 % 3.73 C
2288 06-02-2014 08:45:00 6.4 C 84 % 3.9 C
2289 06-02-2014 08:50:00 6.7 C 82 % 3.85 C
2290 06-02-2014 08:55:00 6.9 C 81 % 3.87 C
2291 06-02-2014 09:00:00 7.2 C 81 % 4.16 C
2292 06-02-2014 09:05:00 7.3 C 81 % 4.26 C
2293 06-02-2014 09:10:00 7.4 C 80 % 4.18 C
2294 06-02-2014 09:15:00 7.6 C 79 % 4.2 C
2295 06-02-2014 09:20:00 7.7 C 79 % 4.3 C
2296 06-02-2014 09:25:00 7.8 C 77 % 4.03 C
2297 06-02-2014 09:30:00 8 C 77 % 4.22 C
2298 06-02-2014 09:35:00 8.1 C 77 % 4.32 C
2299 06-02-2014 09:40:00 8.1 C 77 % 4.32 C
2300 06-02-2014 09:45:00 8.1 C 76 % 4.13 C
Sensor: Nr:Datum:Temp:Feuchte:Taupunkt:
Aussen-T/F 2301 06-02-2014 09:50:00 8.1 C 77 % 4.32 C
2302 06-02-2014 09:55:00 8.1 C 77 % 4.32 C
2303 06-02-2014 10:00:00 8.1 C 77 % 4.32 C
2304 06-02-2014 10:05:00 8.2 C 77 % 4.42 C
2305 06-02-2014 10:10:00 8.2 C 77 % 4.42 C
2306 06-02-2014 10:15:00 8.3 C 77 % 4.51 C
2307 06-02-2014 10:20:00 8.3 C 77 % 4.51 C
2308 06-02-2014 10:25:00 8.4 C 78 % 4.79 C
2309 06-02-2014 10:30:00 8.5 C 77 % 4.71 C
2310 06-02-2014 10:35:00 8.6 C 76 % 4.62 C
2311 06-02-2014 10:40:00 8.6 C 76 % 4.62 C
2312 06-02-2014 10:45:00 8.7 C 76 % 4.71 C
2313 06-02-2014 10:50:00 8.7 C 76 % 4.71 C
2314 06-02-2014 10:55:00 8.7 C 75 % 4.52 C
2315 06-02-2014 11:00:00 8.8 C 75 % 4.62 C
2316 06-02-2014 11:05:00 8.8 C 75 % 4.62 C
2317 06-02-2014 11:10:00 8.8 C 75 % 4.62 C
2318 06-02-2014 11:15:00 8.8 C 74 % 4.43 C
2319 06-02-2014 11:20:00 8.9 C 75 % 4.72 C
2320 06-02-2014 11:25:00 8.9 C 75 % 4.72 C
2321 06-02-2014 11:30:00 9 C 74 % 4.62 C
2322 06-02-2014 11:35:00 8.9 C 74 % 4.53 C
2323 06-02-2014 11:40:00 8.8 C 74 % 4.43 C
2324 06-02-2014 11:45:00 8.8 C 74 % 4.43 C
2325 06-02-2014 11:50:00 8.8 C 75 % 4.62 C
Sensor: Nr:Datum:Temp:Feuchte:Taupunkt:
Aussen-T/F 2326 06-02-2014 11:55:00 8.9 C 75 % 4.72 C
2327 06-02-2014 12:00:00 8.9 C 75 % 4.72 C
2328 06-02-2014 12:05:00 9 C 74 % 4.62 C
2329 06-02-2014 12:10:00 9 C 74 % 4.62 C
2330 06-02-2014 12:15:00 9 C 73 % 4.43 C
2331 06-02-2014 12:20:00 9 C 73 % 4.43 C
2332 06-02-2014 12:25:00 9.1 C 72 % 4.33 C
2333 06-02-2014 12:30:00 9.2 C 72 % 4.42 C
2334 06-02-2014 12:35:00 9.3 C 71 % 4.32 C
2335 06-02-2014 12:40:00 9.5 C 71 % 4.51 C
2336 06-02-2014 12:45:00 9.6 C 71 % 4.61 C
2337 06-02-2014 12:50:00 9.6 C 70 % 4.41 C
2338 06-02-2014 12:55:00 9.7 C 72 % 4.9 C
2339 06-02-2014 13:00:00 9.7 C 70 % 4.5 C
2340 06-02-2014 13:05:00 9.7 C 70 % 4.5 C
2341 06-02-2014 13:10:00 9.8 C 71 % 4.8 C
2342 06-02-2014 13:15:00 9.8 C 71 % 4.8 C
2343 06-02-2014 13:20:00 9.9 C 70 % 4.69 C
2344 06-02-2014 13:25:00 9.9 C 68 % 4.28 C
2345 06-02-2014 13:30:00 9.9 C 67 % 4.07 C
2346 06-02-2014 13:35:00 9.9 C 67 % 4.07 C
2347 06-02-2014 13:40:00 10.1 C 67 % 4.26 C
2348 06-02-2014 13:45:00 10.1 C 67 % 4.26 C
2349 06-02-2014 13:50:00 10.2 C 67 % 4.36 C
2350 06-02-2014 13:55:00 10.2 C 66 % 4.14 C
Sensor: Nr:Datum:Temp:Feuchte:Taupunkt:
Aussen-T/F 2351 06-02-2014 14:00:00 10.2 C 66 % 4.14 C
2352 06-02-2014 14:05:00 10.2 C 67 % 4.36 C
2353 06-02-2014 14:10:00 10.3 C 67 % 4.45 C
2354 06-02-2014 14:15:00 10.3 C 67 % 4.45 C
2355 06-02-2014 14:20:00 10.3 C 69 % 4.87 C
2356 06-02-2014 14:25:00 10.3 C 68 % 4.66 C
2357 06-02-2014 14:30:00 10.4 C 67 % 4.55 C
2358 06-02-2014 14:35:00 10.4 C 68 % 4.76 C
2359 06-02-2014 14:40:00 10.6 C 68 % 4.95 C
2360 06-02-2014 14:45:00 10.7 C 66 % 4.62 C
2361 06-02-2014 14:50:00 10.7 C 65 % 4.4 C
2362 06-02-2014 14:55:00 10.6 C 65 % 4.3 C
2363 06-02-2014 15:00:00 10.6 C 65 % 4.3 C
2364 06-02-2014 15:05:00 10.4 C 65 % 4.11 C
2365 06-02-2014 15:10:00 10.4 C 65 % 4.11 C
2366 06-02-2014 15:15:00 10.4 C 64 % 3.89 C
2367 06-02-2014 15:20:00 10.3 C 65 % 4.02 C
2368 06-02-2014 15:25:00 10.3 C 65 % 4.02 C
2369 06-02-2014 15:30:00 10.2 C 66 % 4.14 C
2370 06-02-2014 15:35:00 10.2 C 67 % 4.36 C
2371 06-02-2014 15:40:00 10.1 C 67 % 4.26 C
2372 06-02-2014 15:45:00 9.9 C 67 % 4.07 C
2373 06-02-2014 15:50:00 9.9 C 69 % 4.49 C
2374 06-02-2014 15:55:00 9.8 C 71 % 4.8 C
2375 06-02-2014 16:00:00 9.7 C 68 % 4.09 C
Sensor: Nr:Datum:Temp:Feuchte:Taupunkt:
Aussen-T/F 2376 06-02-2014 16:05:00 9.7 C 68 % 4.09 C
2377 06-02-2014 16:10:00 9.7 C 69 % 4.3 C
2378 06-02-2014 16:15:00 9.6 C 70 % 4.41 C
2379 06-02-2014 16:20:00 9.3 C 74 % 4.91 C
2380 06-02-2014 16:25:00 9.1 C 73 % 4.52 C
2381 06-02-2014 16:30:00 8.9 C 75 % 4.72 C
2382 06-02-2014 16:35:00 8.7 C 77 % 4.9 C
2383 06-02-2014 16:40:00 8.6 C 78 % 4.99 C
2384 06-02-2014 16:45:00 8.6 C 77 % 4.8 C
2385 06-02-2014 16:50:00 8.4 C 77 % 4.61 C
2386 06-02-2014 16:55:00 8.5 C 76 % 4.52 C
2387 06-02-2014 17:00:00 8.6 C 78 % 4.99 C
2388 06-02-2014 17:05:00 8.6 C 74 % 4.24 C
2389 06-02-2014 17:10:00 8.7 C 76 % 4.71 C
2390 06-02-2014 17:15:00 8.6 C 75 % 4.43 C
2391 06-02-2014 17:20:00 8.6 C 78 % 4.99 C
2392 06-02-2014 17:25:00 8.5 C 74 % 4.14 C
2393 06-02-2014 17:30:00 8.7 C 74 % 4.33 C
2394 06-02-2014 17:35:00 8.8 C 73 % 4.24 C
2395 06-02-2014 17:40:00 8.8 C 73 % 4.24 C
2396 06-02-2014 17:45:00 8.8 C 75 % 4.62 C
2397 06-02-2014 17:50:00 8.7 C 76 % 4.71 C
2398 06-02-2014 17:55:00 8.6 C 74 % 4.24 C
2399 06-02-2014 18:00:00 8.6 C 77 % 4.8 C
2400 06-02-2014 18:05:00 8.4 C 78 % 4.79 C
Sensor: Nr:Datum:Temp:Feuchte:Taupunkt:
Aussen-T/F 2401 06-02-2014 18:10:00 8.2 C 78 % 4.6 C
2402 06-02-2014 18:15:00 8.2 C 78 % 4.6 C
2403 06-02-2014 18:20:00 8.2 C 79 % 4.78 C
2404 06-02-2014 18:25:00 8.3 C 77 % 4.51 C
2405 06-02-2014 18:30:00 8.4 C 78 % 4.79 C
2406 06-02-2014 18:35:00 8.3 C 79 % 4.88 C
2407 06-02-2014 18:40:00 8.3 C 77 % 4.51 C
2408 06-02-2014 18:45:00 8.6 C 74 % 4.24 C
2409 06-02-2014 18:50:00 8.7 C 75 % 4.52 C
2410 06-02-2014 18:55:00 8.7 C 74 % 4.33 C
2411 06-02-2014 19:00:00 8.8 C 73 % 4.24 C
2412 06-02-2014 19:05:00 8.9 C 73 % 4.33 C
2413 06-02-2014 19:10:00 9.1 C 73 % 4.52 C
2414 06-02-2014 19:15:00 9 C 73 % 4.43 C
2415 06-02-2014 19:20:00 8.9 C 72 % 4.14 C
2416 06-02-2014 19:25:00 8.9 C 73 % 4.33 C
2417 06-02-2014 19:30:00 8.8 C 76 % 4.81 C
2418 06-02-2014 19:35:00 8.7 C 75 % 4.52 C
2419 06-02-2014 19:40:00 8.6 C 74 % 4.24 C
2420 06-02-2014 19:45:00 8.6 C 76 % 4.62 C
2421 06-02-2014 19:50:00 8.4 C 79 % 4.98 C
2422 06-02-2014 19:55:00 8.3 C 77 % 4.51 C
2423 06-02-2014 20:00:00 8.3 C 78 % 4.7 C
2424 06-02-2014 20:05:00 8.3 C 79 % 4.88 C
2425 06-02-2014 20:10:00 8.2 C 80 % 4.96 C
Sensor: Nr:Datum:Temp:Feuchte:Taupunkt:
Aussen-T/F 2426 06-02-2014 20:15:00 8.1 C 81 % 5.04 C
2427 06-02-2014 20:20:00 8.1 C 80 % 4.86 C
2428 06-02-2014 20:25:00 8.1 C 78 % 4.5 C
2429 06-02-2014 20:30:00 8.1 C 81 % 5.04 C
2430 06-02-2014 20:35:00 7.9 C 81 % 4.85 C
2431 06-02-2014 20:40:00 7.8 C 80 % 4.57 C
2432 06-02-2014 20:45:00 7.9 C 76 % 3.94 C
2433 06-02-2014 20:50:00 7.9 C 79 % 4.49 C
2434 06-02-2014 20:55:00 7.9 C 78 % 4.31 C
2435 06-02-2014 21:00:00 7.8 C 79 % 4.39 C
2436 06-02-2014 21:05:00 7.9 C 76 % 3.94 C
2437 06-02-2014 21:10:00 8.2 C 74 % 3.85 C
2438 06-02-2014 21:15:00 8.3 C 74 % 3.95 C
2439 06-02-2014 21:20:00 8.4 C 72 % 3.65 C
2440 06-02-2014 21:25:00 8.6 C 73 % 4.04 C
2441 06-02-2014 21:30:00 8.6 C 71 % 3.65 C
2442 06-02-2014 21:35:00 8.8 C 70 % 3.64 C
2443 06-02-2014 21:40:00 8.8 C 71 % 3.84 C
2444 06-02-2014 21:45:00 8.7 C 72 % 3.94 C
2445 06-02-2014 21:50:00 8.7 C 71 % 3.74 C
2446 06-02-2014 21:55:00 8.6 C 70 % 3.45 C
2447 06-02-2014 22:00:00 8.7 C 71 % 3.74 C
2448 06-02-2014 22:05:00 8.6 C 71 % 3.65 C
2449 06-02-2014 22:10:00 8.4 C 73 % 3.85 C
2450 06-02-2014 22:15:00 8.3 C 72 % 3.56 C
Sensor: Nr:Datum:Temp:Feuchte:Taupunkt:
Aussen-T/F 2451 06-02-2014 22:20:00 8.2 C 74 % 3.85 C
2452 06-02-2014 22:25:00 8 C 75 % 3.85 C
2453 06-02-2014 22:30:00 7.7 C 76 % 3.75 C
2454 06-02-2014 22:35:00 7.6 C 76 % 3.65 C
2455 06-02-2014 22:40:00 7.7 C 75 % 3.56 C
2456 06-02-2014 22:45:00 7.7 C 76 % 3.75 C
2457 06-02-2014 22:50:00 7.8 C 74 % 3.46 C
2458 06-02-2014 22:55:00 7.8 C 75 % 3.65 C
2459 06-02-2014 23:00:00 8.1 C 72 % 3.37 C
2460 06-02-2014 23:05:00 8.3 C 72 % 3.56 C
2461 06-02-2014 23:10:00 8.4 C 73 % 3.85 C
2462 06-02-2014 23:15:00 8.4 C 72 % 3.65 C
2463 06-02-2014 23:20:00 8.4 C 72 % 3.65 C
2464 06-02-2014 23:25:00 8.3 C 75 % 4.14 C
2465 06-02-2014 23:30:00 8.2 C 76 % 4.23 C
2466 06-02-2014 23:35:00 8.2 C 76 % 4.23 C
2467 06-02-2014 23:40:00 8.2 C 84 % 5.66 C
2468 06-02-2014 23:45:00 8 C 84 % 5.47 C
2469 06-02-2014 23:50:00 7.8 C 85 % 5.44 C
2470 06-02-2014 23:55:00 7.6 C 86 % 5.41 C
2471 07-02-2014 00:00:00 7.5 C 86 % 5.31 C
2472 07-02-2014 00:05:00 7.6 C 86 % 5.41 C
2473 07-02-2014 00:10:00 7.6 C 85 % 5.24 C
2474 07-02-2014 00:15:00 7.7 C 84 % 5.17 C
2475 07-02-2014 00:20:00 7.8 C 85 % 5.44 C
Sensor: Nr:Datum:Temp:Feuchte:Taupunkt:
Aussen-T/F 2476 07-02-2014 00:25:00 7.8 C 85 % 5.44 C
2477 07-02-2014 00:30:00 7.7 C 85 % 5.34 C
2478 07-02-2014 00:35:00 7.6 C 86 % 5.41 C
2479 07-02-2014 00:40:00 7.6 C 85 % 5.24 C
2480 07-02-2014 00:45:00 7.6 C 86 % 5.41 C
2481 07-02-2014 00:50:00 7.6 C 86 % 5.41 C
2482 07-02-2014 00:55:00 7.6 C 86 % 5.41 C
2483 07-02-2014 01:00:00 7.7 C 84 % 5.17 C
2484 07-02-2014 01:05:00 7.9 C 82 % 5.02 C
2485 07-02-2014 01:10:00 7.9 C 84 % 5.37 C
2486 07-02-2014 01:15:00 7.9 C 85 % 5.54 C
2487 07-02-2014 01:20:00 7.8 C 84 % 5.27 C
2488 07-02-2014 01:25:00 7.7 C 85 % 5.34 C
2489 07-02-2014 01:30:00 7.7 C 86 % 5.51 C
2490 07-02-2014 01:35:00 7.7 C 85 % 5.34 C
2491 07-02-2014 01:40:00 7.7 C 85 % 5.34 C
2492 07-02-2014 01:45:00 7.8 C 86 % 5.61 C
2493 07-02-2014 01:50:00 7.7 C 86 % 5.51 C
2494 07-02-2014 01:55:00 7.7 C 86 % 5.51 C
2495 07-02-2014 02:00:00 7.7 C 86 % 5.51 C
2496 07-02-2014 02:05:00 7.6 C 86 % 5.41 C
2497 07-02-2014 02:10:00 7.7 C 86 % 5.51 C
2498 07-02-2014 02:15:00 7.6 C 86 % 5.41 C
2499 07-02-2014 02:20:00 7.7 C 85 % 5.34 C
2500 07-02-2014 02:25:00 7.7 C 84 % 5.17 C
Sensor: Nr:Datum:Temp:Feuchte:Taupunkt:
Aussen-T/F 2501 07-02-2014 02:30:00 7.8 C 84 % 5.27 C
2502 07-02-2014 02:35:00 8.5 C 74 % 4.14 C
2503 07-02-2014 02:40:00 8.7 C 79 % 5.27 C
2504 07-02-2014 02:45:00 8.6 C 78 % 4.99 C
2505 07-02-2014 02:50:00 8.4 C 80 % 5.16 C
2506 07-02-2014 02:55:00 8.3 C 80 % 5.06 C
2507 07-02-2014 03:00:00 8.3 C 79 % 4.88 C
2508 07-02-2014 03:05:00 8.3 C 82 % 5.41 C
2509 07-02-2014 03:10:00 8.2 C 83 % 5.49 C
2510 07-02-2014 03:15:00 8.2 C 76 % 4.23 C
2511 07-02-2014 03:20:00 8.3 C 80 % 5.06 C
2512 07-02-2014 03:25:00 8.3 C 78 % 4.7 C
2513 07-02-2014 03:30:00 8.4 C 80 % 5.16 C
2514 07-02-2014 03:35:00 8.3 C 80 % 5.06 C
2515 07-02-2014 03:40:00 8.2 C 85 % 5.83 C
2516 07-02-2014 03:45:00 8.1 C 86 % 5.9 C
2517 07-02-2014 03:50:00 7.9 C 85 % 5.54 C
2518 07-02-2014 03:55:00 7.9 C 86 % 5.71 C
2519 07-02-2014 04:00:00 8.1 C 85 % 5.73 C
2520 07-02-2014 04:05:00 8 C 82 % 5.12 C
2521 07-02-2014 04:10:00 8.1 C 84 % 5.56 C
2522 07-02-2014 04:15:00 7.9 C 84 % 5.37 C
2523 07-02-2014 04:20:00 7.8 C 85 % 5.44 C
2524 07-02-2014 04:25:00 7.7 C 86 % 5.51 C
2525 07-02-2014 04:30:00 7.7 C 86 % 5.51 C
Sensor: Nr:Datum:Temp:Feuchte:Taupunkt:
Aussen-T/F 2526 07-02-2014 04:35:00 7.7 C 84 % 5.17 C
2527 07-02-2014 04:40:00 7.8 C 86 % 5.61 C
2528 07-02-2014 04:45:00 7.8 C 86 % 5.61 C
2529 07-02-2014 04:50:00 7.7 C 86 % 5.51 C
2530 07-02-2014 04:55:00 7.7 C 87 % 5.68 C
2531 07-02-2014 05:00:00 7.5 C 87 % 5.48 C
2532 07-02-2014 05:05:00 7.4 C 88 % 5.55 C
2533 07-02-2014 05:10:00 7.4 C 87 % 5.38 C
2534 07-02-2014 05:15:00 7.4 C 87 % 5.38 C
2535 07-02-2014 05:20:00 7.4 C 86 % 5.22 C
2536 07-02-2014 05:25:00 7.6 C 86 % 5.41 C
2537 07-02-2014 05:30:00 7.6 C 86 % 5.41 C
2538 07-02-2014 05:35:00 7.7 C 85 % 5.34 C
2539 07-02-2014 05:40:00 7.9 C 84 % 5.37 C
2540 07-02-2014 05:45:00 8.1 C 84 % 5.56 C
2541 07-02-2014 05:50:00 8.2 C 84 % 5.66 C
2542 07-02-2014 05:55:00 8.4 C 86 % 6.2 C
2543 07-02-2014 06:00:00 8.4 C 88 % 6.53 C
2544 07-02-2014 06:05:00 8.4 C 86 % 6.2 C
2545 07-02-2014 06:10:00 8.8 C 85 % 6.42 C
2546 07-02-2014 06:15:00 8.9 C 85 % 6.52 C
2547 07-02-2014 06:20:00 8.9 C 85 % 6.52 C
2548 07-02-2014 06:25:00 8.9 C 83 % 6.17 C
2549 07-02-2014 06:30:00 9.3 C 82 % 6.39 C
2550 07-02-2014 06:35:00 9.5 C 81 % 6.41 C
Sensor: Nr:Datum:Temp:Feuchte:Taupunkt:
Aussen-T/F 2551 07-02-2014 06:40:00 9.4 C 81 % 6.31 C
2552 07-02-2014 06:45:00 9.4 C 80 % 6.13 C
2553 07-02-2014 06:50:00 9.8 C 79 % 6.34 C
2554 07-02-2014 06:55:00 9.9 C 78 % 6.25 C
2555 07-02-2014 07:00:00 10.4 C 77 % 6.55 C
2556 07-02-2014 07:05:00 10.6 C 76 % 6.55 C
2557 07-02-2014 07:10:00 10.7 C 76 % 6.65 C
2558 07-02-2014 07:15:00 10.5 C 77 % 6.64 C
2559 07-02-2014 07:20:00 10.4 C 77 % 6.55 C
2560 07-02-2014 07:25:00 10.4 C 76 % 6.36 C
2561 07-02-2014 07:30:00 10.8 C 75 % 6.55 C
2562 07-02-2014 07:35:00 10.8 C 75 % 6.55 C
2563 07-02-2014 07:40:00 10.8 C 75 % 6.55 C
2564 07-02-2014 07:45:00 10.8 C 76 % 6.75 C
2565 07-02-2014 07:50:00 10.7 C 76 % 6.65 C
2566 07-02-2014 07:55:00 10.7 C 76 % 6.65 C
2567 07-02-2014 08:00:00 11.3 C 74 % 6.84 C
2568 07-02-2014 08:05:00 11.4 C 73 % 6.74 C
2569 07-02-2014 08:10:00 11.4 C 73 % 6.74 C
2570 07-02-2014 08:15:00 11.4 C 73 % 6.74 C
2571 07-02-2014 08:20:00 11.3 C 73 % 6.64 C
2572 07-02-2014 08:25:00 11.3 C 74 % 6.84 C
2573 07-02-2014 08:30:00 11.3 C 73 % 6.64 C
2574 07-02-2014 08:35:00 11.3 C 73 % 6.64 C
2575 07-02-2014 08:40:00 11.4 C 72 % 6.54 C
Sensor: Nr:Datum:Temp:Feuchte:Taupunkt:
Aussen-T/F 2576 07-02-2014 08:45:00 11.4 C 72 % 6.54 C
2577 07-02-2014 08:50:00 11.4 C 73 % 6.74 C
2578 07-02-2014 08:55:00 11.4 C 72 % 6.54 C
2579 07-02-2014 09:00:00 11.6 C 72 % 6.73 C
2580 07-02-2014 09:05:00 11.7 C 71 % 6.62 C
2581 07-02-2014 09:10:00 11.8 C 70 % 6.51 C
2582 07-02-2014 09:15:00 12.1 C 69 % 6.59 C
2583 07-02-2014 09:20:00 12.2 C 69 % 6.69 C
2584 07-02-2014 09:25:00 12.4 C 69 % 6.88 C
2585 07-02-2014 09:30:00 12.6 C 69 % 7.07 C
2586 07-02-2014 09:35:00 12.8 C 67 % 6.83 C
2587 07-02-2014 09:40:00 13.1 C 67 % 7.12 C
2588 07-02-2014 09:45:00 13.2 C 65 % 6.77 C
2589 07-02-2014 09:50:00 13.2 C 66 % 7 C
2590 07-02-2014 09:55:00 13.1 C 66 % 6.9 C
2591 07-02-2014 10:00:00 13.1 C 66 % 6.9 C
2592 07-02-2014 10:05:00 13.1 C 65 % 6.68 C
2593 07-02-2014 10:10:00 13.1 C 66 % 6.9 C
2594 07-02-2014 10:15:00 13.1 C 66 % 6.9 C
2595 07-02-2014 10:20:00 13.2 C 66 % 7 C
2596 07-02-2014 10:25:00 13.2 C 65 % 6.77 C
2597 07-02-2014 10:30:00 13.3 C 64 % 6.64 C
2598 07-02-2014 10:35:00 13.3 C 65 % 6.87 C
2599 07-02-2014 10:40:00 13.2 C 65 % 6.77 C
2600 07-02-2014 10:45:00 13.1 C 68 % 7.34 C
Sensor: Nr:Datum:Temp:Feuchte:Taupunkt:
Aussen-T/F 2601 07-02-2014 10:50:00 12.7 C 69 % 7.17 C
2602 07-02-2014 10:55:00 12.4 C 70 % 7.09 C
2603 07-02-2014 11:00:00 12.4 C 70 % 7.09 C
2604 07-02-2014 11:05:00 12.3 C 70 % 6.99 C
2605 07-02-2014 11:10:00 12.4 C 70 % 7.09 C
2606 07-02-2014 11:15:00 12.3 C 73 % 7.61 C
2607 07-02-2014 11:20:00 11.8 C 75 % 7.52 C
2608 07-02-2014 11:25:00 11.5 C 77 % 7.61 C
2609 07-02-2014 11:30:00 11.3 C 78 % 7.61 C
2610 07-02-2014 11:35:00 11.2 C 77 % 7.32 C
2611 07-02-2014 11:40:00 11.2 C 75 % 6.94 C
2612 07-02-2014 11:45:00 11.2 C 73 % 6.55 C
2613 07-02-2014 11:50:00 11.2 C 71 % 6.14 C
2614 07-02-2014 11:55:00 11.1 C 70 % 5.84 C
2615 07-02-2014 12:00:00 11.1 C 69 % 5.64 C
2616 07-02-2014 12:05:00 11 C 69 % 5.54 C
2617 07-02-2014 12:10:00 10.9 C 69 % 5.44 C
2618 07-02-2014 12:15:00 10.8 C 70 % 5.56 C
2619 07-02-2014 12:20:00 10.9 C 69 % 5.44 C
2620 07-02-2014 12:25:00 10.8 C 69 % 5.35 C
2621 07-02-2014 12:30:00 10.8 C 69 % 5.35 C
2622 07-02-2014 12:35:00 10.8 C 70 % 5.56 C
2623 07-02-2014 12:40:00 10.7 C 70 % 5.46 C
2624 07-02-2014 12:45:00 10.6 C 71 % 5.57 C
2625 07-02-2014 12:50:00 10.4 C 72 % 5.58 C
Sensor: Nr:Datum:Temp:Feuchte:Taupunkt:
Aussen-T/F 2626 07-02-2014 12:55:00 10.4 C 71 % 5.38 C
2627 07-02-2014 13:00:00 10.5 C 71 % 5.47 C
2628 07-02-2014 13:05:00 10.6 C 70 % 5.36 C
2629 07-02-2014 13:10:00 10.6 C 69 % 5.16 C
2630 07-02-2014 13:15:00 10.6 C 70 % 5.36 C
2631 07-02-2014 13:20:00 10.4 C 73 % 5.78 C
2632 07-02-2014 13:25:00 10.2 C 72 % 5.39 C
2633 07-02-2014 13:30:00 10.2 C 72 % 5.39 C
2634 07-02-2014 13:35:00 10.2 C 72 % 5.39 C
2635 07-02-2014 13:40:00 10.2 C 72 % 5.39 C
2636 07-02-2014 13:45:00 10.2 C 72 % 5.39 C
2637 07-02-2014 13:50:00 10.3 C 72 % 5.48 C
2638 07-02-2014 13:55:00 10.3 C 72 % 5.48 C
2639 07-02-2014 14:00:00 10.5 C 71 % 5.47 C
2640 07-02-2014 14:05:00 10.6 C 69 % 5.16 C
2641 07-02-2014 14:10:00 10.5 C 69 % 5.06 C
2642 07-02-2014 14:15:00 10.5 C 68 % 4.85 C
2643 07-02-2014 14:20:00 10.6 C 67 % 4.74 C
2644 07-02-2014 14:25:00 10.6 C 67 % 4.74 C
2645 07-02-2014 14:30:00 10.7 C 66 % 4.62 C
2646 07-02-2014 14:35:00 10.6 C 67 % 4.74 C
2647 07-02-2014 14:40:00 10.5 C 68 % 4.85 C
2648 07-02-2014 14:45:00 10.5 C 67 % 4.64 C
2649 07-02-2014 14:50:00 10.4 C 67 % 4.55 C
2650 07-02-2014 14:55:00 10.5 C 68 % 4.85 C
Sensor: Nr:Datum:Temp:Feuchte:Taupunkt:
Aussen-T/F 2651 07-02-2014 15:00:00 10.5 C 69 % 5.06 C
2652 07-02-2014 15:05:00 10.3 C 70 % 5.08 C
2653 07-02-2014 15:10:00 10 C 71 % 4.99 C
2654 07-02-2014 15:15:00 9.9 C 72 % 5.1 C
2655 07-02-2014 15:20:00 9.8 C 72 % 5 C
2656 07-02-2014 15:25:00 9.8 C 72 % 5 C
2657 07-02-2014 15:30:00 9.7 C 72 % 4.9 C
2658 07-02-2014 15:35:00 9.7 C 72 % 4.9 C
2659 07-02-2014 15:40:00 9.8 C 72 % 5 C
2660 07-02-2014 15:45:00 9.7 C 72 % 4.9 C
2661 07-02-2014 15:50:00 9.6 C 72 % 4.81 C
2662 07-02-2014 15:55:00 9.5 C 71 % 4.51 C
2663 07-02-2014 16:00:00 9.4 C 71 % 4.42 C
2664 07-02-2014 16:05:00 9.4 C 71 % 4.42 C
2665 07-02-2014 16:10:00 9.4 C 72 % 4.62 C
2666 07-02-2014 16:15:00 9.3 C 73 % 4.72 C
2667 07-02-2014 16:20:00 9.3 C 73 % 4.72 C
2668 07-02-2014 16:25:00 9.3 C 73 % 4.72 C
2669 07-02-2014 16:30:00 9.3 C 73 % 4.72 C
2670 07-02-2014 16:35:00 9.2 C 73 % 4.62 C
2671 07-02-2014 16:40:00 9.2 C 73 % 4.62 C
2672 07-02-2014 16:45:00 9.2 C 74 % 4.81 C
2673 07-02-2014 16:50:00 9.1 C 74 % 4.72 C
2674 07-02-2014 16:55:00 9 C 74 % 4.62 C
2675 07-02-2014 17:00:00 8.9 C 75 % 4.72 C
Sensor: Nr:Datum:Temp:Feuchte:Taupunkt:
Aussen-T/F 2676 07-02-2014 17:05:00 8.9 C 76 % 4.91 C
2677 07-02-2014 17:10:00 8.8 C 76 % 4.81 C
2678 07-02-2014 17:15:00 8.8 C 76 % 4.81 C
2679 07-02-2014 17:20:00 8.7 C 77 % 4.9 C
2680 07-02-2014 17:25:00 8.7 C 76 % 4.71 C
2681 07-02-2014 17:30:00 8.7 C 77 % 4.9 C
2682 07-02-2014 17:35:00 8.6 C 77 % 4.8 C
2683 07-02-2014 17:40:00 8.5 C 77 % 4.71 C
2684 07-02-2014 17:45:00 8.4 C 77 % 4.61 C
2685 07-02-2014 17:50:00 8.4 C 78 % 4.79 C
2686 07-02-2014 17:55:00 8.3 C 78 % 4.7 C
2687 07-02-2014 18:00:00 8.2 C 79 % 4.78 C
2688 07-02-2014 18:05:00 8.1 C 79 % 4.68 C
2689 07-02-2014 18:10:00 8 C 79 % 4.59 C
2690 07-02-2014 18:15:00 7.9 C 79 % 4.49 C
2691 07-02-2014 18:20:00 7.8 C 81 % 4.75 C
2692 07-02-2014 18:25:00 7.7 C 82 % 4.83 C
2693 07-02-2014 18:30:00 7.4 C 83 % 4.71 C
2694 07-02-2014 18:35:00 7.3 C 84 % 4.78 C
2695 07-02-2014 18:40:00 7.2 C 84 % 4.68 C
2696 07-02-2014 18:45:00 7.2 C 84 % 4.68 C
2697 07-02-2014 18:50:00 7.2 C 84 % 4.68 C
2698 07-02-2014 18:55:00 7.3 C 84 % 4.78 C
2699 07-02-2014 19:00:00 7.2 C 84 % 4.68 C
2700 07-02-2014 19:05:00 7.2 C 84 % 4.68 C
Sensor: Nr:Datum:Temp:Feuchte:Taupunkt:
Aussen-T/F 2701 07-02-2014 19:10:00 7.2 C 83 % 4.51 C
2702 07-02-2014 19:15:00 7.1 C 83 % 4.41 C
2703 07-02-2014 19:20:00 7.1 C 82 % 4.24 C
2704 07-02-2014 19:25:00 7 C 82 % 4.14 C
2705 07-02-2014 19:30:00 6.9 C 82 % 4.05 C
2706 07-02-2014 19:35:00 6.9 C 82 % 4.05 C
2707 07-02-2014 19:40:00 6.9 C 81 % 3.87 C
2708 07-02-2014 19:45:00 6.8 C 81 % 3.77 C
2709 07-02-2014 19:50:00 6.8 C 81 % 3.77 C
2710 07-02-2014 19:55:00 6.8 C 80 % 3.6 C
2711 07-02-2014 20:00:00 6.8 C 81 % 3.77 C
2712 07-02-2014 20:05:00 6.7 C 81 % 3.68 C
2713 07-02-2014 20:10:00 6.7 C 82 % 3.85 C
2714 07-02-2014 20:15:00 6.7 C 82 % 3.85 C
2715 07-02-2014 20:20:00 6.7 C 82 % 3.85 C
2716 07-02-2014 20:25:00 6.7 C 82 % 3.85 C
2717 07-02-2014 20:30:00 6.7 C 82 % 3.85 C
2718 07-02-2014 20:35:00 6.7 C 82 % 3.85 C
2719 07-02-2014 20:40:00 6.7 C 82 % 3.85 C
2720 07-02-2014 20:45:00 6.6 C 83 % 3.92 C
2721 07-02-2014 20:50:00 6.4 C 83 % 3.73 C
2722 07-02-2014 20:55:00 6.3 C 84 % 3.8 C
2723 07-02-2014 21:00:00 6.3 C 84 % 3.8 C
2724 07-02-2014 21:05:00 6.2 C 84 % 3.7 C
2725 07-02-2014 21:10:00 6.2 C 84 % 3.7 C
Sensor: Nr:Datum:Temp:Feuchte:Taupunkt:
Aussen-T/F 2726 07-02-2014 21:15:00 6.2 C 84 % 3.7 C
2727 07-02-2014 21:20:00 6.2 C 84 % 3.7 C
2728 07-02-2014 21:25:00 6.1 C 84 % 3.61 C
2729 07-02-2014 21:30:00 6.1 C 84 % 3.61 C
2730 07-02-2014 21:35:00 5.9 C 85 % 3.58 C
2731 07-02-2014 21:40:00 5.9 C 85 % 3.58 C
2732 07-02-2014 21:45:00 5.7 C 85 % 3.38 C
2733 07-02-2014 21:50:00 5.6 C 86 % 3.45 C
2734 07-02-2014 21:55:00 5.5 C 86 % 3.35 C
2735 07-02-2014 22:00:00 5.3 C 86 % 3.15 C
2736 07-02-2014 22:05:00 5.2 C 87 % 3.22 C
2737 07-02-2014 22:10:00 5.1 C 87 % 3.12 C
2738 07-02-2014 22:15:00 5.2 C 87 % 3.22 C
2739 07-02-2014 22:20:00 5.2 C 87 % 3.22 C
2740 07-02-2014 22:25:00 5.2 C 87 % 3.22 C
2741 07-02-2014 22:30:00 5.1 C 87 % 3.12 C
2742 07-02-2014 22:35:00 5.1 C 87 % 3.12 C
2743 07-02-2014 22:40:00 5.1 C 87 % 3.12 C
2744 07-02-2014 22:45:00 4.9 C 87 % 2.92 C
2745 07-02-2014 22:50:00 4.8 C 88 % 2.99 C
2746 07-02-2014 22:55:00 4.7 C 87 % 2.73 C
2747 07-02-2014 23:00:00 4.4 C 88 % 2.59 C
2748 07-02-2014 23:05:00 4.2 C 89 % 2.55 C
2749 07-02-2014 23:10:00 4.1 C 89 % 2.45 C
2750 07-02-2014 23:15:00 3.9 C 90 % 2.41 C
Sensor: Nr:Datum:Temp:Feuchte:Taupunkt:
Aussen-T/F 2751 07-02-2014 23:20:00 3.8 C 90 % 2.31 C
2752 07-02-2014 23:25:00 3.7 C 90 % 2.22 C
2753 07-02-2014 23:30:00 3.6 C 91 % 2.27 C
2754 07-02-2014 23:35:00 3.6 C 91 % 2.27 C
2755 07-02-2014 23:40:00 3.5 C 91 % 2.17 C
2756 07-02-2014 23:45:00 3.4 C 91 % 2.07 C
2757 07-02-2014 23:50:00 3.4 C 92 % 2.23 C
2758 07-02-2014 23:55:00 3.3 C 91 % 1.98 C
2759 08-02-2014 00:00:00 3.1 C 91 % 1.78 C
2760 08-02-2014 00:05:00 2.9 C 92 % 1.73 C
2761 08-02-2014 00:10:00 3 C 93 % 1.98 C
2762 08-02-2014 00:15:00 3 C 93 % 1.98 C
2763 08-02-2014 00:20:00 3 C 93 % 1.98 C
2764 08-02-2014 00:25:00 2.9 C 93 % 1.88 C
2765 08-02-2014 00:30:00 2.8 C 93 % 1.78 C
2766 08-02-2014 00:35:00 2.8 C 93 % 1.78 C
2767 08-02-2014 00:40:00 2.8 C 93 % 1.78 C
2768 08-02-2014 00:45:00 2.8 C 93 % 1.78 C
2769 08-02-2014 00:50:00 2.7 C 92 % 1.53 C
2770 08-02-2014 00:55:00 2.6 C 93 % 1.59 C
2771 08-02-2014 01:00:00 2.5 C 93 % 1.49 C
2772 08-02-2014 01:05:00 2.4 C 93 % 1.39 C
2773 08-02-2014 01:10:00 2.3 C 93 % 1.29 C
2774 08-02-2014 01:15:00 2.3 C 93 % 1.29 C
2775 08-02-2014 01:20:00 2.3 C 93 % 1.29 C
Sensor: Nr:Datum:Temp:Feuchte:Taupunkt:
Aussen-T/F 2776 08-02-2014 01:25:00 2.3 C 93 % 1.29 C
2777 08-02-2014 01:30:00 2.2 C 93 % 1.19 C
2778 08-02-2014 01:35:00 2.2 C 93 % 1.19 C
2779 08-02-2014 01:40:00 2.2 C 93 % 1.19 C
2780 08-02-2014 01:45:00 2.2 C 93 % 1.19 C
2781 08-02-2014 01:50:00 2.2 C 93 % 1.19 C
2782 08-02-2014 01:55:00 2.2 C 93 % 1.19 C
2783 08-02-2014 02:00:00 2.2 C 93 % 1.19 C
2784 08-02-2014 02:05:00 2.2 C 93 % 1.19 C
2785 08-02-2014 02:10:00 2.2 C 93 % 1.19 C
2786 08-02-2014 02:15:00 2.3 C 93 % 1.29 C
2787 08-02-2014 02:20:00 2.4 C 93 % 1.39 C
2788 08-02-2014 02:25:00 2.5 C 93 % 1.49 C
2789 08-02-2014 02:30:00 2.6 C 92 % 1.43 C
2790 08-02-2014 02:35:00 2.6 C 92 % 1.43 C
2791 08-02-2014 02:40:00 2.7 C 92 % 1.53 C
2792 08-02-2014 02:45:00 2.6 C 92 % 1.43 C
2793 08-02-2014 02:50:00 2.6 C 91 % 1.28 C
2794 08-02-2014 02:55:00 2.6 C 92 % 1.43 C
2795 08-02-2014 03:00:00 2.6 C 91 % 1.28 C
2796 08-02-2014 03:05:00 2.6 C 91 % 1.28 C
2797 08-02-2014 03:10:00 2.6 C 92 % 1.43 C
2798 08-02-2014 03:15:00 2.8 C 92 % 1.63 C
2799 08-02-2014 03:20:00 3.1 C 92 % 1.93 C
2800 08-02-2014 03:25:00 3.4 C 91 % 2.07 C
Sensor: Nr:Datum:Temp:Feuchte:Taupunkt:
Aussen-T/F 2801 08-02-2014 03:30:00 3.7 C 90 % 2.22 C
2802 08-02-2014 03:35:00 4.1 C 88 % 2.3 C
2803 08-02-2014 03:40:00 4.3 C 88 % 2.49 C
2804 08-02-2014 03:45:00 4.4 C 87 % 2.43 C
2805 08-02-2014 03:50:00 4.5 C 87 % 2.53 C
2806 08-02-2014 03:55:00 4.5 C 87 % 2.53 C
2807 08-02-2014 04:00:00 4.6 C 87 % 2.63 C
2808 08-02-2014 04:05:00 4.6 C 86 % 2.47 C
2809 08-02-2014 04:10:00 4.7 C 86 % 2.56 C
2810 08-02-2014 04:15:00 5 C 86 % 2.86 C
2811 08-02-2014 04:20:00 5.2 C 85 % 2.89 C
2812 08-02-2014 04:25:00 5.4 C 84 % 2.92 C
2813 08-02-2014 04:30:00 5.6 C 83 % 2.95 C
2814 08-02-2014 04:35:00 5.7 C 83 % 3.04 C
2815 08-02-2014 04:40:00 5.8 C 83 % 3.14 C
2816 08-02-2014 04:45:00 5.8 C 83 % 3.14 C
2817 08-02-2014 04:50:00 5.8 C 83 % 3.14 C
2818 08-02-2014 04:55:00 5.8 C 83 % 3.14 C
2819 08-02-2014 05:00:00 5.9 C 83 % 3.24 C
2820 08-02-2014 05:05:00 5.9 C 82 % 3.07 C
2821 08-02-2014 05:10:00 5.9 C 83 % 3.24 C
2822 08-02-2014 05:15:00 5.9 C 82 % 3.07 C
2823 08-02-2014 05:20:00 6 C 82 % 3.17 C
2824 08-02-2014 05:25:00 6 C 83 % 3.34 C
2825 08-02-2014 05:30:00 5.9 C 83 % 3.24 C
Sensor: Nr:Datum:Temp:Feuchte:Taupunkt:
Aussen-T/F 2826 08-02-2014 05:35:00 5.9 C 83 % 3.24 C
2827 08-02-2014 05:40:00 5.9 C 83 % 3.24 C
2828 08-02-2014 05:45:00 6 C 83 % 3.34 C
2829 08-02-2014 05:50:00 5.9 C 83 % 3.24 C
2830 08-02-2014 05:55:00 5.9 C 83 % 3.24 C
2831 08-02-2014 06:00:00 5.9 C 84 % 3.41 C
2832 08-02-2014 06:05:00 5.9 C 84 % 3.41 C
2833 08-02-2014 06:10:00 5.9 C 84 % 3.41 C
2834 08-02-2014 06:15:00 5.9 C 84 % 3.41 C
2835 08-02-2014 06:20:00 5.9 C 84 % 3.41 C
2836 08-02-2014 06:25:00 5.8 C 84 % 3.31 C
2837 08-02-2014 06:30:00 6.1 C 83 % 3.44 C
2838 08-02-2014 06:35:00 6.1 C 83 % 3.44 C
2839 08-02-2014 06:40:00 6.2 C 83 % 3.53 C
2840 08-02-2014 06:45:00 6.2 C 83 % 3.53 C
2841 08-02-2014 06:50:00 6.2 C 83 % 3.53 C
2842 08-02-2014 06:55:00 6.2 C 83 % 3.53 C
2843 08-02-2014 07:00:00 6.2 C 83 % 3.53 C
2844 08-02-2014 07:05:00 6.2 C 83 % 3.53 C
2845 08-02-2014 07:10:00 6.2 C 83 % 3.53 C
2846 08-02-2014 07:15:00 6.3 C 82 % 3.46 C
2847 08-02-2014 07:20:00 6.4 C 82 % 3.56 C
2848 08-02-2014 07:25:00 6.6 C 81 % 3.58 C
2849 08-02-2014 07:30:00 6.7 C 80 % 3.5 C
2850 08-02-2014 07:35:00 6.7 C 80 % 3.5 C
Sensor: Nr:Datum:Temp:Feuchte:Taupunkt:
Aussen-T/F 2851 08-02-2014 07:40:00 6.7 C 80 % 3.5 C
2852 08-02-2014 07:45:00 6.8 C 80 % 3.6 C
2853 08-02-2014 07:50:00 6.8 C 79 % 3.42 C
2854 08-02-2014 07:55:00 6.8 C 79 % 3.42 C
2855 08-02-2014 08:00:00 6.9 C 79 % 3.52 C
2856 08-02-2014 08:05:00 6.9 C 79 % 3.52 C
2857 08-02-2014 08:10:00 6.9 C 79 % 3.52 C
2858 08-02-2014 08:15:00 7 C 79 % 3.61 C
2859 08-02-2014 08:20:00 7.1 C 78 % 3.53 C
2860 08-02-2014 08:25:00 7.3 C 77 % 3.54 C
2861 08-02-2014 08:30:00 7.3 C 76 % 3.36 C
2862 08-02-2014 08:35:00 7.4 C 76 % 3.45 C
2863 08-02-2014 08:40:00 7.4 C 76 % 3.45 C
2864 08-02-2014 08:45:00 7.4 C 76 % 3.45 C
2865 08-02-2014 08:50:00 7.4 C 76 % 3.45 C
2866 08-02-2014 08:55:00 7.4 C 76 % 3.45 C
2867 08-02-2014 09:00:00 7.6 C 75 % 3.46 C
2868 08-02-2014 09:05:00 7.6 C 75 % 3.46 C
2869 08-02-2014 09:10:00 7.7 C 75 % 3.56 C
2870 08-02-2014 09:15:00 7.7 C 75 % 3.56 C
2871 08-02-2014 09:20:00 7.7 C 75 % 3.56 C
2872 08-02-2014 09:25:00 7.8 C 74 % 3.46 C
2873 08-02-2014 09:30:00 7.8 C 74 % 3.46 C
2874 08-02-2014 09:35:00 7.8 C 73 % 3.27 C
2875 08-02-2014 09:40:00 7.9 C 73 % 3.37 C
Sensor: Nr:Datum:Temp:Feuchte:Taupunkt:
Aussen-T/F 2876 08-02-2014 09:45:00 7.9 C 73 % 3.37 C
2877 08-02-2014 09:50:00 7.9 C 74 % 3.56 C
2878 08-02-2014 09:55:00 8 C 74 % 3.66 C
2879 08-02-2014 10:00:00 8 C 74 % 3.66 C
2880 08-02-2014 10:05:00 8 C 74 % 3.66 C
2881 08-02-2014 10:10:00 8 C 74 % 3.66 C
2882 08-02-2014 10:15:00 8.1 C 74 % 3.75 C
2883 08-02-2014 10:20:00 8.2 C 73 % 3.66 C
2884 08-02-2014 10:25:00 8.2 C 73 % 3.66 C
2885 08-02-2014 10:30:00 8.3 C 73 % 3.75 C
2886 08-02-2014 10:35:00 8.3 C 72 % 3.56 C
2887 08-02-2014 10:40:00 8.4 C 73 % 3.85 C
2888 08-02-2014 10:45:00 8.5 C 72 % 3.75 C
2889 08-02-2014 10:50:00 8.6 C 72 % 3.85 C
2890 08-02-2014 10:55:00 8.7 C 71 % 3.74 C
2891 08-02-2014 11:00:00 8.8 C 73 % 4.24 C
2892 08-02-2014 11:05:00 8.9 C 71 % 3.94 C
2893 08-02-2014 11:10:00 9.1 C 70 % 3.93 C
2894 08-02-2014 11:15:00 9.2 C 71 % 4.22 C
2895 08-02-2014 11:20:00 9.2 C 71 % 4.22 C
2896 08-02-2014 11:25:00 9.3 C 70 % 4.12 C
2897 08-02-2014 11:30:00 9.4 C 69 % 4.01 C
2898 08-02-2014 11:35:00 9.4 C 69 % 4.01 C
2899 08-02-2014 11:40:00 9.4 C 68 % 3.8 C
2900 08-02-2014 11:45:00 9.4 C 69 % 4.01 C
Sensor: Nr:Datum:Temp:Feuchte:Taupunkt:
Aussen-T/F 2901 08-02-2014 11:50:00 9.4 C 68 % 3.8 C
2902 08-02-2014 11:55:00 9.5 C 68 % 3.9 C
2903 08-02-2014 12:00:00 9.5 C 68 % 3.9 C
2904 08-02-2014 12:05:00 9.6 C 70 % 4.41 C
2905 08-02-2014 12:10:00 9.6 C 69 % 4.2 C
2906 08-02-2014 12:15:00 9.7 C 68 % 4.09 C
2907 08-02-2014 12:20:00 9.8 C 69 % 4.39 C
2908 08-02-2014 12:25:00 9.8 C 71 % 4.8 C
2909 08-02-2014 12:30:00 9.8 C 73 % 5.2 C
2910 08-02-2014 12:35:00 9.8 C 72 % 5 C
2911 08-02-2014 12:40:00 9.6 C 73 % 5.01 C
2912 08-02-2014 12:45:00 9.4 C 74 % 5.01 C
2913 08-02-2014 12:50:00 9.3 C 76 % 5.29 C
2914 08-02-2014 12:55:00 9.2 C 76 % 5.2 C
2915 08-02-2014 13:00:00 9 C 78 % 5.38 C
2916 08-02-2014 13:05:00 8.8 C 78 % 5.18 C
2917 08-02-2014 13:10:00 8.7 C 80 % 5.45 C
2918 08-02-2014 13:15:00 8.7 C 81 % 5.63 C
2919 08-02-2014 13:20:00 8.7 C 81 % 5.63 C
2920 08-02-2014 13:25:00 8.7 C 79 % 5.27 C
2921 08-02-2014 13:30:00 8.7 C 79 % 5.27 C
2922 08-02-2014 13:35:00 8.7 C 81 % 5.63 C
2923 08-02-2014 13:40:00 8.8 C 79 % 5.36 C
2924 08-02-2014 13:45:00 8.9 C 79 % 5.46 C
2925 08-02-2014 13:50:00 8.9 C 79 % 5.46 C
Sensor: Nr:Datum:Temp:Feuchte:Taupunkt:
Aussen-T/F 2926 08-02-2014 13:55:00 8.9 C 79 % 5.46 C
2927 08-02-2014 14:00:00 8.8 C 79 % 5.36 C
2928 08-02-2014 14:05:00 8.8 C 80 % 5.55 C
2929 08-02-2014 14:10:00 8.8 C 80 % 5.55 C
2930 08-02-2014 14:15:00 8.7 C 79 % 5.27 C
2931 08-02-2014 14:20:00 8.7 C 80 % 5.45 C
2932 08-02-2014 14:25:00 8.6 C 81 % 5.53 C
2933 08-02-2014 14:30:00 8.4 C 82 % 5.51 C
2934 08-02-2014 14:35:00 8.3 C 82 % 5.41 C
2935 08-02-2014 14:40:00 8.2 C 83 % 5.49 C
2936 08-02-2014 14:45:00 8.2 C 84 % 5.66 C
2937 08-02-2014 14:50:00 8.1 C 84 % 5.56 C
2938 08-02-2014 14:55:00 8 C 85 % 5.64 C
2939 08-02-2014 15:00:00 7.9 C 85 % 5.54 C
2940 08-02-2014 15:05:00 7.8 C 86 % 5.61 C
2941 08-02-2014 15:10:00 7.8 C 86 % 5.61 C
2942 08-02-2014 15:15:00 7.8 C 87 % 5.78 C
2943 08-02-2014 15:20:00 7.7 C 86 % 5.51 C
2944 08-02-2014 15:25:00 7.7 C 86 % 5.51 C
2945 08-02-2014 15:30:00 7.7 C 87 % 5.68 C
2946 08-02-2014 15:35:00 7.7 C 87 % 5.68 C
2947 08-02-2014 15:40:00 7.7 C 87 % 5.68 C
2948 08-02-2014 15:45:00 7.6 C 88 % 5.74 C
2949 08-02-2014 15:50:00 7.6 C 89 % 5.91 C
2950 08-02-2014 15:55:00 7.6 C 88 % 5.74 C
Sensor: Nr:Datum:Temp:Feuchte:Taupunkt:
Aussen-T/F 2951 08-02-2014 16:00:00 7.6 C 89 % 5.91 C
2952 08-02-2014 16:05:00 7.4 C 89 % 5.71 C
2953 08-02-2014 16:10:00 7.4 C 90 % 5.87 C
2954 08-02-2014 16:15:00 7.3 C 89 % 5.61 C
2955 08-02-2014 16:20:00 7.3 C 90 % 5.77 C
2956 08-02-2014 16:25:00 7.2 C 91 % 5.83 C
2957 08-02-2014 16:30:00 7.1 C 91 % 5.73 C
2958 08-02-2014 16:35:00 7.1 C 92 % 5.89 C
2959 08-02-2014 16:40:00 7 C 92 % 5.79 C
2960 08-02-2014 16:45:00 6.9 C 92 % 5.69 C
2961 08-02-2014 16:50:00 6.9 C 92 % 5.69 C
2962 08-02-2014 16:55:00 6.8 C 91 % 5.44 C
2963 08-02-2014 17:00:00 6.8 C 92 % 5.59 C
2964 08-02-2014 17:05:00 6.8 C 92 % 5.59 C
2965 08-02-2014 17:10:00 6.7 C 92 % 5.49 C
2966 08-02-2014 17:15:00 6.7 C 92 % 5.49 C
2967 08-02-2014 17:20:00 6.6 C 92 % 5.4 C
2968 08-02-2014 17:25:00 6.5 C 92 % 5.3 C
2969 08-02-2014 17:30:00 6.4 C 93 % 5.35 C
2970 08-02-2014 17:35:00 6.3 C 92 % 5.1 C
2971 08-02-2014 17:40:00 6.3 C 92 % 5.1 C
2972 08-02-2014 17:45:00 6.3 C 92 % 5.1 C
2973 08-02-2014 17:50:00 6.2 C 93 % 5.15 C
2974 08-02-2014 17:55:00 6.1 C 93 % 5.06 C
2975 08-02-2014 18:00:00 6 C 94 % 5.11 C
Sensor: Nr:Datum:Temp:Feuchte:Taupunkt:
Aussen-T/F 2976 08-02-2014 18:05:00 5.9 C 94 % 5.01 C
2977 08-02-2014 18:10:00 5.9 C 94 % 5.01 C
2978 08-02-2014 18:15:00 5.9 C 94 % 5.01 C
2979 08-02-2014 18:20:00 5.9 C 94 % 5.01 C
2980 08-02-2014 18:25:00 5.9 C 94 % 5.01 C
2981 08-02-2014 18:30:00 6 C 94 % 5.11 C
2982 08-02-2014 18:35:00 6 C 94 % 5.11 C
2983 08-02-2014 18:40:00 6.1 C 93 % 5.06 C
2984 08-02-2014 18:45:00 6.3 C 92 % 5.1 C
2985 08-02-2014 18:50:00 6.3 C 91 % 4.94 C
2986 08-02-2014 18:55:00 6.4 C 91 % 5.04 C
2987 08-02-2014 19:00:00 6.6 C 90 % 5.08 C
2988 08-02-2014 19:05:00 6.7 C 89 % 5.02 C
2989 08-02-2014 19:10:00 6.8 C 89 % 5.12 C
2990 08-02-2014 19:15:00 6.8 C 89 % 5.12 C
2991 08-02-2014 19:20:00 6.8 C 89 % 5.12 C
2992 08-02-2014 19:25:00 6.8 C 89 % 5.12 C
2993 08-02-2014 19:30:00 6.8 C 89 % 5.12 C
2994 08-02-2014 19:35:00 6.8 C 90 % 5.28 C
2995 08-02-2014 19:40:00 6.8 C 90 % 5.28 C
2996 08-02-2014 19:45:00 6.8 C 90 % 5.28 C
2997 08-02-2014 19:50:00 6.8 C 90 % 5.28 C
2998 08-02-2014 19:55:00 6.9 C 89 % 5.22 C
2999 08-02-2014 20:00:00 6.9 C 89 % 5.22 C
3000 08-02-2014 20:05:00 7 C 89 % 5.31 C
Sensor: Nr:Datum:Temp:Feuchte:Taupunkt:
Aussen-T/F 3001 08-02-2014 20:10:00 7.1 C 88 % 5.25 C
3002 08-02-2014 20:15:00 7.1 C 88 % 5.25 C
3003 08-02-2014 20:20:00 7.1 C 88 % 5.25 C
3004 08-02-2014 20:25:00 7.1 C 88 % 5.25 C
3005 08-02-2014 20:30:00 7.1 C 87 % 5.09 C
3006 08-02-2014 20:35:00 7.2 C 87 % 5.19 C
3007 08-02-2014 20:40:00 7.2 C 86 % 5.02 C
3008 08-02-2014 20:45:00 7.2 C 87 % 5.19 C
3009 08-02-2014 20:50:00 7.1 C 86 % 4.92 C
3010 08-02-2014 20:55:00 7.1 C 86 % 4.92 C
3011 08-02-2014 21:00:00 7.1 C 86 % 4.92 C
3012 08-02-2014 21:05:00 7.1 C 85 % 4.75 C
3013 08-02-2014 21:10:00 7.1 C 85 % 4.75 C
3014 08-02-2014 21:15:00 7.2 C 84 % 4.68 C
3015 08-02-2014 21:20:00 7.2 C 84 % 4.68 C
3016 08-02-2014 21:25:00 7.2 C 84 % 4.68 C
3017 08-02-2014 21:30:00 7.2 C 83 % 4.51 C
3018 08-02-2014 21:35:00 7.2 C 82 % 4.34 C
3019 08-02-2014 21:40:00 7.2 C 82 % 4.34 C
3020 08-02-2014 21:45:00 7.1 C 81 % 4.07 C
3021 08-02-2014 21:50:00 7.1 C 83 % 4.41 C
3022 08-02-2014 21:55:00 6.8 C 83 % 4.12 C
3023 08-02-2014 22:00:00 6.8 C 84 % 4.29 C
3024 08-02-2014 22:05:00 6.8 C 83 % 4.12 C
3025 08-02-2014 22:10:00 6.8 C 83 % 4.12 C
Sensor: Nr:Datum:Temp:Feuchte:Taupunkt:
Aussen-T/F 3026 08-02-2014 22:15:00 6.8 C 83 % 4.12 C
3027 08-02-2014 22:20:00 6.7 C 83 % 4.02 C
3028 08-02-2014 22:25:00 6.7 C 84 % 4.19 C
3029 08-02-2014 22:30:00 6.8 C 82 % 3.95 C
3030 08-02-2014 22:35:00 7.1 C 81 % 4.07 C
3031 08-02-2014 22:40:00 7.2 C 80 % 3.99 C
3032 08-02-2014 22:45:00 7.4 C 79 % 4 C
3033 08-02-2014 22:50:00 7.5 C 79 % 4.1 C
3034 08-02-2014 22:55:00 7.6 C 79 % 4.2 C
3035 08-02-2014 23:00:00 7.6 C 78 % 4.02 C
3036 08-02-2014 23:05:00 7.4 C 78 % 3.82 C
3037 08-02-2014 23:10:00 7.2 C 78 % 3.63 C
3038 08-02-2014 23:15:00 7 C 79 % 3.61 C
3039 08-02-2014 23:20:00 6.9 C 79 % 3.52 C
3040 08-02-2014 23:25:00 6.9 C 79 % 3.52 C
3041 08-02-2014 23:30:00 6.8 C 79 % 3.42 C
3042 08-02-2014 23:35:00 6.8 C 78 % 3.24 C
3043 08-02-2014 23:40:00 6.8 C 78 % 3.24 C
3044 08-02-2014 23:45:00 6.9 C 78 % 3.34 C
3045 08-02-2014 23:50:00 6.8 C 78 % 3.24 C
3046 08-02-2014 23:55:00 6.7 C 78 % 3.14 C
3047 09-02-2014 00:00:00 6.7 C 78 % 3.14 C
3048 09-02-2014 00:05:00 6.7 C 78 % 3.14 C
3049 09-02-2014 00:10:00 6.7 C 78 % 3.14 C
3050 09-02-2014 00:15:00 6.8 C 77 % 3.06 C
Sensor: Nr:Datum:Temp:Feuchte:Taupunkt:
Aussen-T/F 3051 09-02-2014 00:20:00 7 C 76 % 3.07 C
3052 09-02-2014 00:25:00 7.2 C 77 % 3.45 C
3053 09-02-2014 00:30:00 6.8 C 81 % 3.77 C
3054 09-02-2014 00:35:00 6.3 C 83 % 3.63 C
3055 09-02-2014 00:40:00 5.9 C 84 % 3.41 C
3056 09-02-2014 00:45:00 5.6 C 85 % 3.28 C
3057 09-02-2014 00:50:00 5.4 C 86 % 3.25 C
3058 09-02-2014 00:55:00 5.2 C 87 % 3.22 C
3059 09-02-2014 01:00:00 4.9 C 87 % 2.92 C
3060 09-02-2014 01:05:00 4.8 C 88 % 2.99 C
3061 09-02-2014 01:10:00 4.8 C 88 % 2.99 C
3062 09-02-2014 01:15:00 4.7 C 88 % 2.89 C
3063 09-02-2014 01:20:00 4.6 C 88 % 2.79 C
3064 09-02-2014 01:25:00 4.6 C 89 % 2.95 C
3065 09-02-2014 01:30:00 4.5 C 89 % 2.85 C
3066 09-02-2014 01:35:00 4.4 C 89 % 2.75 C
3067 09-02-2014 01:40:00 4.2 C 90 % 2.71 C
3068 09-02-2014 01:45:00 4.1 C 90 % 2.61 C
3069 09-02-2014 01:50:00 3.9 C 90 % 2.41 C
3070 09-02-2014 01:55:00 3.8 C 91 % 2.47 C
3071 09-02-2014 02:00:00 3.9 C 91 % 2.57 C
3072 09-02-2014 02:05:00 4 C 90 % 2.51 C
3073 09-02-2014 02:10:00 4 C 90 % 2.51 C
3074 09-02-2014 02:15:00 4.1 C 89 % 2.45 C
3075 09-02-2014 02:20:00 4.2 C 89 % 2.55 C
Sensor: Nr:Datum:Temp:Feuchte:Taupunkt:
Aussen-T/F 3076 09-02-2014 02:25:00 4.3 C 88 % 2.49 C
3077 09-02-2014 02:30:00 4.4 C 88 % 2.59 C
3078 09-02-2014 02:35:00 4.5 C 88 % 2.69 C
3079 09-02-2014 02:40:00 4.7 C 87 % 2.73 C
3080 09-02-2014 02:45:00 4.8 C 86 % 2.66 C
3081 09-02-2014 02:50:00 5.1 C 84 % 2.63 C
3082 09-02-2014 02:55:00 5.3 C 83 % 2.65 C
3083 09-02-2014 03:00:00 5.4 C 83 % 2.75 C
3084 09-02-2014 03:05:00 5.6 C 82 % 2.78 C
3085 09-02-2014 03:10:00 5.6 C 82 % 2.78 C
3086 09-02-2014 03:15:00 5.7 C 81 % 2.7 C
3087 09-02-2014 03:20:00 5.8 C 81 % 2.8 C
3088 09-02-2014 03:25:00 5.8 C 81 % 2.8 C
3089 09-02-2014 03:30:00 5.9 C 81 % 2.9 C
3090 09-02-2014 03:35:00 5.9 C 81 % 2.9 C
3091 09-02-2014 03:40:00 5.8 C 81 % 2.8 C
3092 09-02-2014 03:45:00 5.9 C 80 % 2.72 C
3093 09-02-2014 03:50:00 5.8 C 81 % 2.8 C
3094 09-02-2014 03:55:00 5.8 C 81 % 2.8 C
3095 09-02-2014 04:00:00 5.7 C 81 % 2.7 C
3096 09-02-2014 04:05:00 5.7 C 82 % 2.87 C
3097 09-02-2014 04:10:00 5.8 C 81 % 2.8 C
3098 09-02-2014 04:15:00 5.9 C 81 % 2.9 C
3099 09-02-2014 04:20:00 5.9 C 81 % 2.9 C
3100 09-02-2014 04:25:00 5.8 C 82 % 2.97 C
Sensor: Nr:Datum:Temp:Feuchte:Taupunkt:
Aussen-T/F 3101 09-02-2014 04:30:00 5.8 C 82 % 2.97 C
3102 09-02-2014 04:35:00 5.7 C 82 % 2.87 C
3103 09-02-2014 04:40:00 5.8 C 81 % 2.8 C
3104 09-02-2014 04:45:00 5.8 C 82 % 2.97 C
3105 09-02-2014 04:50:00 5.8 C 82 % 2.97 C
3106 09-02-2014 04:55:00 5.8 C 82 % 2.97 C
3107 09-02-2014 05:00:00 5.8 C 82 % 2.97 C
3108 09-02-2014 05:05:00 5.8 C 82 % 2.97 C
3109 09-02-2014 05:10:00 5.8 C 82 % 2.97 C
3110 09-02-2014 05:15:00 5.9 C 82 % 3.07 C
3111 09-02-2014 05:20:00 6 C 81 % 2.99 C
3112 09-02-2014 05:25:00 6 C 82 % 3.17 C
3113 09-02-2014 05:30:00 6 C 81 % 2.99 C
3114 09-02-2014 05:35:00 6 C 81 % 2.99 C
3115 09-02-2014 05:40:00 5.9 C 81 % 2.9 C
3116 09-02-2014 05:45:00 5.9 C 81 % 2.9 C
3117 09-02-2014 05:50:00 5.9 C 81 % 2.9 C
3118 09-02-2014 05:55:00 6 C 81 % 2.99 C
3119 09-02-2014 06:00:00 6 C 81 % 2.99 C
3120 09-02-2014 06:05:00 5.9 C 81 % 2.9 C
3121 09-02-2014 06:10:00 5.9 C 82 % 3.07 C
3122 09-02-2014 06:15:00 5.8 C 82 % 2.97 C
3123 09-02-2014 06:20:00 5.7 C 83 % 3.04 C
3124 09-02-2014 06:25:00 5.7 C 83 % 3.04 C
3125 09-02-2014 06:30:00 5.7 C 82 % 2.87 C
Sensor: Nr:Datum:Temp:Feuchte:Taupunkt:
Aussen-T/F 3126 09-02-2014 06:35:00 5.7 C 83 % 3.04 C
3127 09-02-2014 06:40:00 5.6 C 83 % 2.95 C
3128 09-02-2014 06:45:00 5.4 C 83 % 2.75 C
3129 09-02-2014 06:50:00 5.4 C 83 % 2.75 C
3130 09-02-2014 06:55:00 5.4 C 83 % 2.75 C
3131 09-02-2014 07:00:00 5.4 C 83 % 2.75 C
3132 09-02-2014 07:05:00 5.6 C 83 % 2.95 C
3133 09-02-2014 07:10:00 5.6 C 83 % 2.95 C
3134 09-02-2014 07:15:00 5.7 C 83 % 3.04 C
3135 09-02-2014 07:20:00 5.7 C 83 % 3.04 C
3136 09-02-2014 07:25:00 5.7 C 81 % 2.7 C
3137 09-02-2014 07:30:00 5.7 C 81 % 2.7 C
3138 09-02-2014 07:35:00 5.7 C 81 % 2.7 C
3139 09-02-2014 07:40:00 5.7 C 81 % 2.7 C
3140 09-02-2014 07:45:00 5.7 C 81 % 2.7 C
3141 09-02-2014 07:50:00 5.7 C 81 % 2.7 C
3142 09-02-2014 07:55:00 5.6 C 81 % 2.6 C
3143 09-02-2014 08:00:00 5.6 C 82 % 2.78 C
3144 09-02-2014 08:05:00 5.6 C 82 % 2.78 C
3145 09-02-2014 08:10:00 5.6 C 81 % 2.6 C
3146 09-02-2014 08:15:00 5.7 C 81 % 2.7 C
3147 09-02-2014 08:20:00 5.7 C 81 % 2.7 C
3148 09-02-2014 08:25:00 5.8 C 81 % 2.8 C
3149 09-02-2014 08:30:00 5.8 C 82 % 2.97 C
3150 09-02-2014 08:35:00 5.8 C 81 % 2.8 C
Sensor: Nr:Datum:Temp:Feuchte:Taupunkt:
Aussen-T/F 3151 09-02-2014 08:40:00 5.7 C 81 % 2.7 C
3152 09-02-2014 08:45:00 5.8 C 81 % 2.8 C
3153 09-02-2014 08:50:00 5.8 C 80 % 2.62 C
3154 09-02-2014 08:55:00 5.8 C 80 % 2.62 C
3155 09-02-2014 09:00:00 5.8 C 80 % 2.62 C
3156 09-02-2014 09:05:00 5.8 C 80 % 2.62 C
3157 09-02-2014 09:10:00 5.9 C 79 % 2.54 C
3158 09-02-2014 09:15:00 5.9 C 79 % 2.54 C
3159 09-02-2014 09:20:00 6 C 79 % 2.64 C
3160 09-02-2014 09:25:00 6 C 79 % 2.64 C
3161 09-02-2014 09:30:00 5.9 C 80 % 2.72 C
3162 09-02-2014 09:35:00 5.9 C 81 % 2.9 C
3163 09-02-2014 09:40:00 5.9 C 81 % 2.9 C
3164 09-02-2014 09:45:00 5.9 C 81 % 2.9 C
3165 09-02-2014 09:50:00 5.9 C 82 % 3.07 C
3166 09-02-2014 09:55:00 5.9 C 81 % 2.9 C
3167 09-02-2014 10:00:00 5.8 C 81 % 2.8 C
3168 09-02-2014 10:05:00 5.8 C 80 % 2.62 C
3169 09-02-2014 10:10:00 5.9 C 80 % 2.72 C
3170 09-02-2014 10:15:00 6 C 80 % 2.82 C
3171 09-02-2014 10:20:00 6.2 C 79 % 2.84 C
3172 09-02-2014 10:25:00 6.3 C 78 % 2.75 C
3173 09-02-2014 10:30:00 6.4 C 78 % 2.85 C
3174 09-02-2014 10:35:00 6.6 C 76 % 2.68 C
3175 09-02-2014 10:40:00 6.7 C 76 % 2.78 C
Sensor: Nr:Datum:Temp:Feuchte:Taupunkt:
Aussen-T/F 3176 09-02-2014 10:45:00 6.7 C 76 % 2.78 C
3177 09-02-2014 10:50:00 6.7 C 77 % 2.96 C
3178 09-02-2014 10:55:00 6.6 C 77 % 2.86 C
3179 09-02-2014 11:00:00 6.4 C 77 % 2.67 C
3180 09-02-2014 11:05:00 6.4 C 77 % 2.67 C
3181 09-02-2014 11:10:00 6.6 C 78 % 3.05 C
3182 09-02-2014 11:15:00 6.6 C 78 % 3.05 C
3183 09-02-2014 11:20:00 6.5 C 78 % 2.95 C
3184 09-02-2014 11:25:00 6.6 C 79 % 3.23 C
3185 09-02-2014 11:30:00 6.6 C 78 % 3.05 C
3186 09-02-2014 11:35:00 6.6 C 78 % 3.05 C
3187 09-02-2014 11:40:00 6.6 C 78 % 3.05 C
3188 09-02-2014 11:45:00 6.5 C 76 % 2.58 C
3189 09-02-2014 11:50:00 6.7 C 76 % 2.78 C
3190 09-02-2014 11:55:00 6.8 C 76 % 2.87 C
3191 09-02-2014 12:00:00 6.9 C 75 % 2.78 C
3192 09-02-2014 12:05:00 6.9 C 74 % 2.6 C
3193 09-02-2014 12:10:00 7 C 74 % 2.69 C
3194 09-02-2014 12:15:00 7.1 C 75 % 2.98 C
3195 09-02-2014 12:20:00 7 C 74 % 2.69 C
3196 09-02-2014 12:25:00 6.9 C 75 % 2.78 C
3197 09-02-2014 12:30:00 6.9 C 74 % 2.6 C
3198 09-02-2014 12:35:00 7.1 C 73 % 2.6 C
3199 09-02-2014 12:40:00 7.3 C 72 % 2.6 C
3200 09-02-2014 12:45:00 7.5 C 71 % 2.59 C
Sensor: Nr:Datum:Temp:Feuchte:Taupunkt:
Aussen-T/F 3201 09-02-2014 12:50:00 7.6 C 69 % 2.29 C
3202 09-02-2014 12:55:00 7.7 C 68 % 2.18 C
3203 09-02-2014 13:00:00 7.7 C 69 % 2.38 C
3204 09-02-2014 13:05:00 7.7 C 70 % 2.58 C
3205 09-02-2014 13:10:00 7.7 C 69 % 2.38 C
3206 09-02-2014 13:15:00 7.8 C 69 % 2.48 C
3207 09-02-2014 13:20:00 7.8 C 68 % 2.27 C
3208 09-02-2014 13:25:00 7.9 C 66 % 1.95 C
3209 09-02-2014 13:30:00 7.8 C 66 % 1.86 C
3210 09-02-2014 13:35:00 7.8 C 67 % 2.07 C
3211 09-02-2014 13:40:00 7.8 C 67 % 2.07 C
3212 09-02-2014 13:45:00 7.7 C 69 % 2.38 C
3213 09-02-2014 13:50:00 7.5 C 70 % 2.39 C
3214 09-02-2014 13:55:00 7.5 C 70 % 2.39 C
3215 09-02-2014 14:00:00 7.5 C 70 % 2.39 C
3216 09-02-2014 14:05:00 7.3 C 71 % 2.4 C
3217 09-02-2014 14:10:00 6.9 C 74 % 2.6 C
3218 09-02-2014 14:15:00 6.8 C 75 % 2.69 C
3219 09-02-2014 14:20:00 6.8 C 75 % 2.69 C
3220 09-02-2014 14:25:00 6.8 C 76 % 2.87 C
3221 09-02-2014 14:30:00 6.8 C 76 % 2.87 C
3222 09-02-2014 14:35:00 6.8 C 78 % 3.24 C
3223 09-02-2014 14:40:00 6.7 C 79 % 3.32 C
3224 09-02-2014 14:45:00 6.7 C 77 % 2.96 C
3225 09-02-2014 14:50:00 6.7 C 78 % 3.14 C
Sensor: Nr:Datum:Temp:Feuchte:Taupunkt:
Aussen-T/F 3226 09-02-2014 14:55:00 6.7 C 77 % 2.96 C
3227 09-02-2014 15:00:00 6.8 C 75 % 2.69 C
3228 09-02-2014 15:05:00 6.9 C 73 % 2.4 C
3229 09-02-2014 15:10:00 7 C 72 % 2.31 C
3230 09-02-2014 15:15:00 7.3 C 71 % 2.4 C
3231 09-02-2014 15:20:00 7.6 C 69 % 2.29 C
3232 09-02-2014 15:25:00 7.7 C 67 % 1.97 C
3233 09-02-2014 15:30:00 7.7 C 68 % 2.18 C
3234 09-02-2014 15:35:00 7.7 C 68 % 2.18 C
3235 09-02-2014 15:40:00 7.6 C 69 % 2.29 C
3236 09-02-2014 15:45:00 7.4 C 69 % 2.1 C
3237 09-02-2014 15:50:00 7.1 C 70 % 2.01 C
3238 09-02-2014 15:55:00 7 C 71 % 2.11 C
3239 09-02-2014 16:00:00 6.9 C 71 % 2.02 C
3240 09-02-2014 16:05:00 6.9 C 71 % 2.02 C
3241 09-02-2014 16:10:00 6.9 C 70 % 1.82 C
3242 09-02-2014 16:15:00 6.9 C 71 % 2.02 C
3243 09-02-2014 16:20:00 6.9 C 70 % 1.82 C
3244 09-02-2014 16:25:00 6.8 C 71 % 1.92 C
3245 09-02-2014 16:30:00 6.8 C 71 % 1.92 C
3246 09-02-2014 16:35:00 6.8 C 71 % 1.92 C
3247 09-02-2014 16:40:00 6.7 C 71 % 1.82 C
3248 09-02-2014 16:45:00 6.7 C 71 % 1.82 C
3249 09-02-2014 16:50:00 6.7 C 72 % 2.02 C
3250 09-02-2014 16:55:00 6.7 C 71 % 1.82 C
Sensor: Nr:Datum:Temp:Feuchte:Taupunkt:
Aussen-T/F 3251 09-02-2014 17:00:00 6.7 C 70 % 1.63 C
3252 09-02-2014 17:05:00 6.7 C 70 % 1.63 C
3253 09-02-2014 17:10:00 6.5 C 71 % 1.63 C
3254 09-02-2014 17:15:00 6.4 C 72 % 1.73 C
3255 09-02-2014 17:20:00 6.4 C 71 % 1.54 C
3256 09-02-2014 17:25:00 6.4 C 71 % 1.54 C
3257 09-02-2014 17:30:00 6.4 C 72 % 1.73 C
3258 09-02-2014 17:35:00 6.3 C 73 % 1.83 C
3259 09-02-2014 17:40:00 6.1 C 74 % 1.82 C
3260 09-02-2014 17:45:00 5.8 C 74 % 1.53 C
3261 09-02-2014 17:50:00 5.7 C 74 % 1.44 C
3262 09-02-2014 17:55:00 5.7 C 74 % 1.44 C
3263 09-02-2014 18:00:00 5.6 C 75 % 1.53 C
3264 09-02-2014 18:05:00 5.2 C 77 % 1.51 C
3265 09-02-2014 18:10:00 4.7 C 79 % 1.38 C
3266 09-02-2014 18:15:00 4.4 C 80 % 1.26 C
3267 09-02-2014 18:20:00 4.3 C 81 % 1.34 C
3268 09-02-2014 18:25:00 4.1 C 82 % 1.31 C
3269 09-02-2014 18:30:00 3.9 C 83 % 1.28 C
3270 09-02-2014 18:35:00 3.8 C 83 % 1.19 C
3271 09-02-2014 18:40:00 3.6 C 84 % 1.16 C
3272 09-02-2014 18:45:00 3.4 C 85 % 1.12 C
3273 09-02-2014 18:50:00 3.4 C 86 % 1.29 C
3274 09-02-2014 18:55:00 3.6 C 86 % 1.48 C
3275 09-02-2014 19:00:00 3.9 C 86 % 1.78 C
Sensor: Nr:Datum:Temp:Feuchte:Taupunkt:
Aussen-T/F 3276 09-02-2014 19:05:00 3.9 C 86 % 1.78 C
3277 09-02-2014 19:10:00 3.9 C 85 % 1.61 C
3278 09-02-2014 19:15:00 3.9 C 85 % 1.61 C
3279 09-02-2014 19:20:00 4 C 85 % 1.71 C
3280 09-02-2014 19:25:00 4.1 C 84 % 1.65 C
3281 09-02-2014 19:30:00 4.2 C 83 % 1.58 C
3282 09-02-2014 19:35:00 4.1 C 84 % 1.65 C
3283 09-02-2014 19:40:00 3.7 C 85 % 1.42 C
3284 09-02-2014 19:45:00 3.6 C 85 % 1.32 C
3285 09-02-2014 19:50:00 3.5 C 86 % 1.38 C
3286 09-02-2014 19:55:00 3.3 C 87 % 1.35 C
3287 09-02-2014 20:00:00 3.2 C 87 % 1.25 C
3288 09-02-2014 20:05:00 3.2 C 87 % 1.25 C
3289 09-02-2014 20:10:00 3.1 C 87 % 1.15 C
3290 09-02-2014 20:15:00 2.8 C 88 % 1.02 C
3291 09-02-2014 20:20:00 2.7 C 88 % 0.92 C
3292 09-02-2014 20:25:00 2.6 C 89 % 0.97 C
3293 09-02-2014 20:30:00 2.5 C 89 % 0.88 C
3294 09-02-2014 20:35:00 2.6 C 89 % 0.97 C
3295 09-02-2014 20:40:00 2.6 C 89 % 0.97 C
3296 09-02-2014 20:45:00 2.6 C 90 % 1.13 C
3297 09-02-2014 20:50:00 2.7 C 90 % 1.23 C
3298 09-02-2014 20:55:00 2.7 C 89 % 1.07 C
3299 09-02-2014 21:00:00 2.7 C 89 % 1.07 C
3300 09-02-2014 21:05:00 2.7 C 89 % 1.07 C
Sensor: Nr:Datum:Temp:Feuchte:Taupunkt:
Aussen-T/F 3301 09-02-2014 21:10:00 2.7 C 90 % 1.23 C
3302 09-02-2014 21:15:00 2.7 C 90 % 1.23 C
3303 09-02-2014 21:20:00 2.7 C 90 % 1.23 C
3304 09-02-2014 21:25:00 2.7 C 90 % 1.23 C
3305 09-02-2014 21:30:00 2.7 C 90 % 1.23 C
3306 09-02-2014 21:35:00 2.7 C 90 % 1.23 C
3307 09-02-2014 21:40:00 2.7 C 90 % 1.23 C
3308 09-02-2014 21:45:00 2.7 C 90 % 1.23 C
3309 09-02-2014 21:50:00 2.7 C 90 % 1.23 C
3310 09-02-2014 21:55:00 2.7 C 91 % 1.38 C
3311 09-02-2014 22:00:00 2.7 C 90 % 1.23 C
3312 09-02-2014 22:05:00 2.5 C 90 % 1.03 C
3313 09-02-2014 22:10:00 2.4 C 91 % 1.08 C
3314 09-02-2014 22:15:00 2.4 C 91 % 1.08 C
3315 09-02-2014 22:20:00 2.3 C 92 % 1.14 C
3316 09-02-2014 22:25:00 2.3 C 92 % 1.14 C
3317 09-02-2014 22:30:00 2.3 C 92 % 1.14 C
3318 09-02-2014 22:35:00 2.2 C 92 % 1.04 C
3319 09-02-2014 22:40:00 2.2 C 92 % 1.04 C
3320 09-02-2014 22:45:00 2.2 C 92 % 1.04 C
3321 09-02-2014 22:50:00 2.2 C 92 % 1.04 C
3322 09-02-2014 22:55:00 2.2 C 92 % 1.04 C
3323 09-02-2014 23:00:00 2 C 92 % 0.84 C
3324 09-02-2014 23:05:00 1.9 C 92 % 0.74 C
3325 09-02-2014 23:10:00 1.9 C 93 % 0.89 C
Sensor: Nr:Datum:Temp:Feuchte:Taupunkt:
Aussen-T/F 3326 09-02-2014 23:15:00 1.9 C 93 % 0.89 C
3327 09-02-2014 23:20:00 1.8 C 93 % 0.79 C
3328 09-02-2014 23:25:00 1.8 C 93 % 0.79 C
3329 09-02-2014 23:30:00 1.7 C 93 % 0.69 C
3330 09-02-2014 23:35:00 1.7 C 93 % 0.69 C
3331 09-02-2014 23:40:00 1.7 C 93 % 0.69 C
3332 09-02-2014 23:45:00 1.6 C 93 % 0.59 C
3333 09-02-2014 23:50:00 1.6 C 93 % 0.59 C
3334 09-02-2014 23:55:00 1.5 C 93 % 0.49 C
3335 10-02-2014 00:00:00 1.5 C 93 % 0.49 C
3336 10-02-2014 00:05:00 1.5 C 93 % 0.49 C
3337 10-02-2014 00:10:00 1.5 C 94 % 0.64 C
3338 10-02-2014 00:15:00 1.6 C 94 % 0.74 C
3339 10-02-2014 00:20:00 1.5 C 94 % 0.64 C
3340 10-02-2014 00:25:00 1.4 C 93 % 0.4 C
3341 10-02-2014 00:30:00 1.4 C 93 % 0.4 C
3342 10-02-2014 00:35:00 1.3 C 94 % 0.44 C
3343 10-02-2014 00:40:00 1.3 C 94 % 0.44 C
3344 10-02-2014 00:45:00 1.3 C 94 % 0.44 C
3345 10-02-2014 00:50:00 1.4 C 94 % 0.54 C
3346 10-02-2014 00:55:00 1.4 C 94 % 0.54 C
3347 10-02-2014 01:00:00 1.4 C 94 % 0.54 C
3348 10-02-2014 01:05:00 1.4 C 94 % 0.54 C
3349 10-02-2014 01:10:00 1.3 C 94 % 0.44 C
3350 10-02-2014 01:15:00 1.2 C 94 % 0.34 C
Sensor: Nr:Datum:Temp:Feuchte:Taupunkt:
Aussen-T/F 3351 10-02-2014 01:20:00 1.2 C 93 % 0.2 C
3352 10-02-2014 01:25:00 1.2 C 94 % 0.34 C
3353 10-02-2014 01:30:00 1.1 C 94 % 0.24 C
3354 10-02-2014 01:35:00 1 C 94 % 0.15 C
3355 10-02-2014 01:40:00 1 C 94 % 0.15 C
3356 10-02-2014 01:45:00 1.1 C 94 % 0.24 C
3357 10-02-2014 01:50:00 1.1 C 94 % 0.24 C
3358 10-02-2014 01:55:00 1.1 C 94 % 0.24 C
3359 10-02-2014 02:00:00 1 C 94 % 0.15 C
3360 10-02-2014 02:05:00 0.9 C 94 % 0.05 C
3361 10-02-2014 02:10:00 0.8 C 94 % -0.05 C
3362 10-02-2014 02:15:00 0.8 C 94 % -0.05 C
3363 10-02-2014 02:20:00 0.8 C 94 % -0.05 C
3364 10-02-2014 02:25:00 0.8 C 94 % -0.05 C
3365 10-02-2014 02:30:00 0.8 C 94 % -0.05 C
3366 10-02-2014 02:35:00 0.9 C 95 % 0.19 C
3367 10-02-2014 02:40:00 1.2 C 95 % 0.49 C
3368 10-02-2014 02:45:00 1.6 C 95 % 0.89 C
3369 10-02-2014 02:50:00 1.9 C 94 % 1.04 C
3370 10-02-2014 02:55:00 2.3 C 93 % 1.29 C
3371 10-02-2014 03:00:00 2.6 C 92 % 1.43 C
3372 10-02-2014 03:05:00 2.8 C 90 % 1.33 C
3373 10-02-2014 03:10:00 2.9 C 89 % 1.27 C
3374 10-02-2014 03:15:00 3 C 89 % 1.37 C
3375 10-02-2014 03:20:00 3 C 89 % 1.37 C
Sensor: Nr:Datum:Temp:Feuchte:Taupunkt:
Aussen-T/F 3376 10-02-2014 03:25:00 3 C 88 % 1.21 C
3377 10-02-2014 03:30:00 3 C 88 % 1.21 C
3378 10-02-2014 03:35:00 2.9 C 88 % 1.11 C
3379 10-02-2014 03:40:00 2.8 C 88 % 1.02 C
3380 10-02-2014 03:45:00 2.8 C 89 % 1.17 C
3381 10-02-2014 03:50:00 2.7 C 88 % 0.92 C
3382 10-02-2014 03:55:00 2.6 C 89 % 0.97 C
3383 10-02-2014 04:00:00 2.4 C 89 % 0.78 C
3384 10-02-2014 04:05:00 2.2 C 89 % 0.58 C
3385 10-02-2014 04:10:00 1.9 C 89 % 0.28 C
3386 10-02-2014 04:15:00 1.7 C 90 % 0.24 C
3387 10-02-2014 04:20:00 1.5 C 91 % 0.19 C
3388 10-02-2014 04:25:00 1.3 C 92 % 0.15 C
3389 10-02-2014 04:30:00 1.2 C 92 % 0.05 C
3390 10-02-2014 04:35:00 1.2 C 93 % 0.2 C
3391 10-02-2014 04:40:00 1.2 C 93 % 0.2 C
3392 10-02-2014 04:45:00 1.2 C 93 % 0.2 C
3393 10-02-2014 04:50:00 1.2 C 93 % 0.2 C
3394 10-02-2014 04:55:00 1.1 C 93 % 0.1 C
3395 10-02-2014 05:00:00 1.1 C 93 % 0.1 C
3396 10-02-2014 05:05:00 1.1 C 94 % 0.24 C
3397 10-02-2014 05:10:00 1.2 C 94 % 0.34 C
3398 10-02-2014 05:15:00 1.3 C 94 % 0.44 C
3399 10-02-2014 05:20:00 1.3 C 93 % 0.3 C
3400 10-02-2014 05:25:00 1.4 C 94 % 0.54 C
Sensor: Nr:Datum:Temp:Feuchte:Taupunkt:
Aussen-T/F 3401 10-02-2014 05:30:00 1.6 C 93 % 0.59 C
3402 10-02-2014 05:35:00 1.9 C 93 % 0.89 C
3403 10-02-2014 05:40:00 2.3 C 92 % 1.14 C
3404 10-02-2014 05:45:00 2.6 C 90 % 1.13 C
3405 10-02-2014 05:50:00 2.7 C 89 % 1.07 C
3406 10-02-2014 05:55:00 2.8 C 88 % 1.02 C
3407 10-02-2014 06:00:00 2.9 C 87 % 0.96 C
3408 10-02-2014 06:05:00 3 C 87 % 1.05 C
3409 10-02-2014 06:10:00 3.1 C 86 % 0.99 C
3410 10-02-2014 06:15:00 3.1 C 86 % 0.99 C
3411 10-02-2014 06:20:00 3.2 C 85 % 0.93 C
3412 10-02-2014 06:25:00 3.3 C 85 % 1.03 C
3413 10-02-2014 06:30:00 3.2 C 85 % 0.93 C
3414 10-02-2014 06:35:00 3.2 C 85 % 0.93 C
3415 10-02-2014 06:40:00 3.2 C 85 % 0.93 C
3416 10-02-2014 06:45:00 3.1 C 86 % 0.99 C
3417 10-02-2014 06:50:00 2.8 C 87 % 0.86 C
3418 10-02-2014 06:55:00 2.6 C 88 % 0.82 C
3419 10-02-2014 07:00:00 2.6 C 88 % 0.82 C
3420 10-02-2014 07:05:00 2.4 C 89 % 0.78 C
3421 10-02-2014 07:10:00 2.3 C 89 % 0.68 C
3422 10-02-2014 07:15:00 2.3 C 89 % 0.68 C
3423 10-02-2014 07:20:00 2.2 C 90 % 0.73 C
3424 10-02-2014 07:25:00 2.2 C 90 % 0.73 C
3425 10-02-2014 07:30:00 2.2 C 90 % 0.73 C
Sensor: Nr:Datum:Temp:Feuchte:Taupunkt:
Aussen-T/F 3426 10-02-2014 07:35:00 2.2 C 90 % 0.73 C
3427 10-02-2014 07:40:00 2.2 C 90 % 0.73 C
3428 10-02-2014 07:45:00 2.1 C 90 % 0.64 C
3429 10-02-2014 07:50:00 2.1 C 90 % 0.64 C
3430 10-02-2014 07:55:00 2.1 C 90 % 0.64 C
3431 10-02-2014 08:00:00 2.1 C 90 % 0.64 C
3432 10-02-2014 08:05:00 2.1 C 90 % 0.64 C
3433 10-02-2014 08:10:00 1.9 C 90 % 0.44 C
3434 10-02-2014 08:15:00 1.9 C 91 % 0.59 C
3435 10-02-2014 08:20:00 1.8 C 91 % 0.49 C
3436 10-02-2014 08:25:00 1.8 C 91 % 0.49 C
3437 10-02-2014 08:30:00 1.8 C 92 % 0.64 C
3438 10-02-2014 08:35:00 1.9 C 92 % 0.74 C
3439 10-02-2014 08:40:00 1.9 C 92 % 0.74 C
3440 10-02-2014 08:45:00 1.9 C 92 % 0.74 C
3441 10-02-2014 08:50:00 1.9 C 92 % 0.74 C
3442 10-02-2014 08:55:00 2 C 92 % 0.84 C
3443 10-02-2014 09:00:00 2.1 C 92 % 0.94 C
3444 10-02-2014 09:05:00 2.1 C 92 % 0.94 C
3445 10-02-2014 09:10:00 2.2 C 92 % 1.04 C
3446 10-02-2014 09:15:00 2.2 C 92 % 1.04 C
3447 10-02-2014 09:20:00 2.3 C 91 % 0.99 C
3448 10-02-2014 09:25:00 2.3 C 91 % 0.99 C
3449 10-02-2014 09:30:00 2.3 C 91 % 0.99 C
3450 10-02-2014 09:35:00 2.4 C 91 % 1.08 C
Sensor: Nr:Datum:Temp:Feuchte:Taupunkt:
Aussen-T/F 3451 10-02-2014 09:40:00 2.4 C 91 % 1.08 C
3452 10-02-2014 09:45:00 2.4 C 91 % 1.08 C
3453 10-02-2014 09:50:00 2.5 C 91 % 1.18 C
3454 10-02-2014 09:55:00 2.6 C 90 % 1.13 C
3455 10-02-2014 10:00:00 2.8 C 90 % 1.33 C
3456 10-02-2014 10:05:00 2.9 C 89 % 1.27 C
3457 10-02-2014 10:10:00 3.1 C 89 % 1.47 C
3458 10-02-2014 10:15:00 3.2 C 87 % 1.25 C
3459 10-02-2014 10:20:00 3.4 C 86 % 1.29 C
3460 10-02-2014 10:25:00 3.6 C 85 % 1.32 C
3461 10-02-2014 10:30:00 3.8 C 84 % 1.35 C
3462 10-02-2014 10:35:00 4.1 C 84 % 1.65 C
3463 10-02-2014 10:40:00 4.3 C 83 % 1.67 C
3464 10-02-2014 10:45:00 4.6 C 81 % 1.63 C
3465 10-02-2014 10:50:00 4.8 C 80 % 1.65 C
3466 10-02-2014 10:55:00 5.1 C 79 % 1.77 C
3467 10-02-2014 11:00:00 5.2 C 78 % 1.69 C
3468 10-02-2014 11:05:00 5.4 C 77 % 1.7 C
3469 10-02-2014 11:10:00 5.6 C 76 % 1.71 C
3470 10-02-2014 11:15:00 5.8 C 75 % 1.72 C
3471 10-02-2014 11:20:00 5.9 C 74 % 1.63 C
3472 10-02-2014 11:25:00 6.1 C 74 % 1.82 C
3473 10-02-2014 11:30:00 6.1 C 72 % 1.44 C
3474 10-02-2014 11:35:00 6.2 C 72 % 1.54 C
3475 10-02-2014 11:40:00 6.3 C 72 % 1.63 C
Sensor: Nr:Datum:Temp:Feuchte:Taupunkt:
Aussen-T/F 3476 10-02-2014 11:45:00 6.3 C 70 % 1.24 C
3477 10-02-2014 11:50:00 6.3 C 70 % 1.24 C
3478 10-02-2014 11:55:00 6.3 C 69 % 1.04 C
3479 10-02-2014 12:00:00 6.4 C 68 % 0.94 C
3480 10-02-2014 12:05:00 6.4 C 67 % 0.73 C
3481 10-02-2014 12:10:00 6.4 C 67 % 0.73 C
3482 10-02-2014 12:15:00 6.4 C 68 % 0.94 C
3483 10-02-2014 12:20:00 6.5 C 65 % 0.41 C
3484 10-02-2014 12:25:00 6.5 C 66 % 0.62 C
3485 10-02-2014 12:30:00 6.5 C 65 % 0.41 C
3486 10-02-2014 12:35:00 6.5 C 64 % 0.19 C
3487 10-02-2014 12:40:00 6.6 C 64 % 0.29 C
3488 10-02-2014 12:45:00 6.6 C 65 % 0.5 C
3489 10-02-2014 12:50:00 6.6 C 64 % 0.29 C
3490 10-02-2014 12:55:00 6.6 C 65 % 0.5 C
3491 10-02-2014 13:00:00 6.6 C 64 % 0.29 C
3492 10-02-2014 13:05:00 6.7 C 64 % 0.38 C
3493 10-02-2014 13:10:00 6.7 C 64 % 0.38 C
3494 10-02-2014 13:15:00 6.7 C 65 % 0.6 C
3495 10-02-2014 13:20:00 6.7 C 63 % 0.17 C
3496 10-02-2014 13:25:00 6.6 C 65 % 0.5 C
3497 10-02-2014 13:30:00 6.6 C 64 % 0.29 C
3498 10-02-2014 13:35:00 6.6 C 64 % 0.29 C
3499 10-02-2014 13:40:00 6.7 C 64 % 0.38 C
3500 10-02-2014 13:45:00 6.7 C 64 % 0.38 C
Sensor: Nr:Datum:Temp:Feuchte:Taupunkt:
Aussen-T/F 3501 10-02-2014 13:50:00 6.7 C 63 % 0.17 C
3502 10-02-2014 13:55:00 6.7 C 64 % 0.38 C
3503 10-02-2014 14:00:00 6.7 C 64 % 0.38 C
3504 10-02-2014 14:05:00 6.7 C 64 % 0.38 C
3505 10-02-2014 14:10:00 6.8 C 64 % 0.48 C
3506 10-02-2014 14:15:00 6.8 C 64 % 0.48 C
3507 10-02-2014 14:20:00 6.8 C 64 % 0.48 C
3508 10-02-2014 14:25:00 6.8 C 64 % 0.48 C
3509 10-02-2014 14:30:00 6.8 C 63 % 0.26 C
3510 10-02-2014 14:35:00 6.8 C 65 % 0.69 C
3511 10-02-2014 14:40:00 6.8 C 64 % 0.48 C
3512 10-02-2014 14:45:00 6.8 C 64 % 0.48 C
3513 10-02-2014 14:50:00 6.8 C 65 % 0.69 C
3514 10-02-2014 14:55:00 6.8 C 65 % 0.69 C
3515 10-02-2014 15:00:00 6.8 C 65 % 0.69 C
3516 10-02-2014 15:05:00 6.7 C 67 % 1.02 C
3517 10-02-2014 15:10:00 6.6 C 69 % 1.33 C
3518 10-02-2014 15:15:00 6.4 C 70 % 1.34 C
3519 10-02-2014 15:20:00 6.3 C 71 % 1.44 C
3520 10-02-2014 15:25:00 6.1 C 73 % 1.63 C
3521 10-02-2014 15:30:00 5.9 C 75 % 1.82 C
3522 10-02-2014 15:35:00 5.8 C 78 % 2.27 C
3523 10-02-2014 15:40:00 5.6 C 79 % 2.25 C
3524 10-02-2014 15:45:00 5.5 C 82 % 2.68 C
3525 10-02-2014 15:50:00 5.3 C 84 % 2.82 C
Sensor: Nr:Datum:Temp:Feuchte:Taupunkt:
Aussen-T/F 3526 10-02-2014 15:55:00 5.2 C 85 % 2.89 C
3527 10-02-2014 16:00:00 5.1 C 85 % 2.79 C
3528 10-02-2014 16:05:00 5 C 87 % 3.02 C
3529 10-02-2014 16:10:00 4.9 C 88 % 3.08 C
3530 10-02-2014 16:15:00 4.7 C 89 % 3.05 C
3531 10-02-2014 16:20:00 4.6 C 90 % 3.1 C
3532 10-02-2014 16:25:00 4.5 C 91 % 3.16 C
3533 10-02-2014 16:30:00 4.4 C 91 % 3.06 C
3534 10-02-2014 16:35:00 4.3 C 91 % 2.96 C
3535 10-02-2014 16:40:00 4.2 C 92 % 3.02 C
3536 10-02-2014 16:45:00 4.2 C 92 % 3.02 C
3537 10-02-2014 16:50:00 4.1 C 92 % 2.92 C
3538 10-02-2014 16:55:00 4 C 92 % 2.82 C
3539 10-02-2014 17:00:00 4 C 92 % 2.82 C
3540 10-02-2014 17:05:00 3.9 C 93 % 2.87 C
3541 10-02-2014 17:10:00 3.9 C 93 % 2.87 C
3542 10-02-2014 17:15:00 3.9 C 93 % 2.87 C
3543 10-02-2014 17:20:00 3.8 C 93 % 2.77 C
3544 10-02-2014 17:25:00 3.8 C 94 % 2.93 C
3545 10-02-2014 17:30:00 3.8 C 94 % 2.93 C
3546 10-02-2014 17:35:00 3.7 C 94 % 2.83 C
3547 10-02-2014 17:40:00 3.7 C 94 % 2.83 C
3548 10-02-2014 17:45:00 3.6 C 94 % 2.73 C
3549 10-02-2014 17:50:00 3.6 C 95 % 2.88 C
3550 10-02-2014 17:55:00 3.6 C 95 % 2.88 C
Sensor: Nr:Datum:Temp:Feuchte:Taupunkt:
Aussen-T/F 3551 10-02-2014 18:00:00 3.6 C 95 % 2.88 C
3552 10-02-2014 18:05:00 3.6 C 95 % 2.88 C
3553 10-02-2014 18:10:00 3.6 C 95 % 2.88 C
3554 10-02-2014 18:15:00 3.6 C 95 % 2.88 C
3555 10-02-2014 18:20:00 3.5 C 95 % 2.78 C
3556 10-02-2014 18:25:00 3.5 C 95 % 2.78 C
3557 10-02-2014 18:30:00 3.5 C 95 % 2.78 C
3558 10-02-2014 18:35:00 3.4 C 95 % 2.68 C
3559 10-02-2014 18:40:00 3.4 C 95 % 2.68 C
3560 10-02-2014 18:45:00 3.4 C 95 % 2.68 C
3561 10-02-2014 18:50:00 3.4 C 95 % 2.68 C
3562 10-02-2014 18:55:00 3.3 C 95 % 2.58 C
3563 10-02-2014 19:00:00 3.3 C 95 % 2.58 C
3564 10-02-2014 19:05:00 3.3 C 95 % 2.58 C
3565 10-02-2014 19:10:00 3.3 C 95 % 2.58 C
3566 10-02-2014 19:15:00 3.3 C 95 % 2.58 C
3567 10-02-2014 19:20:00 3.3 C 95 % 2.58 C
3568 10-02-2014 19:25:00 3.3 C 95 % 2.58 C
3569 10-02-2014 19:30:00 3.3 C 95 % 2.58 C
3570 10-02-2014 19:35:00 3.3 C 96 % 2.72 C
3571 10-02-2014 19:40:00 3.3 C 96 % 2.72 C
3572 10-02-2014 19:45:00 3.3 C 96 % 2.72 C
3573 10-02-2014 19:50:00 3.3 C 96 % 2.72 C
3574 10-02-2014 19:55:00 3.3 C 96 % 2.72 C
3575 10-02-2014 20:00:00 3.3 C 96 % 2.72 C
Sensor: Nr:Datum:Temp:Feuchte:Taupunkt:
Aussen-T/F 3576 10-02-2014 20:05:00 3.3 C 96 % 2.72 C
3577 10-02-2014 20:10:00 3.3 C 96 % 2.72 C
3578 10-02-2014 20:15:00 3.3 C 96 % 2.72 C
3579 10-02-2014 20:20:00 3.3 C 96 % 2.72 C
3580 10-02-2014 20:25:00 3.3 C 96 % 2.72 C
3581 10-02-2014 20:30:00 3.2 C 96 % 2.63 C
3582 10-02-2014 20:35:00 3.1 C 95 % 2.38 C
3583 10-02-2014 20:40:00 3 C 95 % 2.28 C
3584 10-02-2014 20:45:00 2.9 C 96 % 2.33 C
3585 10-02-2014 20:50:00 2.9 C 96 % 2.33 C
3586 10-02-2014 20:55:00 2.8 C 95 % 2.08 C
3587 10-02-2014 21:00:00 2.8 C 95 % 2.08 C
3588 10-02-2014 21:05:00 2.7 C 95 % 1.98 C
3589 10-02-2014 21:10:00 2.7 C 95 % 1.98 C
3590 10-02-2014 21:15:00 2.6 C 95 % 1.88 C
3591 10-02-2014 21:20:00 2.6 C 95 % 1.88 C
3592 10-02-2014 21:25:00 2.6 C 95 % 1.88 C
3593 10-02-2014 21:30:00 2.6 C 95 % 1.88 C
3594 10-02-2014 21:35:00 2.6 C 95 % 1.88 C
3595 10-02-2014 21:40:00 2.6 C 95 % 1.88 C
3596 10-02-2014 21:45:00 2.6 C 95 % 1.88 C
3597 10-02-2014 21:50:00 2.6 C 95 % 1.88 C
3598 10-02-2014 21:55:00 2.6 C 95 % 1.88 C
3599 10-02-2014 22:00:00 2.6 C 96 % 2.03 C
3600 10-02-2014 22:05:00 2.6 C 95 % 1.88 C
Sensor: Nr:Datum:Temp:Feuchte:Taupunkt:
Aussen-T/F 3601 10-02-2014 22:10:00 2.6 C 95 % 1.88 C
3602 10-02-2014 22:15:00 2.6 C 95 % 1.88 C
3603 10-02-2014 22:20:00 2.6 C 95 % 1.88 C
3604 10-02-2014 22:25:00 2.6 C 96 % 2.03 C
3605 10-02-2014 22:30:00 2.6 C 96 % 2.03 C
3606 10-02-2014 22:35:00 2.6 C 95 % 1.88 C
3607 10-02-2014 22:40:00 2.6 C 95 % 1.88 C
3608 10-02-2014 22:45:00 2.7 C 95 % 1.98 C
3609 10-02-2014 22:50:00 2.7 C 95 % 1.98 C
3610 10-02-2014 22:55:00 2.8 C 95 % 2.08 C
3611 10-02-2014 23:00:00 2.8 C 95 % 2.08 C
3612 10-02-2014 23:05:00 2.9 C 95 % 2.18 C
3613 10-02-2014 23:10:00 2.9 C 95 % 2.18 C
3614 10-02-2014 23:15:00 2.8 C 94 % 1.93 C
3615 10-02-2014 23:20:00 2.8 C 95 % 2.08 C
3616 10-02-2014 23:25:00 2.7 C 94 % 1.83 C
3617 10-02-2014 23:30:00 2.7 C 95 % 1.98 C
3618 10-02-2014 23:35:00 2.6 C 95 % 1.88 C
3619 10-02-2014 23:40:00 2.6 C 95 % 1.88 C
3620 10-02-2014 23:45:00 2.6 C 95 % 1.88 C
3621 10-02-2014 23:50:00 2.6 C 95 % 1.88 C
3622 10-02-2014 23:55:00 2.5 C 95 % 1.78 C
3623 11-02-2014 00:00:00 2.7 C 95 % 1.98 C
3624 11-02-2014 00:05:00 2.8 C 96 % 2.23 C
3625 11-02-2014 00:10:00 2.9 C 95 % 2.18 C
Sensor: Nr:Datum:Temp:Feuchte:Taupunkt:
Aussen-T/F 3626 11-02-2014 00:15:00 3 C 95 % 2.28 C
3627 11-02-2014 00:20:00 2.9 C 95 % 2.18 C
3628 11-02-2014 00:25:00 2.9 C 95 % 2.18 C
3629 11-02-2014 00:30:00 2.9 C 95 % 2.18 C
3630 11-02-2014 00:35:00 3.1 C 95 % 2.38 C
3631 11-02-2014 00:40:00 3.2 C 95 % 2.48 C
3632 11-02-2014 00:45:00 3.1 C 95 % 2.38 C
3633 11-02-2014 00:50:00 2.9 C 95 % 2.18 C
3634 11-02-2014 00:55:00 3 C 95 % 2.28 C
3635 11-02-2014 01:00:00 3.1 C 94 % 2.23 C
3636 11-02-2014 01:05:00 3.2 C 94 % 2.33 C
3637 11-02-2014 01:10:00 3.3 C 93 % 2.28 C
3638 11-02-2014 01:15:00 3.3 C 93 % 2.28 C
3639 11-02-2014 01:20:00 3.4 C 92 % 2.23 C
3640 11-02-2014 01:25:00 3.6 C 92 % 2.42 C
3641 11-02-2014 01:30:00 3.7 C 92 % 2.52 C
3642 11-02-2014 01:35:00 3.8 C 91 % 2.47 C
3643 11-02-2014 01:40:00 3.9 C 91 % 2.57 C
3644 11-02-2014 01:45:00 4 C 91 % 2.67 C
3645 11-02-2014 01:50:00 4.2 C 90 % 2.71 C
3646 11-02-2014 01:55:00 4.2 C 89 % 2.55 C
3647 11-02-2014 02:00:00 4.2 C 89 % 2.55 C
3648 11-02-2014 02:05:00 4.1 C 90 % 2.61 C
3649 11-02-2014 02:10:00 4.1 C 89 % 2.45 C
3650 11-02-2014 02:15:00 4.1 C 89 % 2.45 C
Sensor: Nr:Datum:Temp:Feuchte:Taupunkt:
Aussen-T/F 3651 11-02-2014 02:20:00 4.1 C 90 % 2.61 C
3652 11-02-2014 02:25:00 4.2 C 90 % 2.71 C
3653 11-02-2014 02:30:00 4.2 C 90 % 2.71 C
3654 11-02-2014 02:35:00 4.2 C 90 % 2.71 C
3655 11-02-2014 02:40:00 4.1 C 91 % 2.77 C
3656 11-02-2014 02:45:00 4 C 91 % 2.67 C
3657 11-02-2014 02:50:00 4 C 91 % 2.67 C
3658 11-02-2014 02:55:00 4 C 91 % 2.67 C
3659 11-02-2014 03:00:00 4.1 C 91 % 2.77 C
3660 11-02-2014 03:05:00 4.1 C 91 % 2.77 C
3661 11-02-2014 03:10:00 4.1 C 91 % 2.77 C
3662 11-02-2014 03:15:00 4.1 C 90 % 2.61 C
3663 11-02-2014 03:20:00 4 C 90 % 2.51 C
3664 11-02-2014 03:25:00 3.9 C 91 % 2.57 C
3665 11-02-2014 03:30:00 3.8 C 91 % 2.47 C
3666 11-02-2014 03:35:00 3.7 C 91 % 2.37 C
3667 11-02-2014 03:40:00 3.7 C 92 % 2.52 C
3668 11-02-2014 03:45:00 3.6 C 92 % 2.42 C
3669 11-02-2014 03:50:00 3.7 C 92 % 2.52 C
3670 11-02-2014 03:55:00 3.7 C 92 % 2.52 C
3671 11-02-2014 04:00:00 3.6 C 91 % 2.27 C
3672 11-02-2014 04:05:00 3.6 C 92 % 2.42 C
3673 11-02-2014 04:10:00 3.6 C 92 % 2.42 C
3674 11-02-2014 04:15:00 3.7 C 92 % 2.52 C
3675 11-02-2014 04:20:00 3.8 C 92 % 2.62 C
Sensor: Nr:Datum:Temp:Feuchte:Taupunkt:
Aussen-T/F 3676 11-02-2014 04:25:00 4.1 C 91 % 2.77 C
3677 11-02-2014 04:30:00 4.2 C 91 % 2.87 C
3678 11-02-2014 04:35:00 4.3 C 91 % 2.96 C
3679 11-02-2014 04:40:00 4.3 C 90 % 2.81 C
3680 11-02-2014 04:45:00 4.3 C 90 % 2.81 C
3681 11-02-2014 04:50:00 4.3 C 90 % 2.81 C
3682 11-02-2014 04:55:00 4.1 C 90 % 2.61 C
3683 11-02-2014 05:00:00 3.8 C 91 % 2.47 C
3684 11-02-2014 05:05:00 3.7 C 91 % 2.37 C
3685 11-02-2014 05:10:00 3.7 C 92 % 2.52 C
3686 11-02-2014 05:15:00 3.8 C 92 % 2.62 C
3687 11-02-2014 05:20:00 3.9 C 91 % 2.57 C
3688 11-02-2014 05:25:00 3.7 C 91 % 2.37 C
3689 11-02-2014 05:30:00 3.7 C 92 % 2.52 C
3690 11-02-2014 05:35:00 4.1 C 91 % 2.77 C
3691 11-02-2014 05:40:00 4.1 C 91 % 2.77 C
3692 11-02-2014 05:45:00 3.9 C 91 % 2.57 C
3693 11-02-2014 05:50:00 3.9 C 92 % 2.72 C
3694 11-02-2014 05:55:00 4.1 C 92 % 2.92 C
3695 11-02-2014 06:00:00 4.2 C 92 % 3.02 C
3696 11-02-2014 06:05:00 4.3 C 91 % 2.96 C
3697 11-02-2014 06:10:00 4.4 C 91 % 3.06 C
3698 11-02-2014 06:15:00 4.5 C 91 % 3.16 C
3699 11-02-2014 06:20:00 4.7 C 89 % 3.05 C
3700 11-02-2014 06:25:00 4.9 C 88 % 3.08 C
Sensor: Nr:Datum:Temp:Feuchte:Taupunkt:
Aussen-T/F 3701 11-02-2014 06:30:00 4.9 C 88 % 3.08 C
3702 11-02-2014 06:35:00 5 C 88 % 3.18 C
3703 11-02-2014 06:40:00 4.9 C 87 % 2.92 C
3704 11-02-2014 06:45:00 5.1 C 87 % 3.12 C
3705 11-02-2014 06:50:00 5.2 C 86 % 3.05 C
3706 11-02-2014 06:55:00 5.3 C 86 % 3.15 C
3707 11-02-2014 07:00:00 5.3 C 86 % 3.15 C
3708 11-02-2014 07:05:00 5.3 C 86 % 3.15 C
3709 11-02-2014 07:10:00 5.3 C 86 % 3.15 C
3710 11-02-2014 07:15:00 5.4 C 85 % 3.09 C
3711 11-02-2014 07:20:00 5.4 C 85 % 3.09 C
3712 11-02-2014 07:25:00 5.4 C 85 % 3.09 C
3713 11-02-2014 07:30:00 5.3 C 85 % 2.99 C
3714 11-02-2014 07:35:00 5.2 C 85 % 2.89 C
3715 11-02-2014 07:40:00 5.3 C 85 % 2.99 C
3716 11-02-2014 07:45:00 5.3 C 85 % 2.99 C
3717 11-02-2014 07:50:00 5.4 C 85 % 3.09 C
3718 11-02-2014 07:55:00 5.3 C 86 % 3.15 C
3719 11-02-2014 08:00:00 5.2 C 85 % 2.89 C
3720 11-02-2014 08:05:00 5.3 C 85 % 2.99 C
3721 11-02-2014 08:10:00 5.2 C 84 % 2.72 C
3722 11-02-2014 08:15:00 5.2 C 85 % 2.89 C
3723 11-02-2014 08:20:00 5.1 C 85 % 2.79 C
3724 11-02-2014 08:25:00 5.3 C 84 % 2.82 C
3725 11-02-2014 08:30:00 5.5 C 82 % 2.68 C
Sensor: Nr:Datum:Temp:Feuchte:Taupunkt:
Aussen-T/F 3726 11-02-2014 08:35:00 5.6 C 82 % 2.78 C
3727 11-02-2014 08:40:00 5.6 C 82 % 2.78 C
3728 11-02-2014 08:45:00 5.7 C 81 % 2.7 C
3729 11-02-2014 08:50:00 5.7 C 81 % 2.7 C
3730 11-02-2014 08:55:00 5.7 C 81 % 2.7 C
3731 11-02-2014 09:00:00 5.6 C 81 % 2.6 C
3732 11-02-2014 09:05:00 5.7 C 80 % 2.53 C
3733 11-02-2014 09:10:00 5.7 C 79 % 2.35 C
3734 11-02-2014 09:15:00 5.7 C 79 % 2.35 C
3735 11-02-2014 09:20:00 5.7 C 79 % 2.35 C
3736 11-02-2014 09:25:00 5.7 C 80 % 2.53 C
3737 11-02-2014 09:30:00 5.7 C 79 % 2.35 C
3738 11-02-2014 09:35:00 5.7 C 79 % 2.35 C
3739 11-02-2014 09:40:00 5.7 C 79 % 2.35 C
3740 11-02-2014 09:45:00 5.7 C 79 % 2.35 C
3741 11-02-2014 09:50:00 5.7 C 79 % 2.35 C
3742 11-02-2014 09:55:00 5.7 C 79 % 2.35 C
3743 11-02-2014 10:00:00 5.7 C 80 % 2.53 C
3744 11-02-2014 10:05:00 5.7 C 81 % 2.7 C
3745 11-02-2014 10:10:00 5.8 C 80 % 2.62 C
3746 11-02-2014 10:15:00 5.9 C 80 % 2.72 C
3747 11-02-2014 10:20:00 5.9 C 80 % 2.72 C
3748 11-02-2014 10:25:00 6 C 80 % 2.82 C
3749 11-02-2014 10:30:00 6 C 81 % 2.99 C
3750 11-02-2014 10:35:00 6 C 81 % 2.99 C
Sensor: Nr:Datum:Temp:Feuchte:Taupunkt:
Aussen-T/F 3751 11-02-2014 10:40:00 6 C 81 % 2.99 C
3752 11-02-2014 10:45:00 6.1 C 81 % 3.09 C
3753 11-02-2014 10:50:00 6.1 C 82 % 3.26 C
3754 11-02-2014 10:55:00 6.1 C 82 % 3.26 C
3755 11-02-2014 11:00:00 6.1 C 82 % 3.26 C
3756 11-02-2014 11:05:00 6.2 C 81 % 3.19 C
3757 11-02-2014 11:10:00 6.2 C 82 % 3.36 C
3758 11-02-2014 11:15:00 6.3 C 82 % 3.46 C
3759 11-02-2014 11:20:00 6.4 C 82 % 3.56 C
3760 11-02-2014 11:25:00 6.5 C 82 % 3.66 C
3761 11-02-2014 11:30:00 6.6 C 81 % 3.58 C
3762 11-02-2014 11:35:00 6.6 C 81 % 3.58 C
3763 11-02-2014 11:40:00 6.6 C 81 % 3.58 C
3764 11-02-2014 11:45:00 6.6 C 80 % 3.4 C
3765 11-02-2014 11:50:00 6.6 C 79 % 3.23 C
3766 11-02-2014 11:55:00 6.5 C 79 % 3.13 C
3767 11-02-2014 12:00:00 6.4 C 79 % 3.03 C
3768 11-02-2014 12:05:00 6.4 C 79 % 3.03 C
3769 11-02-2014 12:10:00 6.5 C 79 % 3.13 C
3770 11-02-2014 12:15:00 6.6 C 78 % 3.05 C
3771 11-02-2014 12:20:00 6.5 C 78 % 2.95 C
3772 11-02-2014 12:25:00 6.5 C 78 % 2.95 C
3773 11-02-2014 12:30:00 6.6 C 78 % 3.05 C
3774 11-02-2014 12:35:00 6.6 C 78 % 3.05 C
3775 11-02-2014 12:40:00 6.7 C 78 % 3.14 C
Sensor: Nr:Datum:Temp:Feuchte:Taupunkt:
Aussen-T/F 3776 11-02-2014 12:45:00 6.8 C 77 % 3.06 C
3777 11-02-2014 12:50:00 6.9 C 76 % 2.97 C
3778 11-02-2014 12:55:00 6.9 C 76 % 2.97 C
3779 11-02-2014 13:00:00 7 C 76 % 3.07 C
3780 11-02-2014 13:05:00 7.1 C 75 % 2.98 C
3781 11-02-2014 13:10:00 7.1 C 74 % 2.79 C
3782 11-02-2014 13:15:00 7.1 C 73 % 2.6 C
3783 11-02-2014 13:20:00 7.2 C 75 % 3.07 C
3784 11-02-2014 13:25:00 7.2 C 74 % 2.89 C
3785 11-02-2014 13:30:00 7.4 C 74 % 3.08 C
3786 11-02-2014 13:35:00 7.4 C 73 % 2.89 C
3787 11-02-2014 13:40:00 7.5 C 73 % 2.98 C
3788 11-02-2014 13:45:00 7.6 C 72 % 2.88 C
3789 11-02-2014 13:50:00 7.6 C 73 % 3.08 C
3790 11-02-2014 13:55:00 7.6 C 73 % 3.08 C
3791 11-02-2014 14:00:00 7.6 C 72 % 2.88 C
3792 11-02-2014 14:05:00 7.7 C 71 % 2.78 C
3793 11-02-2014 14:10:00 7.8 C 71 % 2.88 C
3794 11-02-2014 14:15:00 7.9 C 69 % 2.57 C
3795 11-02-2014 14:20:00 7.8 C 71 % 2.88 C
3796 11-02-2014 14:25:00 7.9 C 71 % 2.98 C
3797 11-02-2014 14:30:00 8.1 C 69 % 2.77 C
3798 11-02-2014 14:35:00 8.1 C 69 % 2.77 C
3799 11-02-2014 14:40:00 8.2 C 67 % 2.45 C
3800 11-02-2014 14:45:00 8.3 C 66 % 2.33 C
Sensor: Nr:Datum:Temp:Feuchte:Taupunkt:
Aussen-T/F 3801 11-02-2014 14:50:00 8.2 C 65 % 2.02 C
3802 11-02-2014 14:55:00 8.2 C 64 % 1.81 C
3803 11-02-2014 15:00:00 8.3 C 66 % 2.33 C
3804 11-02-2014 15:05:00 8.4 C 66 % 2.43 C
3805 11-02-2014 15:10:00 8.6 C 65 % 2.4 C
3806 11-02-2014 15:15:00 8.5 C 65 % 2.31 C
3807 11-02-2014 15:20:00 8.4 C 64 % 2 C
3808 11-02-2014 15:25:00 8.4 C 65 % 2.21 C
3809 11-02-2014 15:30:00 8.4 C 64 % 2 C
3810 11-02-2014 15:35:00 8.5 C 65 % 2.31 C
3811 11-02-2014 15:40:00 8.4 C 65 % 2.21 C
3812 11-02-2014 15:45:00 8.3 C 64 % 1.9 C
3813 11-02-2014 15:50:00 8.2 C 65 % 2.02 C
3814 11-02-2014 15:55:00 8.2 C 65 % 2.02 C
3815 11-02-2014 16:00:00 8.1 C 65 % 1.93 C
3816 11-02-2014 16:05:00 8.1 C 65 % 1.93 C
3817 11-02-2014 16:10:00 7.8 C 68 % 2.27 C
3818 11-02-2014 16:15:00 7.6 C 71 % 2.69 C
3819 11-02-2014 16:20:00 7.3 C 72 % 2.6 C
3820 11-02-2014 16:25:00 7.2 C 74 % 2.89 C
3821 11-02-2014 16:30:00 7.1 C 73 % 2.6 C
3822 11-02-2014 16:35:00 6.9 C 76 % 2.97 C
3823 11-02-2014 16:40:00 6.8 C 70 % 1.72 C
3824 11-02-2014 16:45:00 6.8 C 72 % 2.12 C
3825 11-02-2014 16:50:00 6.8 C 67 % 1.11 C
Sensor: Nr:Datum:Temp:Feuchte:Taupunkt:
Aussen-T/F 3826 11-02-2014 16:55:00 7.1 C 69 % 1.81 C
3827 11-02-2014 17:00:00 6.9 C 71 % 2.02 C
3828 11-02-2014 17:05:00 6.8 C 69 % 1.52 C
3829 11-02-2014 17:10:00 6.6 C 73 % 2.12 C
3830 11-02-2014 17:15:00 6.3 C 76 % 2.39 C
3831 11-02-2014 17:20:00 6.1 C 77 % 2.38 C
3832 11-02-2014 17:25:00 5.9 C 78 % 2.37 C
3833 11-02-2014 17:30:00 5.7 C 81 % 2.7 C
3834 11-02-2014 17:35:00 5.4 C 81 % 2.41 C
3835 11-02-2014 17:40:00 5.2 C 82 % 2.39 C
3836 11-02-2014 17:45:00 4.9 C 84 % 2.43 C
3837 11-02-2014 17:50:00 4.8 C 84 % 2.33 C
3838 11-02-2014 17:55:00 4.7 C 85 % 2.4 C
3839 11-02-2014 18:00:00 4.7 C 83 % 2.07 C
3840 11-02-2014 18:05:00 4.7 C 84 % 2.23 C
3841 11-02-2014 18:10:00 4.6 C 84 % 2.14 C
3842 11-02-2014 18:15:00 4.6 C 85 % 2.3 C
3843 11-02-2014 18:20:00 4.6 C 85 % 2.3 C
3844 11-02-2014 18:25:00 4.6 C 86 % 2.47 C
3845 11-02-2014 18:30:00 4.5 C 85 % 2.2 C
3846 11-02-2014 18:35:00 4.5 C 86 % 2.37 C
3847 11-02-2014 18:40:00 4.4 C 86 % 2.27 C
3848 11-02-2014 18:45:00 4.5 C 85 % 2.2 C
3849 11-02-2014 18:50:00 4.6 C 85 % 2.3 C
3850 11-02-2014 18:55:00 4.6 C 85 % 2.3 C
Sensor: Nr:Datum:Temp:Feuchte:Taupunkt:
Aussen-T/F 3851 11-02-2014 19:00:00 4.6 C 86 % 2.47 C
3852 11-02-2014 19:05:00 4.6 C 85 % 2.3 C
3853 11-02-2014 19:10:00 4.6 C 86 % 2.47 C
3854 11-02-2014 19:15:00 4.6 C 86 % 2.47 C
3855 11-02-2014 19:20:00 4.6 C 86 % 2.47 C
3856 11-02-2014 19:25:00 4.5 C 86 % 2.37 C
3857 11-02-2014 19:30:00 4.6 C 86 % 2.47 C
3858 11-02-2014 19:35:00 4.6 C 84 % 2.14 C
3859 11-02-2014 19:40:00 4.7 C 82 % 1.9 C
3860 11-02-2014 19:45:00 4.9 C 83 % 2.26 C
3861 11-02-2014 19:50:00 4.8 C 84 % 2.33 C
3862 11-02-2014 19:55:00 4.7 C 85 % 2.4 C
3863 11-02-2014 20:00:00 4.7 C 85 % 2.4 C
3864 11-02-2014 20:05:00 4.7 C 85 % 2.4 C
3865 11-02-2014 20:10:00 4.7 C 84 % 2.23 C
3866 11-02-2014 20:15:00 4.8 C 84 % 2.33 C
3867 11-02-2014 20:20:00 4.8 C 85 % 2.5 C
3868 11-02-2014 20:25:00 4.7 C 84 % 2.23 C
3869 11-02-2014 20:30:00 4.7 C 85 % 2.4 C
3870 11-02-2014 20:35:00 4.6 C 85 % 2.3 C
3871 11-02-2014 20:40:00 4.6 C 84 % 2.14 C
3872 11-02-2014 20:45:00 4.7 C 86 % 2.56 C
3873 11-02-2014 20:50:00 4.6 C 85 % 2.3 C
3874 11-02-2014 20:55:00 4.6 C 86 % 2.47 C
3875 11-02-2014 21:00:00 4.6 C 86 % 2.47 C
Sensor: Nr:Datum:Temp:Feuchte:Taupunkt:
Aussen-T/F 3876 11-02-2014 21:05:00 4.6 C 85 % 2.3 C
3877 11-02-2014 21:10:00 4.7 C 83 % 2.07 C
3878 11-02-2014 21:15:00 4.9 C 82 % 2.09 C
3879 11-02-2014 21:20:00 5.1 C 82 % 2.29 C
3880 11-02-2014 21:25:00 5.3 C 79 % 1.96 C
3881 11-02-2014 21:30:00 5.4 C 80 % 2.23 C
3882 11-02-2014 21:35:00 5.5 C 79 % 2.16 C
3883 11-02-2014 21:40:00 5.6 C 80 % 2.43 C
3884 11-02-2014 21:45:00 5.6 C 78 % 2.07 C
3885 11-02-2014 21:50:00 5.7 C 79 % 2.35 C
3886 11-02-2014 21:55:00 5.7 C 76 % 1.81 C
3887 11-02-2014 22:00:00 5.7 C 78 % 2.17 C
3888 11-02-2014 22:05:00 5.7 C 79 % 2.35 C
3889 11-02-2014 22:10:00 5.6 C 81 % 2.6 C
3890 11-02-2014 22:15:00 5.4 C 80 % 2.23 C
3891 11-02-2014 22:20:00 5.5 C 79 % 2.16 C
3892 11-02-2014 22:25:00 5.6 C 80 % 2.43 C
3893 11-02-2014 22:30:00 5.5 C 79 % 2.16 C
3894 11-02-2014 22:35:00 5.6 C 78 % 2.07 C
3895 11-02-2014 22:40:00 5.7 C 78 % 2.17 C
3896 11-02-2014 22:45:00 5.7 C 79 % 2.35 C
3897 11-02-2014 22:50:00 5.8 C 79 % 2.45 C
3898 11-02-2014 22:55:00 5.7 C 81 % 2.7 C
3899 11-02-2014 23:00:00 5.6 C 82 % 2.78 C
3900 11-02-2014 23:05:00 5.6 C 78 % 2.07 C
Sensor: Nr:Datum:Temp:Feuchte:Taupunkt:
Aussen-T/F 3901 11-02-2014 23:10:00 5.7 C 79 % 2.35 C
</